<?xml version='1.0' encoding='UTF-8'?>
<gpx version="1.1" creator="https://www.komoot.de" xmlns="http://www.topografix.com/GPX/1/1" xmlns:xsi="http://www.w3.org/2001/XMLSchema-instance" xsi:schemaLocation="http://www.topografix.com/GPX/1/1 http://www.topografix.com/GPX/1/1/gpx.xsd">
  <metadata>
    <name>Sen2026/3 Lila Radschmetterling</name>
    <author>
      <link href="https://www.komoot.de">
        <text>komoot</text>
        <type>text/html</type>
      </link>
    </author>
  </metadata>
  <wpt lat="49.377326" lon="10.178982">
    <name>Marktplatz von Rothenburg ob der Tauber</name>
    <sym>Flag, Blue</sym>
  </wpt>
  <wpt lat="49.373173" lon="10.179027">
    <name>Kobolzeller Tor</name>
    <sym>Flag, Blue</sym>
  </wpt>
  <wpt lat="49.376648" lon="10.168350">
    <name>Topplerschlösschen</name>
    <sym>Flag, Blue</sym>
  </wpt>
  <wpt lat="49.348637" lon="10.040319">
    <name>Waldweg durch den Schorrenwald</name>
    <sym>Flag, Blue</sym>
  </wpt>
  <wpt lat="49.290268" lon="10.152315">
    <name>Wilhelmsmühle</name>
    <sym>Flag, Blue</sym>
  </wpt>
  <wpt lat="49.287489" lon="10.195994">
    <name>Bodenloses Loch</name>
    <sym>Flag, Blue</sym>
  </wpt>
  <wpt lat="49.310230" lon="10.223062">
    <name>Blick auf den Naturpark Frankenhöhe</name>
    <sym>Flag, Blue</sym>
  </wpt>
  <trk>
    <name>Sen2026/3 Lila Radschmetterling</name>
    <trkseg>
      <trkpt lat="49.379941" lon="10.185771">
        <ele>438.371983</ele>
        <time>2026-04-26T14:26:07.307Z</time>
      </trkpt>
      <trkpt lat="49.379985" lon="10.185849">
        <ele>438.371983</ele>
        <time>2026-04-26T14:26:11.948Z</time>
      </trkpt>
      <trkpt lat="49.379989" lon="10.185869">
        <ele>438.371983</ele>
        <time>2026-04-26T14:26:12.903Z</time>
      </trkpt>
      <trkpt lat="49.380096" lon="10.186464">
        <ele>438.371983</ele>
        <time>2026-04-26T14:26:40.823Z</time>
      </trkpt>
      <trkpt lat="49.380122" lon="10.186450">
        <ele>438.371983</ele>
        <time>2026-04-26T14:26:41.658Z</time>
      </trkpt>
      <trkpt lat="49.380158" lon="10.186430">
        <ele>438.371983</ele>
        <time>2026-04-26T14:26:42.555Z</time>
      </trkpt>
      <trkpt lat="49.380105" lon="10.186159">
        <ele>438.371983</ele>
        <time>2026-04-26T14:26:46.652Z</time>
      </trkpt>
      <trkpt lat="49.379981" lon="10.185519">
        <ele>438.326667</ele>
        <time>2026-04-26T14:26:56.411Z</time>
      </trkpt>
      <trkpt lat="49.379942" lon="10.185334">
        <ele>438.305272</ele>
        <time>2026-04-26T14:26:59.169Z</time>
      </trkpt>
      <trkpt lat="49.379897" lon="10.185137">
        <ele>438.282301</ele>
        <time>2026-04-26T14:27:02.244Z</time>
      </trkpt>
      <trkpt lat="49.379886" lon="10.185097">
        <ele>438.277524</ele>
        <time>2026-04-26T14:27:02.924Z</time>
      </trkpt>
      <trkpt lat="49.379763" lon="10.184610">
        <ele>438.220050</ele>
        <time>2026-04-26T14:27:11.199Z</time>
      </trkpt>
      <trkpt lat="49.379703" lon="10.184505">
        <ele>438.204678</ele>
        <time>2026-04-26T14:27:13.470Z</time>
      </trkpt>
      <trkpt lat="49.379654" lon="10.184399">
        <ele>438.190375</ele>
        <time>2026-04-26T14:27:15.552Z</time>
      </trkpt>
      <trkpt lat="49.379517" lon="10.183993">
        <ele>438.140060</ele>
        <time>2026-04-26T14:27:22.100Z</time>
      </trkpt>
      <trkpt lat="49.379508" lon="10.183966">
        <ele>438.136723</ele>
        <time>2026-04-26T14:27:22.500Z</time>
      </trkpt>
      <trkpt lat="49.379476" lon="10.183869">
        <ele>438.124758</ele>
        <time>2026-04-26T14:27:23.915Z</time>
      </trkpt>
      <trkpt lat="49.379439" lon="10.183762">
        <ele>438.111428</ele>
        <time>2026-04-26T14:27:25.498Z</time>
      </trkpt>
      <trkpt lat="49.379434" lon="10.183748">
        <ele>438.109671</ele>
        <time>2026-04-26T14:27:25.698Z</time>
      </trkpt>
      <trkpt lat="49.379417" lon="10.183695">
        <ele>438.103170</ele>
        <time>2026-04-26T14:27:26.464Z</time>
      </trkpt>
      <trkpt lat="49.379156" lon="10.182918">
        <ele>437.657894</ele>
        <time>2026-04-26T14:27:38.035Z</time>
      </trkpt>
      <trkpt lat="49.379124" lon="10.182823">
        <ele>437.578824</ele>
        <time>2026-04-26T14:27:39.460Z</time>
      </trkpt>
      <trkpt lat="49.379088" lon="10.182722">
        <ele>437.493704</ele>
        <time>2026-04-26T14:27:40.998Z</time>
      </trkpt>
      <trkpt lat="49.379069" lon="10.182664">
        <ele>437.445707</ele>
        <time>2026-04-26T14:27:41.857Z</time>
      </trkpt>
      <trkpt lat="49.378971" lon="10.182394">
        <ele>437.217190</ele>
        <time>2026-04-26T14:27:45.931Z</time>
      </trkpt>
      <trkpt lat="49.378830" lon="10.182034">
        <ele>436.906618</ele>
        <time>2026-04-26T14:27:51.441Z</time>
      </trkpt>
      <trkpt lat="49.378730" lon="10.181779">
        <ele>436.686556</ele>
        <time>2026-04-26T14:27:55.267Z</time>
      </trkpt>
      <trkpt lat="49.378569" lon="10.181352">
        <ele>436.321785</ele>
        <time>2026-04-26T14:28:01.561Z</time>
      </trkpt>
      <trkpt lat="49.378451" lon="10.181043">
        <ele>436.056963</ele>
        <time>2026-04-26T14:28:06.153Z</time>
      </trkpt>
      <trkpt lat="49.378298" lon="10.180583">
        <ele>435.061491</ele>
        <time>2026-04-26T14:28:12.672Z</time>
      </trkpt>
      <trkpt lat="49.378203" lon="10.180333">
        <ele>434.473022</ele>
        <time>2026-04-26T14:28:16.154Z</time>
      </trkpt>
      <trkpt lat="49.378172" lon="10.180263">
        <ele>434.300916</ele>
        <time>2026-04-26T14:28:17.149Z</time>
      </trkpt>
      <trkpt lat="49.378151" lon="10.180211">
        <ele>434.176518</ele>
        <time>2026-04-26T14:28:17.852Z</time>
      </trkpt>
      <trkpt lat="49.378109" lon="10.180077">
        <ele>433.874179</ele>
        <time>2026-04-26T14:28:19.560Z</time>
      </trkpt>
      <trkpt lat="49.378067" lon="10.179944">
        <ele>433.573672</ele>
        <time>2026-04-26T14:28:21.213Z</time>
      </trkpt>
      <trkpt lat="49.378007" lon="10.179729">
        <ele>433.098128</ele>
        <time>2026-04-26T14:28:23.794Z</time>
      </trkpt>
      <trkpt lat="49.377924" lon="10.179434">
        <ele>432.444805</ele>
        <time>2026-04-26T14:28:27.394Z</time>
      </trkpt>
      <trkpt lat="49.377860" lon="10.179057">
        <ele>431.652758</ele>
        <time>2026-04-26T14:28:31.638Z</time>
      </trkpt>
      <trkpt lat="49.377416" lon="10.179144">
        <ele>430.052379</ele>
        <time>2026-04-26T14:28:38.981Z</time>
      </trkpt>
      <trkpt lat="49.377385" lon="10.179151">
        <ele>429.826027</ele>
        <time>2026-04-26T14:28:39.478Z</time>
      </trkpt>
      <trkpt lat="49.377372" lon="10.178974">
        <ele>428.988248</ele>
        <time>2026-04-26T14:28:47.555Z</time>
      </trkpt>
      <trkpt lat="49.377385" lon="10.179151">
        <ele>428.150470</ele>
        <time>2026-04-26T14:28:55.633Z</time>
      </trkpt>
      <trkpt lat="49.377264" lon="10.179182">
        <ele>427.264284</ele>
        <time>2026-04-26T14:28:57.500Z</time>
      </trkpt>
      <trkpt lat="49.377192" lon="10.179200">
        <ele>426.737309</ele>
        <time>2026-04-26T14:29:02.553Z</time>
      </trkpt>
      <trkpt lat="49.377144" lon="10.179212">
        <ele>426.385992</ele>
        <time>2026-04-26T14:29:05.982Z</time>
      </trkpt>
      <trkpt lat="49.377030" lon="10.179240">
        <ele>425.551989</ele>
        <time>2026-04-26T14:29:14.012Z</time>
      </trkpt>
      <trkpt lat="49.376871" lon="10.179290">
        <ele>424.379540</ele>
        <time>2026-04-26T14:29:16.406Z</time>
      </trkpt>
      <trkpt lat="49.375919" lon="10.179591">
        <ele>417.343734</ele>
        <time>2026-04-26T14:29:30.595Z</time>
      </trkpt>
      <trkpt lat="49.375659" lon="10.179707">
        <ele>414.904934</ele>
        <time>2026-04-26T14:29:35.787Z</time>
      </trkpt>
      <trkpt lat="49.375463" lon="10.179773">
        <ele>413.097499</ele>
        <time>2026-04-26T14:29:38.710Z</time>
      </trkpt>
      <trkpt lat="49.375196" lon="10.179861">
        <ele>410.637703</ele>
        <time>2026-04-26T14:29:42.670Z</time>
      </trkpt>
      <trkpt lat="49.375089" lon="10.179898">
        <ele>409.649757</ele>
        <time>2026-04-26T14:29:44.261Z</time>
      </trkpt>
      <trkpt lat="49.374722" lon="10.180013">
        <ele>406.275847</ele>
        <time>2026-04-26T14:29:49.615Z</time>
      </trkpt>
      <trkpt lat="49.374501" lon="10.180021">
        <ele>404.284604</ele>
        <time>2026-04-26T14:29:52.826Z</time>
      </trkpt>
      <trkpt lat="49.374403" lon="10.180002">
        <ele>403.394848</ele>
        <time>2026-04-26T14:29:54.267Z</time>
      </trkpt>
      <trkpt lat="49.374370" lon="10.179996">
        <ele>403.095520</ele>
        <time>2026-04-26T14:29:54.763Z</time>
      </trkpt>
      <trkpt lat="49.373935" lon="10.179894">
        <ele>399.007135</ele>
        <time>2026-04-26T14:30:01.077Z</time>
      </trkpt>
      <trkpt lat="49.373913" lon="10.179887">
        <ele>398.792646</ele>
        <time>2026-04-26T14:30:01.401Z</time>
      </trkpt>
      <trkpt lat="49.373905" lon="10.179884">
        <ele>398.714028</ele>
        <time>2026-04-26T14:30:01.517Z</time>
      </trkpt>
      <trkpt lat="49.373860" lon="10.179863">
        <ele>398.265028</ele>
        <time>2026-04-26T14:30:02.176Z</time>
      </trkpt>
      <trkpt lat="49.373817" lon="10.179841">
        <ele>397.832338</ele>
        <time>2026-04-26T14:30:02.808Z</time>
      </trkpt>
      <trkpt lat="49.373800" lon="10.179830">
        <ele>397.656227</ele>
        <time>2026-04-26T14:30:03.071Z</time>
      </trkpt>
      <trkpt lat="49.373730" lon="10.179777">
        <ele>396.911156</ele>
        <time>2026-04-26T14:30:04.168Z</time>
      </trkpt>
      <trkpt lat="49.373636" lon="10.179714">
        <ele>395.932032</ele>
        <time>2026-04-26T14:30:05.613Z</time>
      </trkpt>
      <trkpt lat="49.373528" lon="10.179644">
        <ele>394.812923</ele>
        <time>2026-04-26T14:30:07.280Z</time>
      </trkpt>
      <trkpt lat="49.373512" lon="10.179630">
        <ele>394.637124</ele>
        <time>2026-04-26T14:30:07.542Z</time>
      </trkpt>
      <trkpt lat="49.373485" lon="10.179596">
        <ele>394.303792</ele>
        <time>2026-04-26T14:30:08.202Z</time>
      </trkpt>
      <trkpt lat="49.372974" lon="10.178890">
        <ele>387.741871</ele>
        <time>2026-04-26T14:30:21.081Z</time>
      </trkpt>
      <trkpt lat="49.372967" lon="10.178791">
        <ele>387.122848</ele>
        <time>2026-04-26T14:30:22.307Z</time>
      </trkpt>
      <trkpt lat="49.373150" lon="10.178944">
        <ele>385.133686</ele>
        <time>2026-04-26T14:30:25.211Z</time>
      </trkpt>
      <trkpt lat="49.373188" lon="10.178965">
        <ele>384.748137</ele>
        <time>2026-04-26T14:30:25.770Z</time>
      </trkpt>
      <trkpt lat="49.373150" lon="10.178944">
        <ele>384.362588</ele>
        <time>2026-04-26T14:30:26.328Z</time>
      </trkpt>
      <trkpt lat="49.372967" lon="10.178791">
        <ele>382.399489</ele>
        <time>2026-04-26T14:30:29.155Z</time>
      </trkpt>
      <trkpt lat="49.372963" lon="10.178711">
        <ele>381.908513</ele>
        <time>2026-04-26T14:30:29.862Z</time>
      </trkpt>
      <trkpt lat="49.372829" lon="10.178412">
        <ele>379.687384</ele>
        <time>2026-04-26T14:30:33.100Z</time>
      </trkpt>
      <trkpt lat="49.372676" lon="10.177844">
        <ele>375.926000</ele>
        <time>2026-04-26T14:30:38.647Z</time>
      </trkpt>
      <trkpt lat="49.372261" lon="10.177088">
        <ele>369.875229</ele>
        <time>2026-04-26T14:30:47.338Z</time>
      </trkpt>
      <trkpt lat="49.372151" lon="10.176919">
        <ele>368.412995</ele>
        <time>2026-04-26T14:30:49.433Z</time>
      </trkpt>
      <trkpt lat="49.372162" lon="10.176872">
        <ele>368.107374</ele>
        <time>2026-04-26T14:30:49.876Z</time>
      </trkpt>
      <trkpt lat="49.372170" lon="10.176836">
        <ele>367.874604</ele>
        <time>2026-04-26T14:30:50.203Z</time>
      </trkpt>
      <trkpt lat="49.372265" lon="10.176718">
        <ele>367.004184</ele>
        <time>2026-04-26T14:30:51.930Z</time>
      </trkpt>
      <trkpt lat="49.372303" lon="10.176669">
        <ele>366.851050</ele>
        <time>2026-04-26T14:30:52.633Z</time>
      </trkpt>
      <trkpt lat="49.373200" lon="10.175885">
        <ele>363.665786</ele>
        <time>2026-04-26T14:31:08.543Z</time>
      </trkpt>
      <trkpt lat="49.373255" lon="10.175835">
        <ele>363.468534</ele>
        <time>2026-04-26T14:31:09.866Z</time>
      </trkpt>
      <trkpt lat="49.373297" lon="10.175794">
        <ele>363.314944</ele>
        <time>2026-04-26T14:31:10.947Z</time>
      </trkpt>
      <trkpt lat="49.373519" lon="10.175515">
        <ele>362.429643</ele>
        <time>2026-04-26T14:31:18.859Z</time>
      </trkpt>
      <trkpt lat="49.373753" lon="10.174804">
        <ele>362.924315</ele>
        <time>2026-04-26T14:31:39.663Z</time>
      </trkpt>
      <trkpt lat="49.373799" lon="10.174485">
        <ele>364.077467</ele>
        <time>2026-04-26T14:31:50.608Z</time>
      </trkpt>
      <trkpt lat="49.373776" lon="10.174292">
        <ele>364.769953</ele>
        <time>2026-04-26T14:31:57.591Z</time>
      </trkpt>
      <trkpt lat="49.373501" lon="10.173311">
        <ele>368.539531</ele>
        <time>2026-04-26T14:32:33.840Z</time>
      </trkpt>
      <trkpt lat="49.373340" lon="10.172531">
        <ele>371.303438</ele>
        <time>2026-04-26T14:32:56.137Z</time>
      </trkpt>
      <trkpt lat="49.373285" lon="10.172176">
        <ele>370.796122</ele>
        <time>2026-04-26T14:33:04.516Z</time>
      </trkpt>
      <trkpt lat="49.373303" lon="10.171941">
        <ele>370.467161</ele>
        <time>2026-04-26T14:33:09.125Z</time>
      </trkpt>
      <trkpt lat="49.373343" lon="10.171690">
        <ele>370.107909</ele>
        <time>2026-04-26T14:33:13.239Z</time>
      </trkpt>
      <trkpt lat="49.373380" lon="10.170864">
        <ele>368.956852</ele>
        <time>2026-04-26T14:33:22.368Z</time>
      </trkpt>
      <trkpt lat="49.373463" lon="10.170462">
        <ele>368.370550</ele>
        <time>2026-04-26T14:33:26.381Z</time>
      </trkpt>
      <trkpt lat="49.373552" lon="10.170200">
        <ele>367.959717</ele>
        <time>2026-04-26T14:33:29.243Z</time>
      </trkpt>
      <trkpt lat="49.373809" lon="10.169787">
        <ele>366.396057</ele>
        <time>2026-04-26T14:33:34.671Z</time>
      </trkpt>
      <trkpt lat="49.374067" lon="10.169187">
        <ele>363.084144</ele>
        <time>2026-04-26T14:33:41.215Z</time>
      </trkpt>
      <trkpt lat="49.374195" lon="10.168945">
        <ele>361.648045</ele>
        <time>2026-04-26T14:33:44.013Z</time>
      </trkpt>
      <trkpt lat="49.374389" lon="10.168614">
        <ele>359.596751</ele>
        <time>2026-04-26T14:33:48.017Z</time>
      </trkpt>
      <trkpt lat="49.374886" lon="10.168096">
        <ele>355.347803</ele>
        <time>2026-04-26T14:33:56.744Z</time>
      </trkpt>
      <trkpt lat="49.375042" lon="10.168023">
        <ele>354.385743</ele>
        <time>2026-04-26T14:33:59.328Z</time>
      </trkpt>
      <trkpt lat="49.375419" lon="10.167947">
        <ele>352.584073</ele>
        <time>2026-04-26T14:34:05.003Z</time>
      </trkpt>
      <trkpt lat="49.375745" lon="10.167777">
        <ele>350.952771</ele>
        <time>2026-04-26T14:34:10.085Z</time>
      </trkpt>
      <trkpt lat="49.376043" lon="10.167785">
        <ele>349.540535</ele>
        <time>2026-04-26T14:34:14.619Z</time>
      </trkpt>
      <trkpt lat="49.376343" lon="10.167968">
        <ele>348.011028</ele>
        <time>2026-04-26T14:34:19.668Z</time>
      </trkpt>
      <trkpt lat="49.376602" lon="10.168349">
        <ele>346.311715</ele>
        <time>2026-04-26T14:34:25.454Z</time>
      </trkpt>
      <trkpt lat="49.376620" lon="10.168384">
        <ele>346.218903</ele>
        <time>2026-04-26T14:34:25.923Z</time>
      </trkpt>
      <trkpt lat="49.376644" lon="10.168431">
        <ele>346.140818</ele>
        <time>2026-04-26T14:34:26.568Z</time>
      </trkpt>
      <trkpt lat="49.376689" lon="10.168623">
        <ele>345.874052</ele>
        <time>2026-04-26T14:34:28.697Z</time>
      </trkpt>
      <trkpt lat="49.376652" lon="10.168833">
        <ele>345.589649</ele>
        <time>2026-04-26T14:34:30.940Z</time>
      </trkpt>
      <trkpt lat="49.376627" lon="10.168905">
        <ele>345.482976</ele>
        <time>2026-04-26T14:34:31.797Z</time>
      </trkpt>
      <trkpt lat="49.376610" lon="10.168990">
        <ele>345.366733</ele>
        <time>2026-04-26T14:34:32.691Z</time>
      </trkpt>
      <trkpt lat="49.376593" lon="10.169280">
        <ele>344.986087</ele>
        <time>2026-04-26T14:34:35.663Z</time>
      </trkpt>
      <trkpt lat="49.376625" lon="10.169407">
        <ele>344.808063</ele>
        <time>2026-04-26T14:34:37.086Z</time>
      </trkpt>
      <trkpt lat="49.376787" lon="10.169582">
        <ele>344.410396</ele>
        <time>2026-04-26T14:34:40.329Z</time>
      </trkpt>
      <trkpt lat="49.376931" lon="10.169787">
        <ele>344.016167</ele>
        <time>2026-04-26T14:34:43.781Z</time>
      </trkpt>
      <trkpt lat="49.377094" lon="10.170118">
        <ele>343.473629</ele>
        <time>2026-04-26T14:34:49.348Z</time>
      </trkpt>
      <trkpt lat="49.377207" lon="10.170479">
        <ele>342.949997</ele>
        <time>2026-04-26T14:34:54.941Z</time>
      </trkpt>
      <trkpt lat="49.377348" lon="10.171155">
        <ele>342.884389</ele>
        <time>2026-04-26T14:35:06.232Z</time>
      </trkpt>
      <trkpt lat="49.377468" lon="10.172024">
        <ele>343.342550</ele>
        <time>2026-04-26T14:35:21.028Z</time>
      </trkpt>
      <trkpt lat="49.377606" lon="10.172531">
        <ele>343.625967</ele>
        <time>2026-04-26T14:35:31.328Z</time>
      </trkpt>
      <trkpt lat="49.377891" lon="10.173087">
        <ele>343.990933</ele>
        <time>2026-04-26T14:35:43.458Z</time>
      </trkpt>
      <trkpt lat="49.378149" lon="10.173332">
        <ele>343.910086</ele>
        <time>2026-04-26T14:35:50.780Z</time>
      </trkpt>
      <trkpt lat="49.378232" lon="10.173380">
        <ele>343.844417</ele>
        <time>2026-04-26T14:35:52.927Z</time>
      </trkpt>
      <trkpt lat="49.378406" lon="10.173462">
        <ele>343.709651</ele>
        <time>2026-04-26T14:35:57.219Z</time>
      </trkpt>
      <trkpt lat="49.378616" lon="10.173505">
        <ele>343.552782</ele>
        <time>2026-04-26T14:36:01.984Z</time>
      </trkpt>
      <trkpt lat="49.378722" lon="10.173481">
        <ele>343.473446</ele>
        <time>2026-04-26T14:36:04.193Z</time>
      </trkpt>
      <trkpt lat="49.378841" lon="10.173397">
        <ele>343.376474</ele>
        <time>2026-04-26T14:36:06.729Z</time>
      </trkpt>
      <trkpt lat="49.379380" lon="10.172675">
        <ele>342.846924</ele>
        <time>2026-04-26T14:36:19.538Z</time>
      </trkpt>
      <trkpt lat="49.379456" lon="10.172571">
        <ele>342.771557</ele>
        <time>2026-04-26T14:36:21.288Z</time>
      </trkpt>
      <trkpt lat="49.379480" lon="10.172482">
        <ele>342.765203</ele>
        <time>2026-04-26T14:36:22.389Z</time>
      </trkpt>
      <trkpt lat="49.379493" lon="10.172375">
        <ele>342.965640</ele>
        <time>2026-04-26T14:36:23.612Z</time>
      </trkpt>
      <trkpt lat="49.379553" lon="10.172208">
        <ele>343.316882</ele>
        <time>2026-04-26T14:36:25.828Z</time>
      </trkpt>
      <trkpt lat="49.379957" lon="10.171743">
        <ele>344.744802</ele>
        <time>2026-04-26T14:36:35.005Z</time>
      </trkpt>
      <trkpt lat="49.380431" lon="10.170849">
        <ele>346.867899</ele>
        <time>2026-04-26T14:37:02.203Z</time>
      </trkpt>
      <trkpt lat="49.380570" lon="10.170648">
        <ele>347.407865</ele>
        <time>2026-04-26T14:37:12.378Z</time>
      </trkpt>
      <trkpt lat="49.380741" lon="10.170476">
        <ele>348.456751</ele>
        <time>2026-04-26T14:37:24.264Z</time>
      </trkpt>
      <trkpt lat="49.380651" lon="10.170199">
        <ele>350.651368</ele>
        <time>2026-04-26T14:37:37.036Z</time>
      </trkpt>
      <trkpt lat="49.380621" lon="10.169775">
        <ele>353.674809</ele>
        <time>2026-04-26T14:37:55.823Z</time>
      </trkpt>
      <trkpt lat="49.380609" lon="10.169378">
        <ele>356.492180</ele>
        <time>2026-04-26T14:38:14.297Z</time>
      </trkpt>
      <trkpt lat="49.380555" lon="10.169051">
        <ele>358.883702</ele>
        <time>2026-04-26T14:38:31.028Z</time>
      </trkpt>
      <trkpt lat="49.380381" lon="10.168417">
        <ele>363.761187</ele>
        <time>2026-04-26T14:39:05.038Z</time>
      </trkpt>
      <trkpt lat="49.380195" lon="10.168014">
        <ele>367.263161</ele>
        <time>2026-04-26T14:39:25.250Z</time>
      </trkpt>
      <trkpt lat="49.379644" lon="10.167080">
        <ele>373.251806</ele>
        <time>2026-04-26T14:40:13.167Z</time>
      </trkpt>
      <trkpt lat="49.379528" lon="10.166645">
        <ele>375.467444</ele>
        <time>2026-04-26T14:40:28.737Z</time>
      </trkpt>
      <trkpt lat="49.379348" lon="10.165612">
        <ele>380.461641</ele>
        <time>2026-04-26T14:40:58.126Z</time>
      </trkpt>
      <trkpt lat="49.379350" lon="10.165185">
        <ele>381.315146</ele>
        <time>2026-04-26T14:41:08.360Z</time>
      </trkpt>
      <trkpt lat="49.379431" lon="10.164510">
        <ele>382.687054</ele>
        <time>2026-04-26T14:41:23.524Z</time>
      </trkpt>
      <trkpt lat="49.379392" lon="10.164120">
        <ele>383.475722</ele>
        <time>2026-04-26T14:41:31.769Z</time>
      </trkpt>
      <trkpt lat="49.379118" lon="10.163107">
        <ele>385.668291</ele>
        <time>2026-04-26T14:41:54.595Z</time>
      </trkpt>
      <trkpt lat="49.379077" lon="10.162881">
        <ele>386.105857</ele>
        <time>2026-04-26T14:41:59.846Z</time>
      </trkpt>
      <trkpt lat="49.379097" lon="10.162025">
        <ele>387.531467</ele>
        <time>2026-04-26T14:42:19.503Z</time>
      </trkpt>
      <trkpt lat="49.379085" lon="10.161678">
        <ele>388.109814</ele>
        <time>2026-04-26T14:42:27.172Z</time>
      </trkpt>
      <trkpt lat="49.378986" lon="10.160995">
        <ele>389.274405</ele>
        <time>2026-04-26T14:42:41.848Z</time>
      </trkpt>
      <trkpt lat="49.379030" lon="10.160166">
        <ele>390.619397</ele>
        <time>2026-04-26T14:42:58.376Z</time>
      </trkpt>
      <trkpt lat="49.379030" lon="10.159252">
        <ele>391.601058</ele>
        <time>2026-04-26T14:43:15.801Z</time>
      </trkpt>
      <trkpt lat="49.378992" lon="10.158220">
        <ele>392.711225</ele>
        <time>2026-04-26T14:43:34.597Z</time>
      </trkpt>
      <trkpt lat="49.379055" lon="10.157385">
        <ele>393.703941</ele>
        <time>2026-04-26T14:43:49.691Z</time>
      </trkpt>
      <trkpt lat="49.379063" lon="10.156813">
        <ele>394.876232</ele>
        <time>2026-04-26T14:44:00.296Z</time>
      </trkpt>
      <trkpt lat="49.379194" lon="10.155534">
        <ele>397.529113</ele>
        <time>2026-04-26T14:44:28.368Z</time>
      </trkpt>
      <trkpt lat="49.379343" lon="10.154479">
        <ele>400.126050</ele>
        <time>2026-04-26T14:44:58.012Z</time>
      </trkpt>
      <trkpt lat="49.379549" lon="10.153671">
        <ele>403.114729</ele>
        <time>2026-04-26T14:45:25.462Z</time>
      </trkpt>
      <trkpt lat="49.379657" lon="10.152851">
        <ele>405.996169</ele>
        <time>2026-04-26T14:45:52.034Z</time>
      </trkpt>
      <trkpt lat="49.379703" lon="10.152297">
        <ele>407.919697</ele>
        <time>2026-04-26T14:46:08.570Z</time>
      </trkpt>
      <trkpt lat="49.379787" lon="10.152035">
        <ele>408.701578</ele>
        <time>2026-04-26T14:46:16.403Z</time>
      </trkpt>
      <trkpt lat="49.379938" lon="10.151714">
        <ele>408.763484</ele>
        <time>2026-04-26T14:46:25.590Z</time>
      </trkpt>
      <trkpt lat="49.380201" lon="10.150904">
        <ele>408.904972</ele>
        <time>2026-04-26T14:46:39.353Z</time>
      </trkpt>
      <trkpt lat="49.380354" lon="10.150597">
        <ele>408.965408</ele>
        <time>2026-04-26T14:46:43.962Z</time>
      </trkpt>
      <trkpt lat="49.380809" lon="10.149886">
        <ele>409.121250</ele>
        <time>2026-04-26T14:46:57.145Z</time>
      </trkpt>
      <trkpt lat="49.380980" lon="10.149524">
        <ele>409.092978</ele>
        <time>2026-04-26T14:47:02.595Z</time>
      </trkpt>
      <trkpt lat="49.381255" lon="10.148841">
        <ele>409.038247</ele>
        <time>2026-04-26T14:47:12.093Z</time>
      </trkpt>
      <trkpt lat="49.381280" lon="10.148778">
        <ele>409.033218</ele>
        <time>2026-04-26T14:47:12.996Z</time>
      </trkpt>
      <trkpt lat="49.381378" lon="10.148417">
        <ele>409.006562</ele>
        <time>2026-04-26T14:47:18.526Z</time>
      </trkpt>
      <trkpt lat="49.381530" lon="10.147895">
        <ele>408.967590</ele>
        <time>2026-04-26T14:47:29.189Z</time>
      </trkpt>
      <trkpt lat="49.381693" lon="10.147616">
        <ele>408.942042</ele>
        <time>2026-04-26T14:47:36.957Z</time>
      </trkpt>
      <trkpt lat="49.381819" lon="10.147421">
        <ele>409.446501</ele>
        <time>2026-04-26T14:47:42.480Z</time>
      </trkpt>
      <trkpt lat="49.382054" lon="10.146873">
        <ele>411.494591</ele>
        <time>2026-04-26T14:47:57.022Z</time>
      </trkpt>
      <trkpt lat="49.382240" lon="10.146436">
        <ele>413.124145</ele>
        <time>2026-04-26T14:48:11.434Z</time>
      </trkpt>
      <trkpt lat="49.382680" lon="10.145657">
        <ele>416.343013</ele>
        <time>2026-04-26T14:48:45.260Z</time>
      </trkpt>
      <trkpt lat="49.383446" lon="10.143667">
        <ele>424.233347</ele>
        <time>2026-04-26T14:49:54.838Z</time>
      </trkpt>
      <trkpt lat="49.383762" lon="10.142912">
        <ele>427.327779</ele>
        <time>2026-04-26T14:50:18.299Z</time>
      </trkpt>
      <trkpt lat="49.383937" lon="10.142579">
        <ele>428.649331</ele>
        <time>2026-04-26T14:50:29.555Z</time>
      </trkpt>
      <trkpt lat="49.384023" lon="10.142332">
        <ele>429.514304</ele>
        <time>2026-04-26T14:50:36.898Z</time>
      </trkpt>
      <trkpt lat="49.384018" lon="10.142241">
        <ele>429.796309</ele>
        <time>2026-04-26T14:50:39.231Z</time>
      </trkpt>
      <trkpt lat="49.384012" lon="10.142130">
        <ele>430.140254</ele>
        <time>2026-04-26T14:50:42.127Z</time>
      </trkpt>
      <trkpt lat="49.383601" lon="10.140308">
        <ele>436.143901</ele>
        <time>2026-04-26T14:51:34.318Z</time>
      </trkpt>
      <trkpt lat="49.383113" lon="10.138836">
        <ele>441.852837</ele>
        <time>2026-04-26T14:52:23.399Z</time>
      </trkpt>
      <trkpt lat="49.383060" lon="10.138443">
        <ele>443.239897</ele>
        <time>2026-04-26T14:52:35.047Z</time>
      </trkpt>
      <trkpt lat="49.383009" lon="10.137544">
        <ele>445.767840</ele>
        <time>2026-04-26T14:52:59.805Z</time>
      </trkpt>
      <trkpt lat="49.382978" lon="10.135895">
        <ele>448.481329</ele>
        <time>2026-04-26T14:53:36.550Z</time>
      </trkpt>
      <trkpt lat="49.382559" lon="10.135581">
        <ele>449.659265</ele>
        <time>2026-04-26T14:53:48.057Z</time>
      </trkpt>
      <trkpt lat="49.382355" lon="10.135430">
        <ele>449.593101</ele>
        <time>2026-04-26T14:53:53.148Z</time>
      </trkpt>
      <trkpt lat="49.381486" lon="10.135123">
        <ele>448.689431</ele>
        <time>2026-04-26T14:54:10.954Z</time>
      </trkpt>
      <trkpt lat="49.381227" lon="10.135039">
        <ele>448.421163</ele>
        <time>2026-04-26T14:54:15.683Z</time>
      </trkpt>
      <trkpt lat="49.380609" lon="10.134700">
        <ele>447.444893</ele>
        <time>2026-04-26T14:54:27.085Z</time>
      </trkpt>
      <trkpt lat="49.380028" lon="10.134601">
        <ele>445.916091</ele>
        <time>2026-04-26T14:54:37.090Z</time>
      </trkpt>
      <trkpt lat="49.379724" lon="10.134577">
        <ele>445.119995</ele>
        <time>2026-04-26T14:54:42.149Z</time>
      </trkpt>
      <trkpt lat="49.379443" lon="10.134455">
        <ele>444.356306</ele>
        <time>2026-04-26T14:54:46.922Z</time>
      </trkpt>
      <trkpt lat="49.379286" lon="10.134344">
        <ele>443.904297</ele>
        <time>2026-04-26T14:54:49.756Z</time>
      </trkpt>
      <trkpt lat="49.378972" lon="10.134114">
        <ele>443.063066</ele>
        <time>2026-04-26T14:54:55.524Z</time>
      </trkpt>
      <trkpt lat="49.378151" lon="10.133301">
        <ele>441.196493</ele>
        <time>2026-04-26T14:55:12.062Z</time>
      </trkpt>
      <trkpt lat="49.377350" lon="10.132455">
        <ele>440.217029</ele>
        <time>2026-04-26T14:55:30.467Z</time>
      </trkpt>
      <trkpt lat="49.377285" lon="10.132389">
        <ele>440.344428</ele>
        <time>2026-04-26T14:55:32.296Z</time>
      </trkpt>
      <trkpt lat="49.377204" lon="10.132309">
        <ele>440.501882</ele>
        <time>2026-04-26T14:55:34.730Z</time>
      </trkpt>
      <trkpt lat="49.377165" lon="10.132269">
        <ele>440.578557</ele>
        <time>2026-04-26T14:55:35.910Z</time>
      </trkpt>
      <trkpt lat="49.376541" lon="10.131649">
        <ele>441.793672</ele>
        <time>2026-04-26T14:55:57.906Z</time>
      </trkpt>
      <trkpt lat="49.376169" lon="10.131279">
        <ele>442.518292</ele>
        <time>2026-04-26T14:56:13.413Z</time>
      </trkpt>
      <trkpt lat="49.375727" lon="10.130712">
        <ele>444.598197</ele>
        <time>2026-04-26T14:56:34.514Z</time>
      </trkpt>
      <trkpt lat="49.375583" lon="10.130415">
        <ele>445.627155</ele>
        <time>2026-04-26T14:56:43.562Z</time>
      </trkpt>
      <trkpt lat="49.375380" lon="10.129702">
        <ele>447.789516</ele>
        <time>2026-04-26T14:57:03.410Z</time>
      </trkpt>
      <trkpt lat="49.375127" lon="10.128894">
        <ele>450.280861</ele>
        <time>2026-04-26T14:57:28.450Z</time>
      </trkpt>
      <trkpt lat="49.375004" lon="10.128704">
        <ele>450.800203</ele>
        <time>2026-04-26T14:57:36.081Z</time>
      </trkpt>
      <trkpt lat="49.374501" lon="10.128496">
        <ele>452.183865</ele>
        <time>2026-04-26T14:57:57.800Z</time>
      </trkpt>
      <trkpt lat="49.374327" lon="10.128534">
        <ele>452.650698</ele>
        <time>2026-04-26T14:58:04.472Z</time>
      </trkpt>
      <trkpt lat="49.374073" lon="10.128661">
        <ele>453.360232</ele>
        <time>2026-04-26T14:58:13.612Z</time>
      </trkpt>
      <trkpt lat="49.373875" lon="10.128700">
        <ele>453.890472</ele>
        <time>2026-04-26T14:58:19.676Z</time>
      </trkpt>
      <trkpt lat="49.373353" lon="10.128889">
        <ele>455.174964</ele>
        <time>2026-04-26T14:58:31.981Z</time>
      </trkpt>
      <trkpt lat="49.373319" lon="10.128901">
        <ele>455.147858</ele>
        <time>2026-04-26T14:58:32.625Z</time>
      </trkpt>
      <trkpt lat="49.372154" lon="10.129112">
        <ele>454.236426</ele>
        <time>2026-04-26T14:58:53.424Z</time>
      </trkpt>
      <trkpt lat="49.371852" lon="10.129133">
        <ele>454.001543</ele>
        <time>2026-04-26T14:58:59.524Z</time>
      </trkpt>
      <trkpt lat="49.371492" lon="10.128929">
        <ele>454.095685</ele>
        <time>2026-04-26T14:59:08.731Z</time>
      </trkpt>
      <trkpt lat="49.370855" lon="10.128407">
        <ele>455.615022</ele>
        <time>2026-04-26T14:59:30.734Z</time>
      </trkpt>
      <trkpt lat="49.369565" lon="10.127192">
        <ele>458.471378</ele>
        <time>2026-04-26T15:00:21.887Z</time>
      </trkpt>
      <trkpt lat="49.368491" lon="10.126815">
        <ele>460.158705</ele>
        <time>2026-04-26T15:00:53.029Z</time>
      </trkpt>
      <trkpt lat="49.367874" lon="10.126708">
        <ele>459.121000</ele>
        <time>2026-04-26T15:01:05.137Z</time>
      </trkpt>
      <trkpt lat="49.365448" lon="10.126970">
        <ele>452.464324</ele>
        <time>2026-04-26T15:01:44.277Z</time>
      </trkpt>
      <trkpt lat="49.363852" lon="10.127177">
        <ele>450.820938</ele>
        <time>2026-04-26T15:02:11.696Z</time>
      </trkpt>
      <trkpt lat="49.361646" lon="10.127176">
        <ele>454.629672</ele>
        <time>2026-04-26T15:03:31.288Z</time>
      </trkpt>
      <trkpt lat="49.360969" lon="10.127190">
        <ele>455.585446</ele>
        <time>2026-04-26T15:03:48.536Z</time>
      </trkpt>
      <trkpt lat="49.360916" lon="10.127193">
        <ele>455.531698</ele>
        <time>2026-04-26T15:03:49.645Z</time>
      </trkpt>
      <trkpt lat="49.360393" lon="10.127194">
        <ele>455.001670</ele>
        <time>2026-04-26T15:03:59.522Z</time>
      </trkpt>
      <trkpt lat="49.360234" lon="10.127240">
        <ele>454.837698</ele>
        <time>2026-04-26T15:04:02.434Z</time>
      </trkpt>
      <trkpt lat="49.360026" lon="10.127322">
        <ele>454.620066</ele>
        <time>2026-04-26T15:04:06.227Z</time>
      </trkpt>
      <trkpt lat="49.359665" lon="10.127597">
        <ele>454.211661</ele>
        <time>2026-04-26T15:04:13.281Z</time>
      </trkpt>
      <trkpt lat="49.359354" lon="10.127911">
        <ele>453.848806</ele>
        <time>2026-04-26T15:04:20.011Z</time>
      </trkpt>
      <trkpt lat="49.359216" lon="10.128047">
        <ele>453.698524</ele>
        <time>2026-04-26T15:04:23.073Z</time>
      </trkpt>
      <trkpt lat="49.359074" lon="10.128132">
        <ele>453.558848</ele>
        <time>2026-04-26T15:04:25.957Z</time>
      </trkpt>
      <trkpt lat="49.358874" lon="10.128174">
        <ele>453.373851</ele>
        <time>2026-04-26T15:04:29.820Z</time>
      </trkpt>
      <trkpt lat="49.357246" lon="10.128306">
        <ele>452.210635</ele>
        <time>2026-04-26T15:05:02.962Z</time>
      </trkpt>
      <trkpt lat="49.355872" lon="10.128562">
        <ele>451.807793</ele>
        <time>2026-04-26T15:05:33.863Z</time>
      </trkpt>
      <trkpt lat="49.351762" lon="10.128233">
        <ele>448.593963</ele>
        <time>2026-04-26T15:06:52.663Z</time>
      </trkpt>
      <trkpt lat="49.350162" lon="10.128051">
        <ele>448.042034</ele>
        <time>2026-04-26T15:07:36.273Z</time>
      </trkpt>
      <trkpt lat="49.349589" lon="10.128033">
        <ele>446.723901</ele>
        <time>2026-04-26T15:07:46.500Z</time>
      </trkpt>
      <trkpt lat="49.349462" lon="10.128072">
        <ele>446.426023</ele>
        <time>2026-04-26T15:07:48.601Z</time>
      </trkpt>
      <trkpt lat="49.349092" lon="10.128301">
        <ele>445.508485</ele>
        <time>2026-04-26T15:07:54.817Z</time>
      </trkpt>
      <trkpt lat="49.348548" lon="10.128704">
        <ele>443.454544</ele>
        <time>2026-04-26T15:08:03.785Z</time>
      </trkpt>
      <trkpt lat="49.347472" lon="10.129569">
        <ele>438.093282</ele>
        <time>2026-04-26T15:08:22.281Z</time>
      </trkpt>
      <trkpt lat="49.347363" lon="10.129618">
        <ele>437.591959</ele>
        <time>2026-04-26T15:08:24.157Z</time>
      </trkpt>
      <trkpt lat="49.347267" lon="10.129603">
        <ele>437.166034</ele>
        <time>2026-04-26T15:08:25.750Z</time>
      </trkpt>
      <trkpt lat="49.347059" lon="10.129411">
        <ele>436.527792</ele>
        <time>2026-04-26T15:08:29.823Z</time>
      </trkpt>
      <trkpt lat="49.346813" lon="10.129257">
        <ele>435.983153</ele>
        <time>2026-04-26T15:08:34.345Z</time>
      </trkpt>
      <trkpt lat="49.346574" lon="10.129213">
        <ele>435.489680</ele>
        <time>2026-04-26T15:08:38.537Z</time>
      </trkpt>
      <trkpt lat="49.346189" lon="10.129219">
        <ele>434.700372</ele>
        <time>2026-04-26T15:08:45.527Z</time>
      </trkpt>
      <trkpt lat="49.345699" lon="10.129177">
        <ele>433.694285</ele>
        <time>2026-04-26T15:08:54.716Z</time>
      </trkpt>
      <trkpt lat="49.345060" lon="10.129029">
        <ele>431.983608</ele>
        <time>2026-04-26T15:09:06.348Z</time>
      </trkpt>
      <trkpt lat="49.344747" lon="10.128809">
        <ele>430.956196</ele>
        <time>2026-04-26T15:09:12.430Z</time>
      </trkpt>
      <trkpt lat="49.343981" lon="10.128039">
        <ele>428.223488</ele>
        <time>2026-04-26T15:09:27.087Z</time>
      </trkpt>
      <trkpt lat="49.343568" lon="10.127715">
        <ele>426.427688</ele>
        <time>2026-04-26T15:09:34.139Z</time>
      </trkpt>
      <trkpt lat="49.343370" lon="10.127630">
        <ele>425.563786</ele>
        <time>2026-04-26T15:09:37.350Z</time>
      </trkpt>
      <trkpt lat="49.343188" lon="10.127629">
        <ele>424.799039</ele>
        <time>2026-04-26T15:09:40.116Z</time>
      </trkpt>
      <trkpt lat="49.343001" lon="10.127628">
        <ele>424.013283</ele>
        <time>2026-04-26T15:09:42.899Z</time>
      </trkpt>
      <trkpt lat="49.342909" lon="10.127566">
        <ele>423.591088</ele>
        <time>2026-04-26T15:09:44.375Z</time>
      </trkpt>
      <trkpt lat="49.342645" lon="10.127111">
        <ele>421.923111</ele>
        <time>2026-04-26T15:09:50.202Z</time>
      </trkpt>
      <trkpt lat="49.342508" lon="10.126960">
        <ele>421.214399</ele>
        <time>2026-04-26T15:09:52.781Z</time>
      </trkpt>
      <trkpt lat="49.342451" lon="10.126961">
        <ele>420.974876</ele>
        <time>2026-04-26T15:09:53.668Z</time>
      </trkpt>
      <trkpt lat="49.341826" lon="10.127282">
        <ele>421.522794</ele>
        <time>2026-04-26T15:10:06.330Z</time>
      </trkpt>
      <trkpt lat="49.341749" lon="10.127121">
        <ele>421.845981</ele>
        <time>2026-04-26T15:10:09.926Z</time>
      </trkpt>
      <trkpt lat="49.341196" lon="10.126468">
        <ele>423.578896</ele>
        <time>2026-04-26T15:10:33.761Z</time>
      </trkpt>
      <trkpt lat="49.341125" lon="10.126245">
        <ele>423.980542</ele>
        <time>2026-04-26T15:10:41.414Z</time>
      </trkpt>
      <trkpt lat="49.341089" lon="10.126133">
        <ele>424.182639</ele>
        <time>2026-04-26T15:10:45.597Z</time>
      </trkpt>
      <trkpt lat="49.341008" lon="10.125889">
        <ele>424.625783</ele>
        <time>2026-04-26T15:10:55.317Z</time>
      </trkpt>
      <trkpt lat="49.341031" lon="10.125460">
        <ele>426.271689</ele>
        <time>2026-04-26T15:11:10.645Z</time>
      </trkpt>
      <trkpt lat="49.341209" lon="10.124465">
        <ele>430.748462</ele>
        <time>2026-04-26T15:11:46.727Z</time>
      </trkpt>
      <trkpt lat="49.341585" lon="10.121970">
        <ele>439.963077</ele>
        <time>2026-04-26T15:13:05.670Z</time>
      </trkpt>
      <trkpt lat="49.341664" lon="10.121481">
        <ele>441.340106</ele>
        <time>2026-04-26T15:13:19.555Z</time>
      </trkpt>
      <trkpt lat="49.342125" lon="10.120106">
        <ele>444.051878</ele>
        <time>2026-04-26T15:13:52.639Z</time>
      </trkpt>
      <trkpt lat="49.342251" lon="10.119663">
        <ele>443.817484</ele>
        <time>2026-04-26T15:13:59.398Z</time>
      </trkpt>
      <trkpt lat="49.342418" lon="10.118457">
        <ele>443.219616</ele>
        <time>2026-04-26T15:14:14.135Z</time>
      </trkpt>
      <trkpt lat="49.342589" lon="10.117470">
        <ele>443.026991</ele>
        <time>2026-04-26T15:14:26.376Z</time>
      </trkpt>
      <trkpt lat="49.342613" lon="10.117313">
        <ele>443.057794</ele>
        <time>2026-04-26T15:14:28.485Z</time>
      </trkpt>
      <trkpt lat="49.342847" lon="10.116357">
        <ele>443.252859</ele>
        <time>2026-04-26T15:14:43.632Z</time>
      </trkpt>
      <trkpt lat="49.343534" lon="10.114439">
        <ele>445.157040</ele>
        <time>2026-04-26T15:15:27.703Z</time>
      </trkpt>
      <trkpt lat="49.343890" lon="10.113031">
        <ele>447.566330</ele>
        <time>2026-04-26T15:16:00.685Z</time>
      </trkpt>
      <trkpt lat="49.344397" lon="10.111360">
        <ele>451.575980</ele>
        <time>2026-04-26T15:16:44.813Z</time>
      </trkpt>
      <trkpt lat="49.344595" lon="10.110259">
        <ele>454.130721</ele>
        <time>2026-04-26T15:17:13.424Z</time>
      </trkpt>
      <trkpt lat="49.344612" lon="10.109844">
        <ele>454.976862</ele>
        <time>2026-04-26T15:17:23.562Z</time>
      </trkpt>
      <trkpt lat="49.344608" lon="10.109481">
        <ele>455.715628</ele>
        <time>2026-04-26T15:17:32.242Z</time>
      </trkpt>
      <trkpt lat="49.344545" lon="10.109184">
        <ele>456.351213</ele>
        <time>2026-04-26T15:17:39.634Z</time>
      </trkpt>
      <trkpt lat="49.344515" lon="10.108887">
        <ele>456.962793</ele>
        <time>2026-04-26T15:17:46.672Z</time>
      </trkpt>
      <trkpt lat="49.344567" lon="10.108049">
        <ele>458.675739</ele>
        <time>2026-04-26T15:18:05.722Z</time>
      </trkpt>
      <trkpt lat="49.344603" lon="10.107830">
        <ele>459.135343</ele>
        <time>2026-04-26T15:18:10.720Z</time>
      </trkpt>
      <trkpt lat="49.344644" lon="10.107715">
        <ele>459.402100</ele>
        <time>2026-04-26T15:18:13.579Z</time>
      </trkpt>
      <trkpt lat="49.344894" lon="10.107567">
        <ele>460.127381</ele>
        <time>2026-04-26T15:18:22.514Z</time>
      </trkpt>
      <trkpt lat="49.344980" lon="10.107472">
        <ele>460.392009</ele>
        <time>2026-04-26T15:18:26.011Z</time>
      </trkpt>
      <trkpt lat="49.345073" lon="10.107183">
        <ele>460.916488</ele>
        <time>2026-04-26T15:18:33.024Z</time>
      </trkpt>
      <trkpt lat="49.345095" lon="10.107032">
        <ele>461.168255</ele>
        <time>2026-04-26T15:18:36.368Z</time>
      </trkpt>
      <trkpt lat="49.345099" lon="10.106611">
        <ele>461.853354</ele>
        <time>2026-04-26T15:18:45.570Z</time>
      </trkpt>
      <trkpt lat="49.345065" lon="10.106043">
        <ele>462.781463</ele>
        <time>2026-04-26T15:18:57.973Z</time>
      </trkpt>
      <trkpt lat="49.344719" lon="10.103776">
        <ele>466.068718</ele>
        <time>2026-04-26T15:19:47.360Z</time>
      </trkpt>
      <trkpt lat="49.344526" lon="10.102404">
        <ele>467.805541</ele>
        <time>2026-04-26T15:20:14.841Z</time>
      </trkpt>
      <trkpt lat="49.344683" lon="10.095497">
        <ele>471.768528</ele>
        <time>2026-04-26T15:22:17.176Z</time>
      </trkpt>
      <trkpt lat="49.344900" lon="10.095310">
        <ele>471.831599</ele>
        <time>2026-04-26T15:22:22.485Z</time>
      </trkpt>
      <trkpt lat="49.345972" lon="10.094012">
        <ele>472.593984</ele>
        <time>2026-04-26T15:22:50.930Z</time>
      </trkpt>
      <trkpt lat="49.346415" lon="10.093476">
        <ele>473.031908</ele>
        <time>2026-04-26T15:23:06.497Z</time>
      </trkpt>
      <trkpt lat="49.346561" lon="10.093289">
        <ele>473.179532</ele>
        <time>2026-04-26T15:23:12.651Z</time>
      </trkpt>
      <trkpt lat="49.347087" lon="10.093065">
        <ele>474.143059</ele>
        <time>2026-04-26T15:23:31.954Z</time>
      </trkpt>
      <trkpt lat="49.347189" lon="10.092341">
        <ele>475.392752</ele>
        <time>2026-04-26T15:23:49.582Z</time>
      </trkpt>
      <trkpt lat="49.347104" lon="10.091831">
        <ele>476.280882</ele>
        <time>2026-04-26T15:24:01.665Z</time>
      </trkpt>
      <trkpt lat="49.347087" lon="10.091574">
        <ele>476.716695</ele>
        <time>2026-04-26T15:24:07.422Z</time>
      </trkpt>
      <trkpt lat="49.347172" lon="10.091574">
        <ele>476.936816</ele>
        <time>2026-04-26T15:24:10.207Z</time>
      </trkpt>
      <trkpt lat="49.347705" lon="10.091572">
        <ele>478.064356</ele>
        <time>2026-04-26T15:24:26.279Z</time>
      </trkpt>
      <trkpt lat="49.347857" lon="10.090860">
        <ele>478.215219</ele>
        <time>2026-04-26T15:24:39.521Z</time>
      </trkpt>
      <trkpt lat="49.347894" lon="10.090389">
        <ele>478.310741</ele>
        <time>2026-04-26T15:24:47.123Z</time>
      </trkpt>
      <trkpt lat="49.347960" lon="10.089542">
        <ele>478.482500</ele>
        <time>2026-04-26T15:25:00.027Z</time>
      </trkpt>
      <trkpt lat="49.348050" lon="10.088600">
        <ele>478.026103</ele>
        <time>2026-04-26T15:25:12.630Z</time>
      </trkpt>
      <trkpt lat="49.348168" lon="10.087362">
        <ele>476.426599</ele>
        <time>2026-04-26T15:25:27.706Z</time>
      </trkpt>
      <trkpt lat="49.348195" lon="10.086494">
        <ele>475.315689</ele>
        <time>2026-04-26T15:25:37.750Z</time>
      </trkpt>
      <trkpt lat="49.348145" lon="10.085042">
        <ele>472.671848</ele>
        <time>2026-04-26T15:25:54.341Z</time>
      </trkpt>
      <trkpt lat="49.348106" lon="10.084634">
        <ele>471.885959</ele>
        <time>2026-04-26T15:25:59.013Z</time>
      </trkpt>
      <trkpt lat="49.348016" lon="10.084269">
        <ele>471.142185</ele>
        <time>2026-04-26T15:26:03.391Z</time>
      </trkpt>
      <trkpt lat="49.347806" lon="10.083634">
        <ele>469.784511</ele>
        <time>2026-04-26T15:26:11.333Z</time>
      </trkpt>
      <trkpt lat="49.347675" lon="10.083104">
        <ele>468.649629</ele>
        <time>2026-04-26T15:26:17.602Z</time>
      </trkpt>
      <trkpt lat="49.347622" lon="10.082688">
        <ele>467.801004</ele>
        <time>2026-04-26T15:26:22.299Z</time>
      </trkpt>
      <trkpt lat="49.347622" lon="10.082050">
        <ele>466.523703</ele>
        <time>2026-04-26T15:26:29.401Z</time>
      </trkpt>
      <trkpt lat="49.347551" lon="10.081150">
        <ele>464.708703</ele>
        <time>2026-04-26T15:26:39.608Z</time>
      </trkpt>
      <trkpt lat="49.347447" lon="10.080515">
        <ele>463.702893</ele>
        <time>2026-04-26T15:26:47.109Z</time>
      </trkpt>
      <trkpt lat="49.347350" lon="10.079512">
        <ele>462.385135</ele>
        <time>2026-04-26T15:26:59.038Z</time>
      </trkpt>
      <trkpt lat="49.346970" lon="10.077586">
        <ele>460.629999</ele>
        <time>2026-04-26T15:27:24.216Z</time>
      </trkpt>
      <trkpt lat="49.347450" lon="10.077179">
        <ele>460.570769</ele>
        <time>2026-04-26T15:27:36.321Z</time>
      </trkpt>
      <trkpt lat="49.347400" lon="10.076336">
        <ele>460.511203</ele>
        <time>2026-04-26T15:27:49.675Z</time>
      </trkpt>
      <trkpt lat="49.347423" lon="10.076137">
        <ele>460.496982</ele>
        <time>2026-04-26T15:27:53.045Z</time>
      </trkpt>
      <trkpt lat="49.347430" lon="10.075757">
        <ele>460.632275</ele>
        <time>2026-04-26T15:27:59.455Z</time>
      </trkpt>
      <trkpt lat="49.347411" lon="10.075284">
        <ele>460.965783</ele>
        <time>2026-04-26T15:28:07.698Z</time>
      </trkpt>
      <trkpt lat="49.347327" lon="10.074326">
        <ele>461.646060</ele>
        <time>2026-04-26T15:28:24.223Z</time>
      </trkpt>
      <trkpt lat="49.347321" lon="10.073985">
        <ele>461.886129</ele>
        <time>2026-04-26T15:28:29.989Z</time>
      </trkpt>
      <trkpt lat="49.347348" lon="10.073405">
        <ele>462.295348</ele>
        <time>2026-04-26T15:28:40.210Z</time>
      </trkpt>
      <trkpt lat="49.347387" lon="10.073055">
        <ele>462.596074</ele>
        <time>2026-04-26T15:28:46.671Z</time>
      </trkpt>
      <trkpt lat="49.347466" lon="10.072672">
        <ele>463.001342</ele>
        <time>2026-04-26T15:28:54.147Z</time>
      </trkpt>
      <trkpt lat="49.347760" lon="10.071598">
        <ele>464.176534</ele>
        <time>2026-04-26T15:29:16.207Z</time>
      </trkpt>
      <trkpt lat="49.347817" lon="10.071116">
        <ele>464.670711</ele>
        <time>2026-04-26T15:29:25.508Z</time>
      </trkpt>
      <trkpt lat="49.347793" lon="10.070263">
        <ele>465.463800</ele>
        <time>2026-04-26T15:29:41.263Z</time>
      </trkpt>
      <trkpt lat="49.347685" lon="10.068995">
        <ele>466.477929</ele>
        <time>2026-04-26T15:30:03.740Z</time>
      </trkpt>
      <trkpt lat="49.347458" lon="10.067156">
        <ele>468.042813</ele>
        <time>2026-04-26T15:30:36.017Z</time>
      </trkpt>
      <trkpt lat="49.347445" lon="10.066795">
        <ele>468.370798</ele>
        <time>2026-04-26T15:30:42.284Z</time>
      </trkpt>
      <trkpt lat="49.347459" lon="10.066321">
        <ele>468.801233</ele>
        <time>2026-04-26T15:30:50.704Z</time>
      </trkpt>
      <trkpt lat="49.347507" lon="10.066000">
        <ele>469.100004</ele>
        <time>2026-04-26T15:30:56.723Z</time>
      </trkpt>
      <trkpt lat="49.347566" lon="10.065675">
        <ele>469.406064</ele>
        <time>2026-04-26T15:31:03.048Z</time>
      </trkpt>
      <trkpt lat="49.347672" lon="10.065394">
        <ele>469.700625</ele>
        <time>2026-04-26T15:31:09.275Z</time>
      </trkpt>
      <trkpt lat="49.347928" lon="10.064980">
        <ele>470.278056</ele>
        <time>2026-04-26T15:31:20.663Z</time>
      </trkpt>
      <trkpt lat="49.348766" lon="10.063848">
        <ele>472.130243</ele>
        <time>2026-04-26T15:31:54.055Z</time>
      </trkpt>
      <trkpt lat="49.348901" lon="10.063605">
        <ele>472.475451</ele>
        <time>2026-04-26T15:31:59.830Z</time>
      </trkpt>
      <trkpt lat="49.349007" lon="10.063341">
        <ele>472.810661</ele>
        <time>2026-04-26T15:32:05.262Z</time>
      </trkpt>
      <trkpt lat="49.349151" lon="10.062771">
        <ele>473.113563</ele>
        <time>2026-04-26T15:32:15.442Z</time>
      </trkpt>
      <trkpt lat="49.349200" lon="10.062290">
        <ele>473.314993</ele>
        <time>2026-04-26T15:32:23.020Z</time>
      </trkpt>
      <trkpt lat="49.349180" lon="10.061013">
        <ele>473.843498</ele>
        <time>2026-04-26T15:32:42.511Z</time>
      </trkpt>
      <trkpt lat="49.349159" lon="10.060127">
        <ele>474.429259</ele>
        <time>2026-04-26T15:32:57.030Z</time>
      </trkpt>
      <trkpt lat="49.349230" lon="10.058540">
        <ele>475.904414</ele>
        <time>2026-04-26T15:33:25.819Z</time>
      </trkpt>
      <trkpt lat="49.349250" lon="10.057849">
        <ele>476.545837</ele>
        <time>2026-04-26T15:33:39.634Z</time>
      </trkpt>
      <trkpt lat="49.349239" lon="10.057410">
        <ele>476.692818</ele>
        <time>2026-04-26T15:33:48.594Z</time>
      </trkpt>
      <trkpt lat="49.349201" lon="10.057176">
        <ele>476.754188</ele>
        <time>2026-04-26T15:33:53.393Z</time>
      </trkpt>
      <trkpt lat="49.349133" lon="10.056766">
        <ele>476.861854</ele>
        <time>2026-04-26T15:34:01.216Z</time>
      </trkpt>
      <trkpt lat="49.348984" lon="10.056148">
        <ele>477.029548</ele>
        <time>2026-04-26T15:34:11.255Z</time>
      </trkpt>
      <trkpt lat="49.348959" lon="10.056073">
        <ele>477.050988</ele>
        <time>2026-04-26T15:34:12.396Z</time>
      </trkpt>
      <trkpt lat="49.348816" lon="10.055705">
        <ele>477.160032</ele>
        <time>2026-04-26T15:34:17.907Z</time>
      </trkpt>
      <trkpt lat="49.348734" lon="10.055558">
        <ele>477.209281</ele>
        <time>2026-04-26T15:34:20.322Z</time>
      </trkpt>
      <trkpt lat="49.348591" lon="10.055403">
        <ele>477.277666</ele>
        <time>2026-04-26T15:34:23.660Z</time>
      </trkpt>
      <trkpt lat="49.348325" lon="10.055220">
        <ele>477.242380</ele>
        <time>2026-04-26T15:34:29.097Z</time>
      </trkpt>
      <trkpt lat="49.348241" lon="10.055185">
        <ele>477.222767</ele>
        <time>2026-04-26T15:34:30.669Z</time>
      </trkpt>
      <trkpt lat="49.347978" lon="10.054905">
        <ele>477.150645</ele>
        <time>2026-04-26T15:34:36.442Z</time>
      </trkpt>
      <trkpt lat="49.347173" lon="10.054072">
        <ele>476.931884</ele>
        <time>2026-04-26T15:34:57.452Z</time>
      </trkpt>
      <trkpt lat="49.346918" lon="10.053772">
        <ele>477.146157</ele>
        <time>2026-04-26T15:35:07.045Z</time>
      </trkpt>
      <trkpt lat="49.346176" lon="10.053006">
        <ele>478.740706</ele>
        <time>2026-04-26T15:35:34.614Z</time>
      </trkpt>
      <trkpt lat="49.345940" lon="10.050336">
        <ele>481.908503</ele>
        <time>2026-04-26T15:36:25.875Z</time>
      </trkpt>
      <trkpt lat="49.345371" lon="10.044116">
        <ele>488.911188</ele>
        <time>2026-04-26T15:38:28.778Z</time>
      </trkpt>
      <trkpt lat="49.345309" lon="10.043456">
        <ele>489.131252</ele>
        <time>2026-04-26T15:38:38.204Z</time>
      </trkpt>
      <trkpt lat="49.345337" lon="10.043389">
        <ele>489.047304</ele>
        <time>2026-04-26T15:38:39.243Z</time>
      </trkpt>
      <trkpt lat="49.345394" lon="10.043338">
        <ele>488.940502</ele>
        <time>2026-04-26T15:38:40.561Z</time>
      </trkpt>
      <trkpt lat="49.345602" lon="10.043336">
        <ele>488.603792</ele>
        <time>2026-04-26T15:38:44.584Z</time>
      </trkpt>
      <trkpt lat="49.347940" lon="10.043754">
        <ele>484.439069</ele>
        <time>2026-04-26T15:39:25.317Z</time>
      </trkpt>
      <trkpt lat="49.348004" lon="10.043682">
        <ele>484.282644</ele>
        <time>2026-04-26T15:39:27.758Z</time>
      </trkpt>
      <trkpt lat="49.348062" lon="10.043471">
        <ele>483.988526</ele>
        <time>2026-04-26T15:39:32.364Z</time>
      </trkpt>
      <trkpt lat="49.348416" lon="10.042081">
        <ele>482.769212</ele>
        <time>2026-04-26T15:40:03.793Z</time>
      </trkpt>
      <trkpt lat="49.348475" lon="10.041766">
        <ele>482.713772</ele>
        <time>2026-04-26T15:40:11.256Z</time>
      </trkpt>
      <trkpt lat="49.348552" lon="10.041251">
        <ele>482.624395</ele>
        <time>2026-04-26T15:40:23.861Z</time>
      </trkpt>
      <trkpt lat="49.348650" lon="10.040322">
        <ele>482.465210</ele>
        <time>2026-04-26T15:40:47.794Z</time>
      </trkpt>
      <trkpt lat="49.348710" lon="10.039762">
        <ele>482.347480</ele>
        <time>2026-04-26T15:41:02.943Z</time>
      </trkpt>
      <trkpt lat="49.348857" lon="10.038082">
        <ele>481.900027</ele>
        <time>2026-04-26T15:41:44.096Z</time>
      </trkpt>
      <trkpt lat="49.348917" lon="10.037873">
        <ele>481.839737</ele>
        <time>2026-04-26T15:41:49.063Z</time>
      </trkpt>
      <trkpt lat="49.349193" lon="10.037219">
        <ele>481.463604</ele>
        <time>2026-04-26T15:42:05.345Z</time>
      </trkpt>
      <trkpt lat="49.349326" lon="10.037035">
        <ele>481.117035</ele>
        <time>2026-04-26T15:42:11.003Z</time>
      </trkpt>
      <trkpt lat="49.349921" lon="10.036400">
        <ele>479.714326</ele>
        <time>2026-04-26T15:42:33.571Z</time>
      </trkpt>
      <trkpt lat="49.350026" lon="10.036227">
        <ele>479.416173</ele>
        <time>2026-04-26T15:42:38.352Z</time>
      </trkpt>
      <trkpt lat="49.350114" lon="10.035935">
        <ele>479.010481</ele>
        <time>2026-04-26T15:42:44.821Z</time>
      </trkpt>
      <trkpt lat="49.350171" lon="10.035080">
        <ele>478.093219</ele>
        <time>2026-04-26T15:43:02.307Z</time>
      </trkpt>
      <trkpt lat="49.350448" lon="10.033870">
        <ele>477.469960</ele>
        <time>2026-04-26T15:43:30.581Z</time>
      </trkpt>
      <trkpt lat="49.350823" lon="10.032353">
        <ele>476.982788</ele>
        <time>2026-04-26T15:44:09.135Z</time>
      </trkpt>
      <trkpt lat="49.351192" lon="10.030943">
        <ele>477.520272</ele>
        <time>2026-04-26T15:44:48.521Z</time>
      </trkpt>
      <trkpt lat="49.351769" lon="10.029092">
        <ele>478.443022</ele>
        <time>2026-04-26T15:45:42.114Z</time>
      </trkpt>
      <trkpt lat="49.352172" lon="10.027621">
        <ele>479.274693</ele>
        <time>2026-04-26T15:46:24.542Z</time>
      </trkpt>
      <trkpt lat="49.352200" lon="10.027407">
        <ele>479.303939</ele>
        <time>2026-04-26T15:46:30.196Z</time>
      </trkpt>
      <trkpt lat="49.352184" lon="10.027123">
        <ele>479.342134</ele>
        <time>2026-04-26T15:46:37.537Z</time>
      </trkpt>
      <trkpt lat="49.351946" lon="10.025630">
        <ele>479.548081</ele>
        <time>2026-04-26T15:47:15.294Z</time>
      </trkpt>
      <trkpt lat="49.351937" lon="10.025295">
        <ele>479.593006</ele>
        <time>2026-04-26T15:47:23.264Z</time>
      </trkpt>
      <trkpt lat="49.352105" lon="10.024635">
        <ele>479.706135</ele>
        <time>2026-04-26T15:47:40.139Z</time>
      </trkpt>
      <trkpt lat="49.352229" lon="10.023948">
        <ele>479.841291</ele>
        <time>2026-04-26T15:47:57.144Z</time>
      </trkpt>
      <trkpt lat="49.352298" lon="10.023723">
        <ele>479.888439</ele>
        <time>2026-04-26T15:48:03.128Z</time>
      </trkpt>
      <trkpt lat="49.352770" lon="10.022995">
        <ele>480.083172</ele>
        <time>2026-04-26T15:48:28.748Z</time>
      </trkpt>
      <trkpt lat="49.352925" lon="10.022644">
        <ele>480.163567</ele>
        <time>2026-04-26T15:48:39.713Z</time>
      </trkpt>
      <trkpt lat="49.353279" lon="10.021364">
        <ele>481.307347</ele>
        <time>2026-04-26T15:49:17.694Z</time>
      </trkpt>
      <trkpt lat="49.353302" lon="10.021085">
        <ele>481.541434</ele>
        <time>2026-04-26T15:49:25.743Z</time>
      </trkpt>
      <trkpt lat="49.353050" lon="10.019673">
        <ele>482.722038</ele>
        <time>2026-04-26T15:50:07.326Z</time>
      </trkpt>
      <trkpt lat="49.352423" lon="10.016271">
        <ele>485.191882</ele>
        <time>2026-04-26T15:51:41.806Z</time>
      </trkpt>
      <trkpt lat="49.351979" lon="10.015036">
        <ele>486.098531</ele>
        <time>2026-04-26T15:52:19.691Z</time>
      </trkpt>
      <trkpt lat="49.351648" lon="10.014169">
        <ele>486.488416</ele>
        <time>2026-04-26T15:52:46.005Z</time>
      </trkpt>
      <trkpt lat="49.350950" lon="10.012200">
        <ele>487.055024</ele>
        <time>2026-04-26T15:53:42.185Z</time>
      </trkpt>
      <trkpt lat="49.350789" lon="10.011425">
        <ele>486.876876</ele>
        <time>2026-04-26T15:54:02.164Z</time>
      </trkpt>
      <trkpt lat="49.350680" lon="10.010643">
        <ele>486.701740</ele>
        <time>2026-04-26T15:54:20.842Z</time>
      </trkpt>
      <trkpt lat="49.350574" lon="10.009312">
        <ele>486.193294</ele>
        <time>2026-04-26T15:54:50.503Z</time>
      </trkpt>
      <trkpt lat="49.350604" lon="10.008214">
        <ele>485.434439</ele>
        <time>2026-04-26T15:55:13.853Z</time>
      </trkpt>
      <trkpt lat="49.350776" lon="10.005125">
        <ele>483.827990</ele>
        <time>2026-04-26T15:56:22.685Z</time>
      </trkpt>
      <trkpt lat="49.350767" lon="10.004884">
        <ele>483.729417</ele>
        <time>2026-04-26T15:56:28.287Z</time>
      </trkpt>
      <trkpt lat="49.350706" lon="10.004704">
        <ele>483.646563</ele>
        <time>2026-04-26T15:56:33.031Z</time>
      </trkpt>
      <trkpt lat="49.348568" lon="10.000811">
        <ele>483.878962</ele>
        <time>2026-04-26T15:58:37.008Z</time>
      </trkpt>
      <trkpt lat="49.348238" lon="10.000163">
        <ele>484.031543</ele>
        <time>2026-04-26T15:58:58.228Z</time>
      </trkpt>
      <trkpt lat="49.347626" lon="9.999070">
        <ele>484.622667</ele>
        <time>2026-04-26T15:59:35.824Z</time>
      </trkpt>
      <trkpt lat="49.346348" lon="9.996703">
        <ele>485.169590</ele>
        <time>2026-04-26T16:00:54.640Z</time>
      </trkpt>
      <trkpt lat="49.346304" lon="9.996621">
        <ele>485.168751</ele>
        <time>2026-04-26T16:00:57.172Z</time>
      </trkpt>
      <trkpt lat="49.346136" lon="9.996286">
        <ele>485.165414</ele>
        <time>2026-04-26T16:01:03.015Z</time>
      </trkpt>
      <trkpt lat="49.345812" lon="9.995558">
        <ele>484.518456</ele>
        <time>2026-04-26T16:01:14.006Z</time>
      </trkpt>
      <trkpt lat="49.345606" lon="9.995170">
        <ele>483.656988</ele>
        <time>2026-04-26T16:01:19.839Z</time>
      </trkpt>
      <trkpt lat="49.345504" lon="9.994768">
        <ele>482.914468</ele>
        <time>2026-04-26T16:01:24.590Z</time>
      </trkpt>
      <trkpt lat="49.345623" lon="9.994288">
        <ele>482.030527</ele>
        <time>2026-04-26T16:01:30.043Z</time>
      </trkpt>
      <trkpt lat="49.345824" lon="9.993278">
        <ele>480.109730</ele>
        <time>2026-04-26T16:01:40.979Z</time>
      </trkpt>
      <trkpt lat="49.345854" lon="9.992606">
        <ele>478.342756</ele>
        <time>2026-04-26T16:01:47.919Z</time>
      </trkpt>
      <trkpt lat="49.345908" lon="9.992083">
        <ele>476.953662</ele>
        <time>2026-04-26T16:01:53.342Z</time>
      </trkpt>
      <trkpt lat="49.346731" lon="9.989555">
        <ele>469.633590</ele>
        <time>2026-04-26T16:02:21.989Z</time>
      </trkpt>
      <trkpt lat="49.346767" lon="9.989398">
        <ele>469.208220</ele>
        <time>2026-04-26T16:02:23.705Z</time>
      </trkpt>
      <trkpt lat="49.346777" lon="9.989335">
        <ele>469.042502</ele>
        <time>2026-04-26T16:02:24.370Z</time>
      </trkpt>
      <trkpt lat="49.346795" lon="9.989187">
        <ele>468.657726</ele>
        <time>2026-04-26T16:02:25.925Z</time>
      </trkpt>
      <trkpt lat="49.346902" lon="9.988315">
        <ele>466.389990</ele>
        <time>2026-04-26T16:02:35.159Z</time>
      </trkpt>
      <trkpt lat="49.347000" lon="9.987281">
        <ele>463.818881</ele>
        <time>2026-04-26T16:02:46.044Z</time>
      </trkpt>
      <trkpt lat="49.347041" lon="9.986562">
        <ele>462.050887</ele>
        <time>2026-04-26T16:02:53.537Z</time>
      </trkpt>
      <trkpt lat="49.347058" lon="9.985727">
        <ele>460.004478</ele>
        <time>2026-04-26T16:03:02.081Z</time>
      </trkpt>
      <trkpt lat="49.347243" lon="9.985611">
        <ele>459.274941</ele>
        <time>2026-04-26T16:03:05.196Z</time>
      </trkpt>
      <trkpt lat="49.347109" lon="9.984751">
        <ele>457.605710</ele>
        <time>2026-04-26T16:03:14.275Z</time>
      </trkpt>
      <trkpt lat="49.347039" lon="9.984431">
        <ele>456.968492</ele>
        <time>2026-04-26T16:03:17.826Z</time>
      </trkpt>
      <trkpt lat="49.346894" lon="9.984047">
        <ele>456.130641</ele>
        <time>2026-04-26T16:03:22.604Z</time>
      </trkpt>
      <trkpt lat="49.346752" lon="9.983677">
        <ele>455.319992</ele>
        <time>2026-04-26T16:03:27.358Z</time>
      </trkpt>
      <trkpt lat="49.346655" lon="9.983054">
        <ele>454.138071</ele>
        <time>2026-04-26T16:03:34.792Z</time>
      </trkpt>
      <trkpt lat="49.346604" lon="9.982860">
        <ele>454.159817</ele>
        <time>2026-04-26T16:03:37.256Z</time>
      </trkpt>
      <trkpt lat="49.346502" lon="9.982628">
        <ele>454.188910</ele>
        <time>2026-04-26T16:03:40.640Z</time>
      </trkpt>
      <trkpt lat="49.346340" lon="9.982471">
        <ele>454.219479</ele>
        <time>2026-04-26T16:03:44.398Z</time>
      </trkpt>
      <trkpt lat="49.346194" lon="9.982420">
        <ele>454.243370</ele>
        <time>2026-04-26T16:03:47.475Z</time>
      </trkpt>
      <trkpt lat="49.345973" lon="9.982295">
        <ele>454.280950</ele>
        <time>2026-04-26T16:03:52.760Z</time>
      </trkpt>
      <trkpt lat="49.345836" lon="9.982159">
        <ele>454.306982</ele>
        <time>2026-04-26T16:03:56.694Z</time>
      </trkpt>
      <trkpt lat="49.345720" lon="9.981950">
        <ele>454.335522</ele>
        <time>2026-04-26T16:04:01.289Z</time>
      </trkpt>
      <trkpt lat="49.345632" lon="9.981559">
        <ele>454.378523</ele>
        <time>2026-04-26T16:04:08.910Z</time>
      </trkpt>
      <trkpt lat="49.345546" lon="9.981282">
        <ele>454.410420</ele>
        <time>2026-04-26T16:04:14.852Z</time>
      </trkpt>
      <trkpt lat="49.345463" lon="9.981117">
        <ele>454.484762</ele>
        <time>2026-04-26T16:04:18.995Z</time>
      </trkpt>
      <trkpt lat="49.345309" lon="9.980907">
        <ele>454.722326</ele>
        <time>2026-04-26T16:04:25.065Z</time>
      </trkpt>
      <trkpt lat="49.344957" lon="9.980636">
        <ele>455.176473</ele>
        <time>2026-04-26T16:04:36.494Z</time>
      </trkpt>
      <trkpt lat="49.344886" lon="9.980413">
        <ele>455.362960</ele>
        <time>2026-04-26T16:04:41.055Z</time>
      </trkpt>
      <trkpt lat="49.344862" lon="9.980097">
        <ele>455.601994</ele>
        <time>2026-04-26T16:04:46.816Z</time>
      </trkpt>
      <trkpt lat="49.344857" lon="9.979937">
        <ele>455.722348</ele>
        <time>2026-04-26T16:04:49.726Z</time>
      </trkpt>
      <trkpt lat="49.344110" lon="9.979979">
        <ele>456.532957</ele>
        <time>2026-04-26T16:05:08.343Z</time>
      </trkpt>
      <trkpt lat="49.343710" lon="9.979939">
        <ele>456.720255</ele>
        <time>2026-04-26T16:05:16.827Z</time>
      </trkpt>
      <trkpt lat="49.343058" lon="9.979920">
        <ele>457.024960</ele>
        <time>2026-04-26T16:05:32.015Z</time>
      </trkpt>
      <trkpt lat="49.342736" lon="9.979887">
        <ele>457.175751</ele>
        <time>2026-04-26T16:05:40.395Z</time>
      </trkpt>
      <trkpt lat="49.342580" lon="9.979869">
        <ele>457.248848</ele>
        <time>2026-04-26T16:05:44.382Z</time>
      </trkpt>
      <trkpt lat="49.342204" lon="9.979816">
        <ele>457.446295</ele>
        <time>2026-04-26T16:05:53.912Z</time>
      </trkpt>
      <trkpt lat="49.342152" lon="9.979810">
        <ele>457.476552</ele>
        <time>2026-04-26T16:05:55.215Z</time>
      </trkpt>
      <trkpt lat="49.341653" lon="9.979699">
        <ele>457.769111</ele>
        <time>2026-04-26T16:06:07.837Z</time>
      </trkpt>
      <trkpt lat="49.341584" lon="9.979676">
        <ele>457.810080</ele>
        <time>2026-04-26T16:06:09.585Z</time>
      </trkpt>
      <trkpt lat="49.341442" lon="9.979629">
        <ele>457.894367</ele>
        <time>2026-04-26T16:06:13.159Z</time>
      </trkpt>
      <trkpt lat="49.341155" lon="9.979534">
        <ele>458.064721</ele>
        <time>2026-04-26T16:06:20.214Z</time>
      </trkpt>
      <trkpt lat="49.340811" lon="9.979421">
        <ele>458.268840</ele>
        <time>2026-04-26T16:06:28.465Z</time>
      </trkpt>
      <trkpt lat="49.340498" lon="9.979416">
        <ele>458.547760</ele>
        <time>2026-04-26T16:06:35.707Z</time>
      </trkpt>
      <trkpt lat="49.340378" lon="9.979446">
        <ele>458.718511</ele>
        <time>2026-04-26T16:06:38.648Z</time>
      </trkpt>
      <trkpt lat="49.340053" lon="9.979630">
        <ele>459.205014</ele>
        <time>2026-04-26T16:06:47.818Z</time>
      </trkpt>
      <trkpt lat="49.339657" lon="9.979187">
        <ele>459.893227</ele>
        <time>2026-04-26T16:07:02.290Z</time>
      </trkpt>
      <trkpt lat="49.339616" lon="9.979085">
        <ele>460.002898</ele>
        <time>2026-04-26T16:07:04.608Z</time>
      </trkpt>
      <trkpt lat="49.339613" lon="9.979006">
        <ele>460.075313</ele>
        <time>2026-04-26T16:07:06.114Z</time>
      </trkpt>
      <trkpt lat="49.339619" lon="9.978946">
        <ele>460.130861</ele>
        <time>2026-04-26T16:07:07.286Z</time>
      </trkpt>
      <trkpt lat="49.339619" lon="9.978731">
        <ele>460.327604</ele>
        <time>2026-04-26T16:07:11.375Z</time>
      </trkpt>
      <trkpt lat="49.339620" lon="9.977936">
        <ele>461.026462</ele>
        <time>2026-04-26T16:07:26.709Z</time>
      </trkpt>
      <trkpt lat="49.339121" lon="9.977938">
        <ele>461.590828</ele>
        <time>2026-04-26T16:07:41.415Z</time>
      </trkpt>
      <trkpt lat="49.338979" lon="9.977940">
        <ele>461.751435</ele>
        <time>2026-04-26T16:07:45.355Z</time>
      </trkpt>
      <trkpt lat="49.338734" lon="9.977926">
        <ele>462.028719</ele>
        <time>2026-04-26T16:07:51.785Z</time>
      </trkpt>
      <trkpt lat="49.338607" lon="9.977884">
        <ele>462.175651</ele>
        <time>2026-04-26T16:07:54.957Z</time>
      </trkpt>
      <trkpt lat="49.338528" lon="9.977839">
        <ele>462.270955</ele>
        <time>2026-04-26T16:07:56.951Z</time>
      </trkpt>
      <trkpt lat="49.338063" lon="9.977345">
        <ele>462.910575</ele>
        <time>2026-04-26T16:08:10.327Z</time>
      </trkpt>
      <trkpt lat="49.337378" lon="9.976826">
        <ele>464.575356</ele>
        <time>2026-04-26T16:08:30.252Z</time>
      </trkpt>
      <trkpt lat="49.337111" lon="9.976667">
        <ele>465.210910</ele>
        <time>2026-04-26T16:08:38.716Z</time>
      </trkpt>
      <trkpt lat="49.336486" lon="9.976407">
        <ele>466.647925</ele>
        <time>2026-04-26T16:09:00.707Z</time>
      </trkpt>
      <trkpt lat="49.335251" lon="9.976006">
        <ele>473.180459</ele>
        <time>2026-04-26T16:09:54.915Z</time>
      </trkpt>
      <trkpt lat="49.334420" lon="9.975473">
        <ele>478.032022</ele>
        <time>2026-04-26T16:10:39.142Z</time>
      </trkpt>
      <trkpt lat="49.333617" lon="9.975210">
        <ele>482.167311</ele>
        <time>2026-04-26T16:11:17.368Z</time>
      </trkpt>
      <trkpt lat="49.332716" lon="9.974620">
        <ele>486.297201</ele>
        <time>2026-04-26T16:11:53.370Z</time>
      </trkpt>
      <trkpt lat="49.332156" lon="9.974329">
        <ele>487.275072</ele>
        <time>2026-04-26T16:12:10.573Z</time>
      </trkpt>
      <trkpt lat="49.331938" lon="9.974247">
        <ele>487.646305</ele>
        <time>2026-04-26T16:12:16.634Z</time>
      </trkpt>
      <trkpt lat="49.331315" lon="9.974117">
        <ele>488.686193</ele>
        <time>2026-04-26T16:12:32.774Z</time>
      </trkpt>
      <trkpt lat="49.330801" lon="9.974045">
        <ele>488.981068</ele>
        <time>2026-04-26T16:12:45.729Z</time>
      </trkpt>
      <trkpt lat="49.330395" lon="9.974034">
        <ele>489.084773</ele>
        <time>2026-04-26T16:12:55.873Z</time>
      </trkpt>
      <trkpt lat="49.329366" lon="9.974130">
        <ele>489.311963</ele>
        <time>2026-04-26T16:13:19.089Z</time>
      </trkpt>
      <trkpt lat="49.327968" lon="9.974330">
        <ele>488.332234</ele>
        <time>2026-04-26T16:13:46.823Z</time>
      </trkpt>
      <trkpt lat="49.327425" lon="9.974404">
        <ele>487.991170</ele>
        <time>2026-04-26T16:13:57.434Z</time>
      </trkpt>
      <trkpt lat="49.326919" lon="9.974415">
        <ele>487.743665</ele>
        <time>2026-04-26T16:14:07.359Z</time>
      </trkpt>
      <trkpt lat="49.326511" lon="9.974277">
        <ele>487.539325</ele>
        <time>2026-04-26T16:14:15.899Z</time>
      </trkpt>
      <trkpt lat="49.326145" lon="9.974027">
        <ele>487.343380</ele>
        <time>2026-04-26T16:14:24.296Z</time>
      </trkpt>
      <trkpt lat="49.325817" lon="9.973676">
        <ele>487.218877</ele>
        <time>2026-04-26T16:14:33.083Z</time>
      </trkpt>
      <trkpt lat="49.325195" lon="9.972483">
        <ele>487.351895</ele>
        <time>2026-04-26T16:14:56.318Z</time>
      </trkpt>
      <trkpt lat="49.324947" lon="9.972250">
        <ele>487.390743</ele>
        <time>2026-04-26T16:15:03.072Z</time>
      </trkpt>
      <trkpt lat="49.324786" lon="9.972171">
        <ele>487.413324</ele>
        <time>2026-04-26T16:15:06.914Z</time>
      </trkpt>
      <trkpt lat="49.324579" lon="9.972142">
        <ele>487.441092</ele>
        <time>2026-04-26T16:15:11.601Z</time>
      </trkpt>
      <trkpt lat="49.324091" lon="9.972090">
        <ele>487.437610</ele>
        <time>2026-04-26T16:15:22.432Z</time>
      </trkpt>
      <trkpt lat="49.323946" lon="9.972033">
        <ele>487.435596</ele>
        <time>2026-04-26T16:15:25.692Z</time>
      </trkpt>
      <trkpt lat="49.323552" lon="9.971663">
        <ele>487.429383</ele>
        <time>2026-04-26T16:15:35.799Z</time>
      </trkpt>
      <trkpt lat="49.323288" lon="9.971351">
        <ele>487.424900</ele>
        <time>2026-04-26T16:15:43.213Z</time>
      </trkpt>
      <trkpt lat="49.322916" lon="9.970795">
        <ele>487.436888</ele>
        <time>2026-04-26T16:15:55.074Z</time>
      </trkpt>
      <trkpt lat="49.322574" lon="9.970284">
        <ele>487.498222</ele>
        <time>2026-04-26T16:16:05.598Z</time>
      </trkpt>
      <trkpt lat="49.322085" lon="9.969813">
        <ele>487.572402</ele>
        <time>2026-04-26T16:16:17.673Z</time>
      </trkpt>
      <trkpt lat="49.321562" lon="9.968600">
        <ele>487.971143</ele>
        <time>2026-04-26T16:16:40.975Z</time>
      </trkpt>
      <trkpt lat="49.321109" lon="9.968589">
        <ele>488.400818</ele>
        <time>2026-04-26T16:16:52.928Z</time>
      </trkpt>
      <trkpt lat="49.320507" lon="9.968857">
        <ele>488.995302</ele>
        <time>2026-04-26T16:17:10.322Z</time>
      </trkpt>
      <trkpt lat="49.320121" lon="9.969018">
        <ele>489.353678</ele>
        <time>2026-04-26T16:17:21.215Z</time>
      </trkpt>
      <trkpt lat="49.319467" lon="9.969254">
        <ele>489.249964</ele>
        <time>2026-04-26T16:17:36.768Z</time>
      </trkpt>
      <trkpt lat="49.318396" lon="9.969522">
        <ele>489.082448</ele>
        <time>2026-04-26T16:17:58.404Z</time>
      </trkpt>
      <trkpt lat="49.317197" lon="9.969670">
        <ele>489.049922</ele>
        <time>2026-04-26T16:18:23.728Z</time>
      </trkpt>
      <trkpt lat="49.316712" lon="9.969661">
        <ele>489.037990</ele>
        <time>2026-04-26T16:18:35.852Z</time>
      </trkpt>
      <trkpt lat="49.315609" lon="9.969573">
        <ele>488.394858</ele>
        <time>2026-04-26T16:19:03.425Z</time>
      </trkpt>
      <trkpt lat="49.315209" lon="9.969624">
        <ele>488.130406</ele>
        <time>2026-04-26T16:19:11.165Z</time>
      </trkpt>
      <trkpt lat="49.314453" lon="9.969819">
        <ele>486.640329</ele>
        <time>2026-04-26T16:19:23.916Z</time>
      </trkpt>
      <trkpt lat="49.313581" lon="9.970150">
        <ele>483.449915</ele>
        <time>2026-04-26T16:19:37.915Z</time>
      </trkpt>
      <trkpt lat="49.312552" lon="9.970754">
        <ele>480.649580</ele>
        <time>2026-04-26T16:19:55.516Z</time>
      </trkpt>
      <trkpt lat="49.312044" lon="9.971126">
        <ele>479.806116</ele>
        <time>2026-04-26T16:20:05.848Z</time>
      </trkpt>
      <trkpt lat="49.310363" lon="9.972428">
        <ele>478.385768</ele>
        <time>2026-04-26T16:20:49.503Z</time>
      </trkpt>
      <trkpt lat="49.309348" lon="9.973490">
        <ele>476.915996</ele>
        <time>2026-04-26T16:21:12.574Z</time>
      </trkpt>
      <trkpt lat="49.309183" lon="9.973624">
        <ele>476.531765</ele>
        <time>2026-04-26T16:21:15.748Z</time>
      </trkpt>
      <trkpt lat="49.308355" lon="9.974177">
        <ele>474.673203</ele>
        <time>2026-04-26T16:21:30.879Z</time>
      </trkpt>
      <trkpt lat="49.307813" lon="9.974714">
        <ele>474.028143</ele>
        <time>2026-04-26T16:21:42.181Z</time>
      </trkpt>
      <trkpt lat="49.307647" lon="9.974813">
        <ele>473.880426</ele>
        <time>2026-04-26T16:21:45.550Z</time>
      </trkpt>
      <trkpt lat="49.307388" lon="9.974838">
        <ele>473.665194</ele>
        <time>2026-04-26T16:21:50.766Z</time>
      </trkpt>
      <trkpt lat="49.306961" lon="9.974498">
        <ele>473.266171</ele>
        <time>2026-04-26T16:22:01.774Z</time>
      </trkpt>
      <trkpt lat="49.306610" lon="9.974271">
        <ele>472.971389</ele>
        <time>2026-04-26T16:22:11.210Z</time>
      </trkpt>
      <trkpt lat="49.305845" lon="9.973993">
        <ele>472.612020</ele>
        <time>2026-04-26T16:22:28.367Z</time>
      </trkpt>
      <trkpt lat="49.305293" lon="9.973990">
        <ele>472.359696</ele>
        <time>2026-04-26T16:22:39.271Z</time>
      </trkpt>
      <trkpt lat="49.304597" lon="9.974014">
        <ele>472.019393</ele>
        <time>2026-04-26T16:22:52.500Z</time>
      </trkpt>
      <trkpt lat="49.304285" lon="9.974012">
        <ele>471.853229</ele>
        <time>2026-04-26T16:22:58.719Z</time>
      </trkpt>
      <trkpt lat="49.304122" lon="9.974028">
        <ele>471.766242</ele>
        <time>2026-04-26T16:23:02.148Z</time>
      </trkpt>
      <trkpt lat="49.303705" lon="9.974157">
        <ele>471.539686</ele>
        <time>2026-04-26T16:23:11.306Z</time>
      </trkpt>
      <trkpt lat="49.303620" lon="9.974189">
        <ele>471.493073</ele>
        <time>2026-04-26T16:23:13.231Z</time>
      </trkpt>
      <trkpt lat="49.303217" lon="9.974345">
        <ele>471.271715</ele>
        <time>2026-04-26T16:23:22.272Z</time>
      </trkpt>
      <trkpt lat="49.303051" lon="9.974385">
        <ele>471.167796</ele>
        <time>2026-04-26T16:23:25.600Z</time>
      </trkpt>
      <trkpt lat="49.302774" lon="9.974397">
        <ele>470.959476</ele>
        <time>2026-04-26T16:23:31.023Z</time>
      </trkpt>
      <trkpt lat="49.302542" lon="9.974359">
        <ele>470.784076</ele>
        <time>2026-04-26T16:23:35.724Z</time>
      </trkpt>
      <trkpt lat="49.301948" lon="9.974214">
        <ele>470.331910</ele>
        <time>2026-04-26T16:23:47.632Z</time>
      </trkpt>
      <trkpt lat="49.301744" lon="9.974180">
        <ele>470.177648</ele>
        <time>2026-04-26T16:23:51.584Z</time>
      </trkpt>
      <trkpt lat="49.301680" lon="9.974169">
        <ele>470.129234</ele>
        <time>2026-04-26T16:23:52.879Z</time>
      </trkpt>
      <trkpt lat="49.301381" lon="9.974118">
        <ele>469.903072</ele>
        <time>2026-04-26T16:23:58.829Z</time>
      </trkpt>
      <trkpt lat="49.300793" lon="9.974071">
        <ele>469.230229</ele>
        <time>2026-04-26T16:24:10.458Z</time>
      </trkpt>
      <trkpt lat="49.300425" lon="9.974030">
        <ele>468.795069</ele>
        <time>2026-04-26T16:24:17.670Z</time>
      </trkpt>
      <trkpt lat="49.300195" lon="9.973947">
        <ele>468.516399</ele>
        <time>2026-04-26T16:24:22.159Z</time>
      </trkpt>
      <trkpt lat="49.299989" lon="9.973796">
        <ele>468.247116</ele>
        <time>2026-04-26T16:24:26.406Z</time>
      </trkpt>
      <trkpt lat="49.299590" lon="9.973493">
        <ele>467.698505</ele>
        <time>2026-04-26T16:24:34.515Z</time>
      </trkpt>
      <trkpt lat="49.299056" lon="9.973112">
        <ele>466.256205</ele>
        <time>2026-04-26T16:24:44.981Z</time>
      </trkpt>
      <trkpt lat="49.298932" lon="9.972975">
        <ele>465.881942</ele>
        <time>2026-04-26T16:24:47.632Z</time>
      </trkpt>
      <trkpt lat="49.298576" lon="9.973291">
        <ele>464.874632</ele>
        <time>2026-04-26T16:24:54.613Z</time>
      </trkpt>
      <trkpt lat="49.298201" lon="9.973659">
        <ele>463.784367</ele>
        <time>2026-04-26T16:25:01.981Z</time>
      </trkpt>
      <trkpt lat="49.297980" lon="9.973944">
        <ele>463.065114</ele>
        <time>2026-04-26T16:25:06.665Z</time>
      </trkpt>
      <trkpt lat="49.297882" lon="9.974159">
        <ele>462.626831</ele>
        <time>2026-04-26T16:25:09.403Z</time>
      </trkpt>
      <trkpt lat="49.297862" lon="9.974355">
        <ele>462.295362</ele>
        <time>2026-04-26T16:25:11.456Z</time>
      </trkpt>
      <trkpt lat="49.297775" lon="9.974355">
        <ele>462.072456</ele>
        <time>2026-04-26T16:25:12.831Z</time>
      </trkpt>
      <trkpt lat="49.297609" lon="9.974423">
        <ele>461.632227</ele>
        <time>2026-04-26T16:25:15.523Z</time>
      </trkpt>
      <trkpt lat="49.297601" lon="9.974545">
        <ele>461.427356</ele>
        <time>2026-04-26T16:25:16.772Z</time>
      </trkpt>
      <trkpt lat="49.297542" lon="9.974709">
        <ele>461.114406</ele>
        <time>2026-04-26T16:25:18.684Z</time>
      </trkpt>
      <trkpt lat="49.296852" lon="9.975971">
        <ele>459.136203</ele>
        <time>2026-04-26T16:25:37.264Z</time>
      </trkpt>
      <trkpt lat="49.296541" lon="9.976599">
        <ele>460.587131</ele>
        <time>2026-04-26T16:25:51.471Z</time>
      </trkpt>
      <trkpt lat="49.296174" lon="9.977347">
        <ele>462.309484</ele>
        <time>2026-04-26T16:26:14.416Z</time>
      </trkpt>
      <trkpt lat="49.295911" lon="9.977235">
        <ele>463.079616</ele>
        <time>2026-04-26T16:26:26.649Z</time>
      </trkpt>
      <trkpt lat="49.295688" lon="9.977307">
        <ele>463.722600</ele>
        <time>2026-04-26T16:26:37.204Z</time>
      </trkpt>
      <trkpt lat="49.295234" lon="9.977663">
        <ele>466.043847</ele>
        <time>2026-04-26T16:27:00.460Z</time>
      </trkpt>
      <trkpt lat="49.294759" lon="9.978210">
        <ele>468.811016</ele>
        <time>2026-04-26T16:27:25.643Z</time>
      </trkpt>
      <trkpt lat="49.294352" lon="9.978743">
        <ele>471.304270</ele>
        <time>2026-04-26T16:27:47.306Z</time>
      </trkpt>
      <trkpt lat="49.293082" lon="9.980571">
        <ele>477.242670</ele>
        <time>2026-04-26T16:28:52.965Z</time>
      </trkpt>
      <trkpt lat="49.292688" lon="9.981092">
        <ele>477.837939</ele>
        <time>2026-04-26T16:29:09.083Z</time>
      </trkpt>
      <trkpt lat="49.292665" lon="9.981120">
        <ele>477.816041</ele>
        <time>2026-04-26T16:29:09.910Z</time>
      </trkpt>
      <trkpt lat="49.292036" lon="9.981193">
        <ele>477.345683</ele>
        <time>2026-04-26T16:29:24.754Z</time>
      </trkpt>
      <trkpt lat="49.291401" lon="9.981178">
        <ele>476.872136</ele>
        <time>2026-04-26T16:29:36.070Z</time>
      </trkpt>
      <trkpt lat="49.288105" lon="9.981004">
        <ele>463.465879</ele>
        <time>2026-04-26T16:30:27.100Z</time>
      </trkpt>
      <trkpt lat="49.287985" lon="9.981024">
        <ele>462.920248</ele>
        <time>2026-04-26T16:30:28.910Z</time>
      </trkpt>
      <trkpt lat="49.287110" lon="9.981426">
        <ele>459.922452</ele>
        <time>2026-04-26T16:30:42.663Z</time>
      </trkpt>
      <trkpt lat="49.286261" lon="9.981869">
        <ele>457.873231</ele>
        <time>2026-04-26T16:30:57.850Z</time>
      </trkpt>
      <trkpt lat="49.285936" lon="9.982033">
        <ele>457.091422</ele>
        <time>2026-04-26T16:31:05.780Z</time>
      </trkpt>
      <trkpt lat="49.285660" lon="9.982329">
        <ele>457.848474</ele>
        <time>2026-04-26T16:31:15.712Z</time>
      </trkpt>
      <trkpt lat="49.282968" lon="9.985222">
        <ele>468.857129</ele>
        <time>2026-04-26T16:33:22.667Z</time>
      </trkpt>
      <trkpt lat="49.283674" lon="9.989741">
        <ele>474.148269</ele>
        <time>2026-04-26T16:34:51.596Z</time>
      </trkpt>
      <trkpt lat="49.283709" lon="9.989964">
        <ele>474.386245</ele>
        <time>2026-04-26T16:34:55.926Z</time>
      </trkpt>
      <trkpt lat="49.283892" lon="9.990954">
        <ele>475.505645</ele>
        <time>2026-04-26T16:35:15.901Z</time>
      </trkpt>
      <trkpt lat="49.284004" lon="9.991433">
        <ele>476.108896</ele>
        <time>2026-04-26T16:35:26.130Z</time>
      </trkpt>
      <trkpt lat="49.284158" lon="9.991938">
        <ele>476.769781</ele>
        <time>2026-04-26T16:35:37.539Z</time>
      </trkpt>
      <trkpt lat="49.284524" lon="9.992831">
        <ele>478.020084</ele>
        <time>2026-04-26T16:35:59.176Z</time>
      </trkpt>
      <trkpt lat="49.283930" lon="9.993487">
        <ele>478.716660</ele>
        <time>2026-04-26T16:36:20.385Z</time>
      </trkpt>
      <trkpt lat="49.282825" lon="9.995326">
        <ele>479.556641</ele>
        <time>2026-04-26T16:36:59.608Z</time>
      </trkpt>
      <trkpt lat="49.282605" lon="9.995743">
        <ele>479.574589</ele>
        <time>2026-04-26T16:37:07.891Z</time>
      </trkpt>
      <trkpt lat="49.282221" lon="9.996469">
        <ele>479.605869</ele>
        <time>2026-04-26T16:37:22.643Z</time>
      </trkpt>
      <trkpt lat="49.281976" lon="9.996933">
        <ele>479.625846</ele>
        <time>2026-04-26T16:37:31.790Z</time>
      </trkpt>
      <trkpt lat="49.281448" lon="9.997805">
        <ele>478.209948</ele>
        <time>2026-04-26T16:37:47.924Z</time>
      </trkpt>
      <trkpt lat="49.279273" lon="9.999765">
        <ele>471.937177</ele>
        <time>2026-04-26T16:38:31.471Z</time>
      </trkpt>
      <trkpt lat="49.278013" lon="10.000724">
        <ele>469.309833</ele>
        <time>2026-04-26T16:38:56.832Z</time>
      </trkpt>
      <trkpt lat="49.277535" lon="10.001059">
        <ele>468.511975</ele>
        <time>2026-04-26T16:39:07.753Z</time>
      </trkpt>
      <trkpt lat="49.277313" lon="10.001220">
        <ele>468.151784</ele>
        <time>2026-04-26T16:39:13.259Z</time>
      </trkpt>
      <trkpt lat="49.277225" lon="10.001319">
        <ele>468.138787</ele>
        <time>2026-04-26T16:39:15.757Z</time>
      </trkpt>
      <trkpt lat="49.277198" lon="10.001396">
        <ele>468.131997</ele>
        <time>2026-04-26T16:39:17.127Z</time>
      </trkpt>
      <trkpt lat="49.277094" lon="10.001906">
        <ele>468.090492</ele>
        <time>2026-04-26T16:39:25.595Z</time>
      </trkpt>
      <trkpt lat="49.277005" lon="10.002122">
        <ele>468.070648</ele>
        <time>2026-04-26T16:39:29.807Z</time>
      </trkpt>
      <trkpt lat="49.276464" lon="10.002926">
        <ele>467.980931</ele>
        <time>2026-04-26T16:39:48.354Z</time>
      </trkpt>
      <trkpt lat="49.276192" lon="10.003175">
        <ele>467.943210</ele>
        <time>2026-04-26T16:39:55.071Z</time>
      </trkpt>
      <trkpt lat="49.275944" lon="10.003300">
        <ele>467.527527</ele>
        <time>2026-04-26T16:40:00.300Z</time>
      </trkpt>
      <trkpt lat="49.272548" lon="10.003749">
        <ele>460.499568</ele>
        <time>2026-04-26T16:41:02.510Z</time>
      </trkpt>
      <trkpt lat="49.269894" lon="10.003173">
        <ele>454.357989</ele>
        <time>2026-04-26T16:41:48.820Z</time>
      </trkpt>
      <trkpt lat="49.269455" lon="10.003275">
        <ele>453.836115</ele>
        <time>2026-04-26T16:41:58.022Z</time>
      </trkpt>
      <trkpt lat="49.265186" lon="10.004260">
        <ele>459.361298</ele>
        <time>2026-04-26T16:44:11.583Z</time>
      </trkpt>
      <trkpt lat="49.264705" lon="10.004382">
        <ele>458.349339</ele>
        <time>2026-04-26T16:44:23.119Z</time>
      </trkpt>
      <trkpt lat="49.263168" lon="10.004918">
        <ele>452.950025</ele>
        <time>2026-04-26T16:44:48.725Z</time>
      </trkpt>
      <trkpt lat="49.260015" lon="10.006071">
        <ele>433.505279</ele>
        <time>2026-04-26T16:45:37.663Z</time>
      </trkpt>
      <trkpt lat="49.260039" lon="10.006427">
        <ele>433.031062</ele>
        <time>2026-04-26T16:45:41.369Z</time>
      </trkpt>
      <trkpt lat="49.260088" lon="10.006745">
        <ele>432.598120</ele>
        <time>2026-04-26T16:45:44.882Z</time>
      </trkpt>
      <trkpt lat="49.260306" lon="10.007820">
        <ele>431.106547</ele>
        <time>2026-04-26T16:45:58.674Z</time>
      </trkpt>
      <trkpt lat="49.260621" lon="10.009397">
        <ele>430.943270</ele>
        <time>2026-04-26T16:46:26.549Z</time>
      </trkpt>
      <trkpt lat="49.260714" lon="10.010542">
        <ele>431.756037</ele>
        <time>2026-04-26T16:46:48.081Z</time>
      </trkpt>
      <trkpt lat="49.260719" lon="10.011244">
        <ele>432.145473</ele>
        <time>2026-04-26T16:47:00.370Z</time>
      </trkpt>
      <trkpt lat="49.260681" lon="10.011612">
        <ele>432.000746</ele>
        <time>2026-04-26T16:47:06.525Z</time>
      </trkpt>
      <trkpt lat="49.260589" lon="10.012048">
        <ele>431.822749</ele>
        <time>2026-04-26T16:47:13.686Z</time>
      </trkpt>
      <trkpt lat="49.260376" lon="10.012692">
        <ele>431.542294</ele>
        <time>2026-04-26T16:47:23.679Z</time>
      </trkpt>
      <trkpt lat="49.260054" lon="10.013502">
        <ele>431.173870</ele>
        <time>2026-04-26T16:47:35.100Z</time>
      </trkpt>
      <trkpt lat="49.259895" lon="10.013954">
        <ele>430.158562</ele>
        <time>2026-04-26T16:47:40.708Z</time>
      </trkpt>
      <trkpt lat="49.259849" lon="10.014240">
        <ele>429.366875</ele>
        <time>2026-04-26T16:47:43.860Z</time>
      </trkpt>
      <trkpt lat="49.259815" lon="10.014795">
        <ele>427.868634</ele>
        <time>2026-04-26T16:47:49.712Z</time>
      </trkpt>
      <trkpt lat="49.259644" lon="10.014829">
        <ele>427.158502</ele>
        <time>2026-04-26T16:47:52.449Z</time>
      </trkpt>
      <trkpt lat="49.259442" lon="10.014946">
        <ele>426.269155</ele>
        <time>2026-04-26T16:47:55.792Z</time>
      </trkpt>
      <trkpt lat="49.259335" lon="10.015098">
        <ele>425.668255</ele>
        <time>2026-04-26T16:47:58.010Z</time>
      </trkpt>
      <trkpt lat="49.259293" lon="10.015258">
        <ele>425.204733</ele>
        <time>2026-04-26T16:47:59.698Z</time>
      </trkpt>
      <trkpt lat="49.259287" lon="10.015454">
        <ele>424.677355</ele>
        <time>2026-04-26T16:48:01.588Z</time>
      </trkpt>
      <trkpt lat="49.259321" lon="10.015881">
        <ele>423.463176</ele>
        <time>2026-04-26T16:48:05.672Z</time>
      </trkpt>
      <trkpt lat="49.259309" lon="10.015996">
        <ele>423.051345</ele>
        <time>2026-04-26T16:48:06.771Z</time>
      </trkpt>
      <trkpt lat="49.259206" lon="10.016186">
        <ele>422.177906</ele>
        <time>2026-04-26T16:48:09.101Z</time>
      </trkpt>
      <trkpt lat="49.259074" lon="10.016267">
        <ele>421.407457</ele>
        <time>2026-04-26T16:48:11.159Z</time>
      </trkpt>
      <trkpt lat="49.259046" lon="10.016382">
        <ele>420.973410</ele>
        <time>2026-04-26T16:48:12.382Z</time>
      </trkpt>
      <trkpt lat="49.258542" lon="10.017036">
        <ele>417.394828</ele>
        <time>2026-04-26T16:48:22.601Z</time>
      </trkpt>
      <trkpt lat="49.258393" lon="10.017325">
        <ele>416.092425</ele>
        <time>2026-04-26T16:48:26.333Z</time>
      </trkpt>
      <trkpt lat="49.258304" lon="10.017583">
        <ele>415.060456</ele>
        <time>2026-04-26T16:48:29.313Z</time>
      </trkpt>
      <trkpt lat="49.258287" lon="10.017664">
        <ele>414.759570</ele>
        <time>2026-04-26T16:48:30.202Z</time>
      </trkpt>
      <trkpt lat="49.258256" lon="10.017817">
        <ele>414.193042</ele>
        <time>2026-04-26T16:48:31.881Z</time>
      </trkpt>
      <trkpt lat="49.258205" lon="10.018161">
        <ele>413.594128</ele>
        <time>2026-04-26T16:48:35.660Z</time>
      </trkpt>
      <trkpt lat="49.258095" lon="10.018852">
        <ele>412.688264</ele>
        <time>2026-04-26T16:48:43.966Z</time>
      </trkpt>
      <trkpt lat="49.258057" lon="10.019173">
        <ele>412.272764</ele>
        <time>2026-04-26T16:48:48.111Z</time>
      </trkpt>
      <trkpt lat="49.258046" lon="10.019760">
        <ele>411.524845</ele>
        <time>2026-04-26T16:48:55.780Z</time>
      </trkpt>
      <trkpt lat="49.258053" lon="10.019935">
        <ele>411.301545</ele>
        <time>2026-04-26T16:48:58.102Z</time>
      </trkpt>
      <trkpt lat="49.258070" lon="10.020697">
        <ele>410.441015</ele>
        <time>2026-04-26T16:49:08.163Z</time>
      </trkpt>
      <trkpt lat="49.258079" lon="10.020857">
        <ele>410.426835</ele>
        <time>2026-04-26T16:49:10.467Z</time>
      </trkpt>
      <trkpt lat="49.258108" lon="10.021315">
        <ele>410.386206</ele>
        <time>2026-04-26T16:49:16.963Z</time>
      </trkpt>
      <trkpt lat="49.258083" lon="10.021848">
        <ele>410.339023</ele>
        <time>2026-04-26T16:49:24.347Z</time>
      </trkpt>
      <trkpt lat="49.258126" lon="10.022078">
        <ele>410.317898</ele>
        <time>2026-04-26T16:49:27.462Z</time>
      </trkpt>
      <trkpt lat="49.258117" lon="10.022307">
        <ele>410.297642</ele>
        <time>2026-04-26T16:49:30.529Z</time>
      </trkpt>
      <trkpt lat="49.258020" lon="10.022692">
        <ele>410.261203</ele>
        <time>2026-04-26T16:49:36.281Z</time>
      </trkpt>
      <trkpt lat="49.257786" lon="10.023630">
        <ele>410.285628</ele>
        <time>2026-04-26T16:49:53.697Z</time>
      </trkpt>
      <trkpt lat="49.257803" lon="10.024135">
        <ele>410.392261</ele>
        <time>2026-04-26T16:50:02.871Z</time>
      </trkpt>
      <trkpt lat="49.257936" lon="10.024477">
        <ele>410.476212</ele>
        <time>2026-04-26T16:50:09.710Z</time>
      </trkpt>
      <trkpt lat="49.258051" lon="10.024783">
        <ele>410.550672</ele>
        <time>2026-04-26T16:50:15.505Z</time>
      </trkpt>
      <trkpt lat="49.258127" lon="10.025035">
        <ele>410.609212</ele>
        <time>2026-04-26T16:50:19.789Z</time>
      </trkpt>
      <trkpt lat="49.258117" lon="10.025204">
        <ele>410.644995</ele>
        <time>2026-04-26T16:50:22.299Z</time>
      </trkpt>
      <trkpt lat="49.258073" lon="10.025386">
        <ele>410.685922</ele>
        <time>2026-04-26T16:50:25.056Z</time>
      </trkpt>
      <trkpt lat="49.257960" lon="10.025584">
        <ele>410.741387</ele>
        <time>2026-04-26T16:50:28.646Z</time>
      </trkpt>
      <trkpt lat="49.257387" lon="10.026639">
        <ele>410.442151</ele>
        <time>2026-04-26T16:50:45.136Z</time>
      </trkpt>
      <trkpt lat="49.257308" lon="10.026819">
        <ele>410.377429</ele>
        <time>2026-04-26T16:50:47.788Z</time>
      </trkpt>
      <trkpt lat="49.257235" lon="10.027175">
        <ele>410.266086</ele>
        <time>2026-04-26T16:50:52.562Z</time>
      </trkpt>
      <trkpt lat="49.257222" lon="10.027429">
        <ele>410.190065</ele>
        <time>2026-04-26T16:50:56.156Z</time>
      </trkpt>
      <trkpt lat="49.257150" lon="10.029116">
        <ele>410.044977</ele>
        <time>2026-04-26T16:51:24.192Z</time>
      </trkpt>
      <trkpt lat="49.257074" lon="10.029128">
        <ele>410.055014</ele>
        <time>2026-04-26T16:51:26.297Z</time>
      </trkpt>
      <trkpt lat="49.256838" lon="10.029172">
        <ele>410.086243</ele>
        <time>2026-04-26T16:51:32.530Z</time>
      </trkpt>
      <trkpt lat="49.256723" lon="10.029189">
        <ele>410.101420</ele>
        <time>2026-04-26T16:51:35.392Z</time>
      </trkpt>
      <trkpt lat="49.256467" lon="10.029232">
        <ele>410.135250</ele>
        <time>2026-04-26T16:51:41.355Z</time>
      </trkpt>
      <trkpt lat="49.256392" lon="10.029419">
        <ele>410.154067</ele>
        <time>2026-04-26T16:51:44.678Z</time>
      </trkpt>
      <trkpt lat="49.256357" lon="10.030188">
        <ele>410.090436</ele>
        <time>2026-04-26T16:51:55.681Z</time>
      </trkpt>
      <trkpt lat="49.256314" lon="10.030448">
        <ele>409.957400</ele>
        <time>2026-04-26T16:51:59.523Z</time>
      </trkpt>
      <trkpt lat="49.256181" lon="10.030864">
        <ele>409.727638</ele>
        <time>2026-04-26T16:52:05.877Z</time>
      </trkpt>
      <trkpt lat="49.255939" lon="10.031207">
        <ele>409.477106</ele>
        <time>2026-04-26T16:52:12.715Z</time>
      </trkpt>
      <trkpt lat="49.255627" lon="10.031446">
        <ele>409.212018</ele>
        <time>2026-04-26T16:52:20.294Z</time>
      </trkpt>
      <trkpt lat="49.255168" lon="10.031645">
        <ele>408.849504</ele>
        <time>2026-04-26T16:52:31.491Z</time>
      </trkpt>
      <trkpt lat="49.254822" lon="10.031635">
        <ele>409.163662</ele>
        <time>2026-04-26T16:52:40.412Z</time>
      </trkpt>
      <trkpt lat="49.254695" lon="10.031822">
        <ele>409.341768</ele>
        <time>2026-04-26T16:52:44.761Z</time>
      </trkpt>
      <trkpt lat="49.254615" lon="10.032042">
        <ele>409.507975</ele>
        <time>2026-04-26T16:52:49.016Z</time>
      </trkpt>
      <trkpt lat="49.254194" lon="10.031809">
        <ele>409.960589</ele>
        <time>2026-04-26T16:53:01.359Z</time>
      </trkpt>
      <trkpt lat="49.253780" lon="10.031323">
        <ele>410.487958</ele>
        <time>2026-04-26T16:53:16.293Z</time>
      </trkpt>
      <trkpt lat="49.253769" lon="10.031302">
        <ele>410.505729</ele>
        <time>2026-04-26T16:53:16.796Z</time>
      </trkpt>
      <trkpt lat="49.253459" lon="10.030729">
        <ele>410.969927</ele>
        <time>2026-04-26T16:53:30.613Z</time>
      </trkpt>
      <trkpt lat="49.252969" lon="10.030131">
        <ele>411.553676</ele>
        <time>2026-04-26T16:53:48.159Z</time>
      </trkpt>
      <trkpt lat="49.252820" lon="10.029898">
        <ele>411.752069</ele>
        <time>2026-04-26T16:53:53.376Z</time>
      </trkpt>
      <trkpt lat="49.252690" lon="10.029484">
        <ele>412.031496</ele>
        <time>2026-04-26T16:54:00.306Z</time>
      </trkpt>
      <trkpt lat="49.252635" lon="10.029182">
        <ele>412.222194</ele>
        <time>2026-04-26T16:54:04.900Z</time>
      </trkpt>
      <trkpt lat="49.252487" lon="10.029210">
        <ele>412.347983</ele>
        <time>2026-04-26T16:54:08.406Z</time>
      </trkpt>
      <trkpt lat="49.252418" lon="10.028730">
        <ele>412.525026</ele>
        <time>2026-04-26T16:54:15.797Z</time>
      </trkpt>
      <trkpt lat="49.252074" lon="10.028642">
        <ele>412.717489</ele>
        <time>2026-04-26T16:54:24.291Z</time>
      </trkpt>
      <trkpt lat="49.251842" lon="10.028642">
        <ele>412.845518</ele>
        <time>2026-04-26T16:54:29.961Z</time>
      </trkpt>
      <trkpt lat="49.251641" lon="10.028701">
        <ele>412.958457</ele>
        <time>2026-04-26T16:54:35.128Z</time>
      </trkpt>
      <trkpt lat="49.250941" lon="10.029081">
        <ele>413.356989</ele>
        <time>2026-04-26T16:54:55.406Z</time>
      </trkpt>
      <trkpt lat="49.250694" lon="10.029275">
        <ele>413.473233</ele>
        <time>2026-04-26T16:55:02.995Z</time>
      </trkpt>
      <trkpt lat="49.250443" lon="10.029382">
        <ele>413.582343</ele>
        <time>2026-04-26T16:55:09.896Z</time>
      </trkpt>
      <trkpt lat="49.250325" lon="10.029345">
        <ele>413.632785</ele>
        <time>2026-04-26T16:55:12.887Z</time>
      </trkpt>
      <trkpt lat="49.249455" lon="10.028634">
        <ele>414.045734</ele>
        <time>2026-04-26T16:55:34.712Z</time>
      </trkpt>
      <trkpt lat="49.248940" lon="10.028259">
        <ele>414.851526</ele>
        <time>2026-04-26T16:55:50.376Z</time>
      </trkpt>
      <trkpt lat="49.248889" lon="10.028260">
        <ele>414.930600</ele>
        <time>2026-04-26T16:55:51.902Z</time>
      </trkpt>
      <trkpt lat="49.249072" lon="10.028798">
        <ele>415.544552</ele>
        <time>2026-04-26T16:56:04.110Z</time>
      </trkpt>
      <trkpt lat="49.249153" lon="10.029120">
        <ele>415.893781</ele>
        <time>2026-04-26T16:56:10.996Z</time>
      </trkpt>
      <trkpt lat="49.249198" lon="10.029398">
        <ele>416.183643</ele>
        <time>2026-04-26T16:56:16.899Z</time>
      </trkpt>
      <trkpt lat="49.249177" lon="10.029725">
        <ele>416.516170</ele>
        <time>2026-04-26T16:56:24.114Z</time>
      </trkpt>
      <trkpt lat="49.249149" lon="10.029795">
        <ele>416.599254</ele>
        <time>2026-04-26T16:56:25.949Z</time>
      </trkpt>
      <trkpt lat="49.248568" lon="10.030597">
        <ele>417.527680</ele>
        <time>2026-04-26T16:56:49.679Z</time>
      </trkpt>
      <trkpt lat="49.248378" lon="10.030823">
        <ele>417.788933</ele>
        <time>2026-04-26T16:56:54.986Z</time>
      </trkpt>
      <trkpt lat="49.248228" lon="10.031002">
        <ele>417.995438</ele>
        <time>2026-04-26T16:56:58.884Z</time>
      </trkpt>
      <trkpt lat="49.247789" lon="10.031278">
        <ele>418.510811</ele>
        <time>2026-04-26T16:57:10.408Z</time>
      </trkpt>
      <trkpt lat="49.247660" lon="10.031403">
        <ele>418.676589</ele>
        <time>2026-04-26T16:57:14.815Z</time>
      </trkpt>
      <trkpt lat="49.247375" lon="10.031798">
        <ele>419.634771</ele>
        <time>2026-04-26T16:57:27.083Z</time>
      </trkpt>
      <trkpt lat="49.247574" lon="10.032067">
        <ele>420.484996</ele>
        <time>2026-04-26T16:57:35.905Z</time>
      </trkpt>
      <trkpt lat="49.247798" lon="10.032389">
        <ele>421.469068</ele>
        <time>2026-04-26T16:57:46.838Z</time>
      </trkpt>
      <trkpt lat="49.248152" lon="10.032908">
        <ele>423.038813</ele>
        <time>2026-04-26T16:58:05.909Z</time>
      </trkpt>
      <trkpt lat="49.248342" lon="10.033308">
        <ele>424.073324</ele>
        <time>2026-04-26T16:58:18.893Z</time>
      </trkpt>
      <trkpt lat="49.248204" lon="10.033429">
        <ele>424.580729</ele>
        <time>2026-04-26T16:58:25.051Z</time>
      </trkpt>
      <trkpt lat="49.248433" lon="10.033963">
        <ele>425.253346</ele>
        <time>2026-04-26T16:58:39.690Z</time>
      </trkpt>
      <trkpt lat="49.248505" lon="10.034261">
        <ele>425.587860</ele>
        <time>2026-04-26T16:58:46.284Z</time>
      </trkpt>
      <trkpt lat="49.248731" lon="10.034979">
        <ele>426.427005</ele>
        <time>2026-04-26T16:59:00.843Z</time>
      </trkpt>
      <trkpt lat="49.248838" lon="10.035565">
        <ele>427.067583</ele>
        <time>2026-04-26T16:59:10.481Z</time>
      </trkpt>
      <trkpt lat="49.248878" lon="10.035756">
        <ele>427.278748</ele>
        <time>2026-04-26T16:59:13.403Z</time>
      </trkpt>
      <trkpt lat="49.249105" lon="10.036488">
        <ele>427.189354</ele>
        <time>2026-04-26T16:59:24.490Z</time>
      </trkpt>
      <trkpt lat="49.249066" lon="10.036647">
        <ele>427.109875</ele>
        <time>2026-04-26T16:59:26.788Z</time>
      </trkpt>
      <trkpt lat="49.249056" lon="10.036801">
        <ele>427.037459</ele>
        <time>2026-04-26T16:59:28.868Z</time>
      </trkpt>
      <trkpt lat="49.249084" lon="10.037006">
        <ele>426.939456</ele>
        <time>2026-04-26T16:59:31.638Z</time>
      </trkpt>
      <trkpt lat="49.249558" lon="10.039582">
        <ele>425.804107</ele>
        <time>2026-04-26T17:00:07.071Z</time>
      </trkpt>
      <trkpt lat="49.249666" lon="10.040067">
        <ele>425.620101</ele>
        <time>2026-04-26T17:00:14.350Z</time>
      </trkpt>
      <trkpt lat="49.249722" lon="10.040367">
        <ele>425.508061</ele>
        <time>2026-04-26T17:00:18.873Z</time>
      </trkpt>
      <trkpt lat="49.249801" lon="10.040812">
        <ele>425.342470</ele>
        <time>2026-04-26T17:00:25.694Z</time>
      </trkpt>
      <trkpt lat="49.250152" lon="10.042736">
        <ele>424.915293</ele>
        <time>2026-04-26T17:00:54.425Z</time>
      </trkpt>
      <trkpt lat="49.250209" lon="10.043016">
        <ele>424.863073</ele>
        <time>2026-04-26T17:00:58.575Z</time>
      </trkpt>
      <trkpt lat="49.250313" lon="10.043582">
        <ele>424.758384</ele>
        <time>2026-04-26T17:01:06.916Z</time>
      </trkpt>
      <trkpt lat="49.250801" lon="10.046238">
        <ele>424.840327</ele>
        <time>2026-04-26T17:01:49.256Z</time>
      </trkpt>
      <trkpt lat="49.250936" lon="10.046965">
        <ele>424.942699</ele>
        <time>2026-04-26T17:02:01.190Z</time>
      </trkpt>
      <trkpt lat="49.251049" lon="10.047569">
        <ele>425.056414</ele>
        <time>2026-04-26T17:02:11.101Z</time>
      </trkpt>
      <trkpt lat="49.251153" lon="10.047867">
        <ele>425.117572</ele>
        <time>2026-04-26T17:02:16.423Z</time>
      </trkpt>
      <trkpt lat="49.252030" lon="10.049092">
        <ele>425.369523</ele>
        <time>2026-04-26T17:02:45.749Z</time>
      </trkpt>
      <trkpt lat="49.253866" lon="10.051626">
        <ele>424.752603</ele>
        <time>2026-04-26T17:03:42.439Z</time>
      </trkpt>
      <trkpt lat="49.253213" lon="10.052994">
        <ele>423.762062</ele>
        <time>2026-04-26T17:04:18.662Z</time>
      </trkpt>
      <trkpt lat="49.252903" lon="10.054131">
        <ele>422.614524</ele>
        <time>2026-04-26T17:04:44.116Z</time>
      </trkpt>
      <trkpt lat="49.252757" lon="10.054703">
        <ele>422.042545</ele>
        <time>2026-04-26T17:04:57.210Z</time>
      </trkpt>
      <trkpt lat="49.252761" lon="10.054847">
        <ele>421.908317</ele>
        <time>2026-04-26T17:05:00.372Z</time>
      </trkpt>
      <trkpt lat="49.252935" lon="10.055587">
        <ele>421.826684</ele>
        <time>2026-04-26T17:05:18.112Z</time>
      </trkpt>
      <trkpt lat="49.253039" lon="10.055879">
        <ele>421.943027</ele>
        <time>2026-04-26T17:05:26.147Z</time>
      </trkpt>
      <trkpt lat="49.253130" lon="10.056014">
        <ele>422.010902</ele>
        <time>2026-04-26T17:05:31.044Z</time>
      </trkpt>
      <trkpt lat="49.253532" lon="10.056340">
        <ele>422.254625</ele>
        <time>2026-04-26T17:05:49.529Z</time>
      </trkpt>
      <trkpt lat="49.253728" lon="10.056586">
        <ele>422.390393</ele>
        <time>2026-04-26T17:06:00.202Z</time>
      </trkpt>
      <trkpt lat="49.253912" lon="10.056865">
        <ele>422.529111</ele>
        <time>2026-04-26T17:06:11.290Z</time>
      </trkpt>
      <trkpt lat="49.254224" lon="10.057582">
        <ele>422.932007</ele>
        <time>2026-04-26T17:06:35.290Z</time>
      </trkpt>
      <trkpt lat="49.254365" lon="10.058205">
        <ele>423.270141</ele>
        <time>2026-04-26T17:06:53.337Z</time>
      </trkpt>
      <trkpt lat="49.254543" lon="10.061359">
        <ele>423.649869</ele>
        <time>2026-04-26T17:08:12.597Z</time>
      </trkpt>
      <trkpt lat="49.254677" lon="10.062381">
        <ele>423.418221</ele>
        <time>2026-04-26T17:08:35.536Z</time>
      </trkpt>
      <trkpt lat="49.254813" lon="10.063243">
        <ele>422.559307</ele>
        <time>2026-04-26T17:08:53.713Z</time>
      </trkpt>
      <trkpt lat="49.254876" lon="10.063512">
        <ele>422.277271</ele>
        <time>2026-04-26T17:08:59.444Z</time>
      </trkpt>
      <trkpt lat="49.255172" lon="10.064273">
        <ele>421.403034</ele>
        <time>2026-04-26T17:09:17.720Z</time>
      </trkpt>
      <trkpt lat="49.255306" lon="10.064928">
        <ele>420.725640</ele>
        <time>2026-04-26T17:09:32.955Z</time>
      </trkpt>
      <trkpt lat="49.256213" lon="10.064488">
        <ele>420.065065</ele>
        <time>2026-04-26T17:10:07.489Z</time>
      </trkpt>
      <trkpt lat="49.258523" lon="10.064889">
        <ele>418.273677</ele>
        <time>2026-04-26T17:11:26.362Z</time>
      </trkpt>
      <trkpt lat="49.258387" lon="10.066576">
        <ele>418.188569</ele>
        <time>2026-04-26T17:11:50.281Z</time>
      </trkpt>
      <trkpt lat="49.258384" lon="10.066797">
        <ele>418.225750</ele>
        <time>2026-04-26T17:11:53.797Z</time>
      </trkpt>
      <trkpt lat="49.258830" lon="10.069414">
        <ele>419.501047</ele>
        <time>2026-04-26T17:12:41.464Z</time>
      </trkpt>
      <trkpt lat="49.259582" lon="10.073717">
        <ele>423.685628</ele>
        <time>2026-04-26T17:14:04.943Z</time>
      </trkpt>
      <trkpt lat="49.258400" lon="10.074224">
        <ele>426.256993</ele>
        <time>2026-04-26T17:14:45.808Z</time>
      </trkpt>
      <trkpt lat="49.258787" lon="10.075783">
        <ele>427.878085</ele>
        <time>2026-04-26T17:15:18.233Z</time>
      </trkpt>
      <trkpt lat="49.258865" lon="10.075946">
        <ele>428.031145</ele>
        <time>2026-04-26T17:15:21.752Z</time>
      </trkpt>
      <trkpt lat="49.259427" lon="10.076760">
        <ele>428.928470</ele>
        <time>2026-04-26T17:15:42.152Z</time>
      </trkpt>
      <trkpt lat="49.259524" lon="10.076966">
        <ele>429.120830</ele>
        <time>2026-04-26T17:15:46.496Z</time>
      </trkpt>
      <trkpt lat="49.260026" lon="10.078193">
        <ele>429.553888</ele>
        <time>2026-04-26T17:16:11.563Z</time>
      </trkpt>
      <trkpt lat="49.260693" lon="10.079554">
        <ele>429.872817</ele>
        <time>2026-04-26T17:16:37.847Z</time>
      </trkpt>
      <trkpt lat="49.260894" lon="10.080044">
        <ele>429.764292</ele>
        <time>2026-04-26T17:16:45.674Z</time>
      </trkpt>
      <trkpt lat="49.261031" lon="10.080433">
        <ele>429.681405</ele>
        <time>2026-04-26T17:16:51.643Z</time>
      </trkpt>
      <trkpt lat="49.261142" lon="10.080914">
        <ele>429.585738</ele>
        <time>2026-04-26T17:16:58.502Z</time>
      </trkpt>
      <trkpt lat="49.261208" lon="10.081162">
        <ele>429.535517</ele>
        <time>2026-04-26T17:17:02.087Z</time>
      </trkpt>
      <trkpt lat="49.262334" lon="10.085988">
        <ele>430.635627</ele>
        <time>2026-04-26T17:18:26.706Z</time>
      </trkpt>
      <trkpt lat="49.262371" lon="10.086043">
        <ele>430.651585</ele>
        <time>2026-04-26T17:18:27.959Z</time>
      </trkpt>
      <trkpt lat="49.262631" lon="10.086334">
        <ele>430.751256</ele>
        <time>2026-04-26T17:18:35.669Z</time>
      </trkpt>
      <trkpt lat="49.262993" lon="10.086740">
        <ele>430.719539</ele>
        <time>2026-04-26T17:18:45.843Z</time>
      </trkpt>
      <trkpt lat="49.263574" lon="10.087457">
        <ele>430.243505</ele>
        <time>2026-04-26T17:19:01.597Z</time>
      </trkpt>
      <trkpt lat="49.264649" lon="10.089263">
        <ele>429.265575</ele>
        <time>2026-04-26T17:19:34.169Z</time>
      </trkpt>
      <trkpt lat="49.265266" lon="10.090466">
        <ele>428.683691</ele>
        <time>2026-04-26T17:19:56.653Z</time>
      </trkpt>
      <trkpt lat="49.265954" lon="10.092029">
        <ele>426.209869</ele>
        <time>2026-04-26T17:20:21.323Z</time>
      </trkpt>
      <trkpt lat="49.266021" lon="10.092114">
        <ele>426.026607</ele>
        <time>2026-04-26T17:20:22.828Z</time>
      </trkpt>
      <trkpt lat="49.266093" lon="10.092103">
        <ele>425.874156</ele>
        <time>2026-04-26T17:20:24.065Z</time>
      </trkpt>
      <trkpt lat="49.266394" lon="10.091799">
        <ele>425.114626</ele>
        <time>2026-04-26T17:20:29.988Z</time>
      </trkpt>
      <trkpt lat="49.267347" lon="10.090894">
        <ele>421.687033</ele>
        <time>2026-04-26T17:20:48.006Z</time>
      </trkpt>
      <trkpt lat="49.267446" lon="10.090829">
        <ele>421.344781</ele>
        <time>2026-04-26T17:20:49.843Z</time>
      </trkpt>
      <trkpt lat="49.268354" lon="10.090044">
        <ele>419.030111</ele>
        <time>2026-04-26T17:21:09.673Z</time>
      </trkpt>
      <trkpt lat="49.270917" lon="10.087862">
        <ele>418.901385</ele>
        <time>2026-04-26T17:22:18.968Z</time>
      </trkpt>
      <trkpt lat="49.271098" lon="10.087789">
        <ele>418.939742</ele>
        <time>2026-04-26T17:22:23.428Z</time>
      </trkpt>
      <trkpt lat="49.272234" lon="10.087493">
        <ele>419.995432</ele>
        <time>2026-04-26T17:22:52.991Z</time>
      </trkpt>
      <trkpt lat="49.273918" lon="10.087055">
        <ele>422.291696</ele>
        <time>2026-04-26T17:23:43.759Z</time>
      </trkpt>
      <trkpt lat="49.275243" lon="10.086710">
        <ele>424.518433</ele>
        <time>2026-04-26T17:24:23.620Z</time>
      </trkpt>
      <trkpt lat="49.275337" lon="10.086684">
        <ele>424.682103</ele>
        <time>2026-04-26T17:24:26.259Z</time>
      </trkpt>
      <trkpt lat="49.275550" lon="10.086626">
        <ele>425.052793</ele>
        <time>2026-04-26T17:24:32.216Z</time>
      </trkpt>
      <trkpt lat="49.276667" lon="10.086319">
        <ele>427.109869</ele>
        <time>2026-04-26T17:25:05.418Z</time>
      </trkpt>
      <trkpt lat="49.277497" lon="10.086117">
        <ele>429.316334</ele>
        <time>2026-04-26T17:25:32.235Z</time>
      </trkpt>
      <trkpt lat="49.278073" lon="10.086163">
        <ele>430.830675</ele>
        <time>2026-04-26T17:25:52.245Z</time>
      </trkpt>
      <trkpt lat="49.278109" lon="10.086253">
        <ele>431.011500</ele>
        <time>2026-04-26T17:25:54.622Z</time>
      </trkpt>
      <trkpt lat="49.278263" lon="10.086563">
        <ele>431.632614</ele>
        <time>2026-04-26T17:26:03.556Z</time>
      </trkpt>
      <trkpt lat="49.278521" lon="10.087070">
        <ele>432.435455</ele>
        <time>2026-04-26T17:26:18.218Z</time>
      </trkpt>
      <trkpt lat="49.278781" lon="10.087150">
        <ele>432.942991</ele>
        <time>2026-04-26T17:26:26.986Z</time>
      </trkpt>
      <trkpt lat="49.278784" lon="10.087699">
        <ele>433.628485</ele>
        <time>2026-04-26T17:26:38.390Z</time>
      </trkpt>
      <trkpt lat="49.278793" lon="10.088013">
        <ele>434.020917</ele>
        <time>2026-04-26T17:26:44.571Z</time>
      </trkpt>
      <trkpt lat="49.278796" lon="10.088102">
        <ele>434.132189</ele>
        <time>2026-04-26T17:26:46.205Z</time>
      </trkpt>
      <trkpt lat="49.278812" lon="10.088653">
        <ele>434.820837</ele>
        <time>2026-04-26T17:26:55.216Z</time>
      </trkpt>
      <trkpt lat="49.278549" lon="10.089302">
        <ele>434.058181</ele>
        <time>2026-04-26T17:27:05.416Z</time>
      </trkpt>
      <trkpt lat="49.278616" lon="10.089912">
        <ele>433.222017</ele>
        <time>2026-04-26T17:27:12.469Z</time>
      </trkpt>
      <trkpt lat="49.278629" lon="10.090040">
        <ele>433.046910</ele>
        <time>2026-04-26T17:27:13.890Z</time>
      </trkpt>
      <trkpt lat="49.278677" lon="10.090829">
        <ele>431.975763</ele>
        <time>2026-04-26T17:27:22.378Z</time>
      </trkpt>
      <trkpt lat="49.278692" lon="10.091611">
        <ele>430.898613</ele>
        <time>2026-04-26T17:27:30.504Z</time>
      </trkpt>
      <trkpt lat="49.278691" lon="10.092322">
        <ele>429.875746</ele>
        <time>2026-04-26T17:27:38.121Z</time>
      </trkpt>
      <trkpt lat="49.278688" lon="10.093091">
        <ele>428.769422</ele>
        <time>2026-04-26T17:27:46.678Z</time>
      </trkpt>
      <trkpt lat="49.278815" lon="10.093306">
        <ele>428.352166</ele>
        <time>2026-04-26T17:27:50.031Z</time>
      </trkpt>
      <trkpt lat="49.278962" lon="10.093431">
        <ele>427.981463</ele>
        <time>2026-04-26T17:27:53.077Z</time>
      </trkpt>
      <trkpt lat="49.280080" lon="10.093656">
        <ele>426.785564</ele>
        <time>2026-04-26T17:28:15.951Z</time>
      </trkpt>
      <trkpt lat="49.280288" lon="10.093742">
        <ele>426.658390</ele>
        <time>2026-04-26T17:28:20.446Z</time>
      </trkpt>
      <trkpt lat="49.280343" lon="10.093780">
        <ele>426.622777</ele>
        <time>2026-04-26T17:28:21.713Z</time>
      </trkpt>
      <trkpt lat="49.280507" lon="10.093874">
        <ele>426.519418</ele>
        <time>2026-04-26T17:28:25.366Z</time>
      </trkpt>
      <trkpt lat="49.280657" lon="10.094005">
        <ele>426.417508</ele>
        <time>2026-04-26T17:28:28.945Z</time>
      </trkpt>
      <trkpt lat="49.280795" lon="10.094237">
        <ele>426.296602</ele>
        <time>2026-04-26T17:28:33.171Z</time>
      </trkpt>
      <trkpt lat="49.280873" lon="10.094615">
        <ele>426.143477</ele>
        <time>2026-04-26T17:28:38.480Z</time>
      </trkpt>
      <trkpt lat="49.281048" lon="10.097465">
        <ele>425.178411</ele>
        <time>2026-04-26T17:29:15.861Z</time>
      </trkpt>
      <trkpt lat="49.281161" lon="10.097874">
        <ele>425.278209</ele>
        <time>2026-04-26T17:29:22.205Z</time>
      </trkpt>
      <trkpt lat="49.281306" lon="10.098183">
        <ele>425.363732</ele>
        <time>2026-04-26T17:29:27.861Z</time>
      </trkpt>
      <trkpt lat="49.282915" lon="10.099906">
        <ele>426.635985</ele>
        <time>2026-04-26T17:30:17.417Z</time>
      </trkpt>
      <trkpt lat="49.283318" lon="10.100345">
        <ele>427.149659</ele>
        <time>2026-04-26T17:30:30.625Z</time>
      </trkpt>
      <trkpt lat="49.283540" lon="10.100555">
        <ele>427.420700</ele>
        <time>2026-04-26T17:30:37.725Z</time>
      </trkpt>
      <trkpt lat="49.285030" lon="10.102179">
        <ele>430.134498</ele>
        <time>2026-04-26T17:31:29.691Z</time>
      </trkpt>
      <trkpt lat="49.287522" lon="10.104849">
        <ele>435.353574</ele>
        <time>2026-04-26T17:32:57.230Z</time>
      </trkpt>
      <trkpt lat="49.289069" lon="10.106505">
        <ele>439.935930</ele>
        <time>2026-04-26T17:33:56.295Z</time>
      </trkpt>
      <trkpt lat="49.289426" lon="10.106910">
        <ele>441.162876</ele>
        <time>2026-04-26T17:34:12.117Z</time>
      </trkpt>
      <trkpt lat="49.289977" lon="10.107476">
        <ele>443.433669</ele>
        <time>2026-04-26T17:34:37.431Z</time>
      </trkpt>
      <trkpt lat="49.290529" lon="10.108076">
        <ele>445.917253</ele>
        <time>2026-04-26T17:35:03.846Z</time>
      </trkpt>
      <trkpt lat="49.291318" lon="10.108945">
        <ele>448.477705</ele>
        <time>2026-04-26T17:35:38.487Z</time>
      </trkpt>
      <trkpt lat="49.291499" lon="10.109073">
        <ele>448.606670</ele>
        <time>2026-04-26T17:35:44.407Z</time>
      </trkpt>
      <trkpt lat="49.292085" lon="10.109244">
        <ele>448.992621</ele>
        <time>2026-04-26T17:35:59.471Z</time>
      </trkpt>
      <trkpt lat="49.293373" lon="10.109519">
        <ele>448.496620</ele>
        <time>2026-04-26T17:36:23.638Z</time>
      </trkpt>
      <trkpt lat="49.293449" lon="10.109563">
        <ele>448.376762</ele>
        <time>2026-04-26T17:36:25.069Z</time>
      </trkpt>
      <trkpt lat="49.293807" lon="10.109931">
        <ele>447.740852</ele>
        <time>2026-04-26T17:36:32.778Z</time>
      </trkpt>
      <trkpt lat="49.293937" lon="10.112301">
        <ele>445.649190</ele>
        <time>2026-04-26T17:37:01.530Z</time>
      </trkpt>
      <trkpt lat="49.293950" lon="10.112476">
        <ele>445.504984</ele>
        <time>2026-04-26T17:37:03.721Z</time>
      </trkpt>
      <trkpt lat="49.293950" lon="10.113151">
        <ele>444.952335</ele>
        <time>2026-04-26T17:37:12.142Z</time>
      </trkpt>
      <trkpt lat="49.293880" lon="10.114660">
        <ele>443.484193</ele>
        <time>2026-04-26T17:37:30.975Z</time>
      </trkpt>
      <trkpt lat="49.293857" lon="10.115126">
        <ele>442.991899</ele>
        <time>2026-04-26T17:37:36.778Z</time>
      </trkpt>
      <trkpt lat="49.293845" lon="10.115621">
        <ele>442.470098</ele>
        <time>2026-04-26T17:37:42.677Z</time>
      </trkpt>
      <trkpt lat="49.293870" lon="10.116196">
        <ele>441.863040</ele>
        <time>2026-04-26T17:37:49.230Z</time>
      </trkpt>
      <trkpt lat="49.293955" lon="10.117061">
        <ele>440.247518</ele>
        <time>2026-04-26T17:37:58.761Z</time>
      </trkpt>
      <trkpt lat="49.293949" lon="10.117231">
        <ele>439.881791</ele>
        <time>2026-04-26T17:38:00.572Z</time>
      </trkpt>
      <trkpt lat="49.293757" lon="10.118147">
        <ele>437.814911</ele>
        <time>2026-04-26T17:38:10.660Z</time>
      </trkpt>
      <trkpt lat="49.293555" lon="10.119421">
        <ele>434.933506</ele>
        <time>2026-04-26T17:38:24.260Z</time>
      </trkpt>
      <trkpt lat="49.293533" lon="10.119619">
        <ele>434.461257</ele>
        <time>2026-04-26T17:38:26.342Z</time>
      </trkpt>
      <trkpt lat="49.292973" lon="10.122207">
        <ele>428.197479</ele>
        <time>2026-04-26T17:38:54.696Z</time>
      </trkpt>
      <trkpt lat="49.292427" lon="10.124041">
        <ele>424.064512</ele>
        <time>2026-04-26T17:39:16.305Z</time>
      </trkpt>
      <trkpt lat="49.292399" lon="10.124312">
        <ele>423.504804</ele>
        <time>2026-04-26T17:39:19.273Z</time>
      </trkpt>
      <trkpt lat="49.292343" lon="10.124835">
        <ele>422.485800</ele>
        <time>2026-04-26T17:39:25.008Z</time>
      </trkpt>
      <trkpt lat="49.292364" lon="10.126981">
        <ele>418.359344</ele>
        <time>2026-04-26T17:39:48.085Z</time>
      </trkpt>
      <trkpt lat="49.292511" lon="10.128526">
        <ele>415.583345</ele>
        <time>2026-04-26T17:40:05.104Z</time>
      </trkpt>
      <trkpt lat="49.292602" lon="10.129288">
        <ele>414.210487</ele>
        <time>2026-04-26T17:40:13.637Z</time>
      </trkpt>
      <trkpt lat="49.292651" lon="10.129974">
        <ele>412.966923</ele>
        <time>2026-04-26T17:40:21.242Z</time>
      </trkpt>
      <trkpt lat="49.292651" lon="10.130575">
        <ele>411.842553</ele>
        <time>2026-04-26T17:40:27.837Z</time>
      </trkpt>
      <trkpt lat="49.292405" lon="10.132402">
        <ele>408.352453</ele>
        <time>2026-04-26T17:40:47.908Z</time>
      </trkpt>
      <trkpt lat="49.292133" lon="10.133965">
        <ele>405.087733</ele>
        <time>2026-04-26T17:41:05.196Z</time>
      </trkpt>
      <trkpt lat="49.291875" lon="10.135167">
        <ele>402.533795</ele>
        <time>2026-04-26T17:41:18.646Z</time>
      </trkpt>
      <trkpt lat="49.291654" lon="10.136795">
        <ele>399.551825</ele>
        <time>2026-04-26T17:41:36.477Z</time>
      </trkpt>
      <trkpt lat="49.291257" lon="10.141317">
        <ele>393.208017</ele>
        <time>2026-04-26T17:42:27.885Z</time>
      </trkpt>
      <trkpt lat="49.291230" lon="10.141633">
        <ele>393.013865</ele>
        <time>2026-04-26T17:42:32.014Z</time>
      </trkpt>
      <trkpt lat="49.291168" lon="10.142366">
        <ele>392.563582</ele>
        <time>2026-04-26T17:42:48.687Z</time>
      </trkpt>
      <trkpt lat="49.291084" lon="10.142731">
        <ele>392.327786</ele>
        <time>2026-04-26T17:42:57.752Z</time>
      </trkpt>
      <trkpt lat="49.290284" lon="10.144147">
        <ele>392.449889</ele>
        <time>2026-04-26T17:43:44.491Z</time>
      </trkpt>
      <trkpt lat="49.290197" lon="10.144466">
        <ele>392.571876</ele>
        <time>2026-04-26T17:43:53.376Z</time>
      </trkpt>
      <trkpt lat="49.290181" lon="10.144752">
        <ele>392.673148</ele>
        <time>2026-04-26T17:44:00.864Z</time>
      </trkpt>
      <trkpt lat="49.290203" lon="10.145020">
        <ele>392.768445</ele>
        <time>2026-04-26T17:44:07.981Z</time>
      </trkpt>
      <trkpt lat="49.290377" lon="10.145649">
        <ele>393.008606</ele>
        <time>2026-04-26T17:44:26.248Z</time>
      </trkpt>
      <trkpt lat="49.290502" lon="10.146628">
        <ele>393.354320</ele>
        <time>2026-04-26T17:44:52.869Z</time>
      </trkpt>
      <trkpt lat="49.290504" lon="10.146935">
        <ele>393.460716</ele>
        <time>2026-04-26T17:45:00.935Z</time>
      </trkpt>
      <trkpt lat="49.290452" lon="10.147599">
        <ele>393.692479</ele>
        <time>2026-04-26T17:45:18.273Z</time>
      </trkpt>
      <trkpt lat="49.290475" lon="10.151281">
        <ele>393.437120</ele>
        <time>2026-04-26T17:46:44.613Z</time>
      </trkpt>
      <trkpt lat="49.290513" lon="10.151650">
        <ele>393.490207</ele>
        <time>2026-04-26T17:46:52.978Z</time>
      </trkpt>
      <trkpt lat="49.290500" lon="10.151731">
        <ele>393.502061</ele>
        <time>2026-04-26T17:46:54.893Z</time>
      </trkpt>
      <trkpt lat="49.290410" lon="10.151795">
        <ele>393.523677</ele>
        <time>2026-04-26T17:46:58.343Z</time>
      </trkpt>
      <trkpt lat="49.290228" lon="10.151988">
        <ele>393.571892</ele>
        <time>2026-04-26T17:47:06.215Z</time>
      </trkpt>
      <trkpt lat="49.290265" lon="10.152069">
        <ele>393.585945</ele>
        <time>2026-04-26T17:47:07.617Z</time>
      </trkpt>
      <trkpt lat="49.290270" lon="10.152280">
        <ele>393.615950</ele>
        <time>2026-04-26T17:47:10.673Z</time>
      </trkpt>
      <trkpt lat="49.290263" lon="10.152313">
        <ele>393.620881</ele>
        <time>2026-04-26T17:47:11.192Z</time>
      </trkpt>
      <trkpt lat="49.289819" lon="10.154634">
        <ele>394.310920</ele>
        <time>2026-04-26T17:47:54.314Z</time>
      </trkpt>
      <trkpt lat="49.289813" lon="10.154801">
        <ele>394.381548</ele>
        <time>2026-04-26T17:47:57.490Z</time>
      </trkpt>
      <trkpt lat="49.289842" lon="10.155076">
        <ele>394.499185</ele>
        <time>2026-04-26T17:48:02.491Z</time>
      </trkpt>
      <trkpt lat="49.289972" lon="10.155652">
        <ele>394.756572</ele>
        <time>2026-04-26T17:48:12.577Z</time>
      </trkpt>
      <trkpt lat="49.290060" lon="10.155897">
        <ele>394.874682</ele>
        <time>2026-04-26T17:48:16.782Z</time>
      </trkpt>
      <trkpt lat="49.290166" lon="10.156046">
        <ele>394.937066</ele>
        <time>2026-04-26T17:48:20.005Z</time>
      </trkpt>
      <trkpt lat="49.290340" lon="10.156197">
        <ele>394.788578</ele>
        <time>2026-04-26T17:48:24.380Z</time>
      </trkpt>
      <trkpt lat="49.290977" lon="10.156615">
        <ele>394.273994</ele>
        <time>2026-04-26T17:48:38.228Z</time>
      </trkpt>
      <trkpt lat="49.291128" lon="10.156785">
        <ele>394.134866</ele>
        <time>2026-04-26T17:48:41.930Z</time>
      </trkpt>
      <trkpt lat="49.291390" lon="10.157207">
        <ele>393.852655</ele>
        <time>2026-04-26T17:48:49.648Z</time>
      </trkpt>
      <trkpt lat="49.291926" lon="10.158300">
        <ele>393.404391</ele>
        <time>2026-04-26T17:49:08.735Z</time>
      </trkpt>
      <trkpt lat="49.292599" lon="10.159605">
        <ele>393.002243</ele>
        <time>2026-04-26T17:49:32.688Z</time>
      </trkpt>
      <trkpt lat="49.292841" lon="10.160130">
        <ele>393.072919</ele>
        <time>2026-04-26T17:49:41.930Z</time>
      </trkpt>
      <trkpt lat="49.293114" lon="10.160891">
        <ele>393.318368</ele>
        <time>2026-04-26T17:49:55.694Z</time>
      </trkpt>
      <trkpt lat="49.293217" lon="10.161361">
        <ele>393.458489</ele>
        <time>2026-04-26T17:50:04.240Z</time>
      </trkpt>
      <trkpt lat="49.293447" lon="10.163061">
        <ele>393.463290</ele>
        <time>2026-04-26T17:50:34.402Z</time>
      </trkpt>
      <trkpt lat="49.293518" lon="10.163303">
        <ele>393.371683</ele>
        <time>2026-04-26T17:50:38.562Z</time>
      </trkpt>
      <trkpt lat="49.293610" lon="10.163513">
        <ele>393.284349</ele>
        <time>2026-04-26T17:50:42.299Z</time>
      </trkpt>
      <trkpt lat="49.293688" lon="10.163803">
        <ele>393.176056</ele>
        <time>2026-04-26T17:50:46.695Z</time>
      </trkpt>
      <trkpt lat="49.294068" lon="10.165626">
        <ele>392.877639</ele>
        <time>2026-04-26T17:51:10.033Z</time>
      </trkpt>
      <trkpt lat="49.294097" lon="10.165973">
        <ele>392.923221</ele>
        <time>2026-04-26T17:51:14.376Z</time>
      </trkpt>
      <trkpt lat="49.294090" lon="10.166238">
        <ele>392.957777</ele>
        <time>2026-04-26T17:51:17.981Z</time>
      </trkpt>
      <trkpt lat="49.294129" lon="10.166842">
        <ele>393.036859</ele>
        <time>2026-04-26T17:51:27.732Z</time>
      </trkpt>
      <trkpt lat="49.294189" lon="10.167103">
        <ele>393.072917</ele>
        <time>2026-04-26T17:51:32.990Z</time>
      </trkpt>
      <trkpt lat="49.293649" lon="10.167390">
        <ele>394.128134</ele>
        <time>2026-04-26T17:51:52.406Z</time>
      </trkpt>
      <trkpt lat="49.292967" lon="10.167831">
        <ele>397.093679</ele>
        <time>2026-04-26T17:52:22.679Z</time>
      </trkpt>
      <trkpt lat="49.292512" lon="10.168161">
        <ele>399.110339</ele>
        <time>2026-04-26T17:52:43.658Z</time>
      </trkpt>
      <trkpt lat="49.291653" lon="10.168901">
        <ele>402.285033</ele>
        <time>2026-04-26T17:53:19.970Z</time>
      </trkpt>
      <trkpt lat="49.290979" lon="10.169582">
        <ele>404.597945</ele>
        <time>2026-04-26T17:53:46.179Z</time>
      </trkpt>
      <trkpt lat="49.289830" lon="10.170880">
        <ele>408.068706</ele>
        <time>2026-04-26T17:54:28.329Z</time>
      </trkpt>
      <trkpt lat="49.289915" lon="10.170990">
        <ele>408.325598</ele>
        <time>2026-04-26T17:54:31.721Z</time>
      </trkpt>
      <trkpt lat="49.287032" lon="10.174486">
        <ele>419.063583</ele>
        <time>2026-04-26T17:57:34.389Z</time>
      </trkpt>
      <trkpt lat="49.286645" lon="10.175011">
        <ele>420.526162</ele>
        <time>2026-04-26T17:57:58.819Z</time>
      </trkpt>
      <trkpt lat="49.286528" lon="10.175228">
        <ele>420.753385</ele>
        <time>2026-04-26T17:58:07.129Z</time>
      </trkpt>
      <trkpt lat="49.286315" lon="10.175881">
        <ele>421.342635</ele>
        <time>2026-04-26T17:58:28.259Z</time>
      </trkpt>
      <trkpt lat="49.286285" lon="10.176216">
        <ele>421.615544</ele>
        <time>2026-04-26T17:58:37.795Z</time>
      </trkpt>
      <trkpt lat="49.286263" lon="10.176235">
        <ele>421.646788</ele>
        <time>2026-04-26T17:58:38.906Z</time>
      </trkpt>
      <trkpt lat="49.286088" lon="10.176160">
        <ele>421.871622</ele>
        <time>2026-04-26T17:58:46.626Z</time>
      </trkpt>
      <trkpt lat="49.286074" lon="10.176405">
        <ele>422.070116</ele>
        <time>2026-04-26T17:58:51.125Z</time>
      </trkpt>
      <trkpt lat="49.285957" lon="10.176759">
        <ele>422.390410</ele>
        <time>2026-04-26T17:58:57.965Z</time>
      </trkpt>
      <trkpt lat="49.285509" lon="10.177568">
        <ele>422.188614</ele>
        <time>2026-04-26T17:59:13.320Z</time>
      </trkpt>
      <trkpt lat="49.284978" lon="10.178760">
        <ele>420.987802</ele>
        <time>2026-04-26T17:59:31.679Z</time>
      </trkpt>
      <trkpt lat="49.284837" lon="10.179214">
        <ele>420.569490</ele>
        <time>2026-04-26T17:59:37.629Z</time>
      </trkpt>
      <trkpt lat="49.284798" lon="10.179437">
        <ele>420.299758</ele>
        <time>2026-04-26T17:59:40.318Z</time>
      </trkpt>
      <trkpt lat="49.284763" lon="10.179991">
        <ele>419.176215</ele>
        <time>2026-04-26T17:59:46.717Z</time>
      </trkpt>
      <trkpt lat="49.284787" lon="10.180273">
        <ele>418.602142</ele>
        <time>2026-04-26T17:59:49.943Z</time>
      </trkpt>
      <trkpt lat="49.284839" lon="10.180519">
        <ele>418.080141</ele>
        <time>2026-04-26T17:59:52.867Z</time>
      </trkpt>
      <trkpt lat="49.285547" lon="10.182472">
        <ele>413.649041</ele>
        <time>2026-04-26T18:00:17.392Z</time>
      </trkpt>
      <trkpt lat="49.285692" lon="10.183041">
        <ele>412.491235</ele>
        <time>2026-04-26T18:00:24.165Z</time>
      </trkpt>
      <trkpt lat="49.285710" lon="10.183480">
        <ele>411.657555</ele>
        <time>2026-04-26T18:00:29.145Z</time>
      </trkpt>
      <trkpt lat="49.285754" lon="10.184012">
        <ele>410.641182</ele>
        <time>2026-04-26T18:00:35.367Z</time>
      </trkpt>
      <trkpt lat="49.285884" lon="10.184578">
        <ele>409.536930</ele>
        <time>2026-04-26T18:00:42.480Z</time>
      </trkpt>
      <trkpt lat="49.286774" lon="10.186967">
        <ele>405.553033</ele>
        <time>2026-04-26T18:01:15.405Z</time>
      </trkpt>
      <trkpt lat="49.286933" lon="10.187430">
        <ele>404.487610</ele>
        <time>2026-04-26T18:01:21.372Z</time>
      </trkpt>
      <trkpt lat="49.287215" lon="10.188471">
        <ele>402.192436</ele>
        <time>2026-04-26T18:01:33.884Z</time>
      </trkpt>
      <trkpt lat="49.287453" lon="10.189171">
        <ele>400.585118</ele>
        <time>2026-04-26T18:01:42.527Z</time>
      </trkpt>
      <trkpt lat="49.287659" lon="10.189683">
        <ele>399.421299</ele>
        <time>2026-04-26T18:01:49.146Z</time>
      </trkpt>
      <trkpt lat="49.288224" lon="10.191255">
        <ele>396.080592</ele>
        <time>2026-04-26T18:02:09.358Z</time>
      </trkpt>
      <trkpt lat="49.288333" lon="10.191454">
        <ele>395.596925</ele>
        <time>2026-04-26T18:02:12.381Z</time>
      </trkpt>
      <trkpt lat="49.288977" lon="10.192412">
        <ele>393.988965</ele>
        <time>2026-04-26T18:02:29.018Z</time>
      </trkpt>
      <trkpt lat="49.289307" lon="10.192902">
        <ele>393.334480</ele>
        <time>2026-04-26T18:02:38.059Z</time>
      </trkpt>
      <trkpt lat="49.289554" lon="10.193409">
        <ele>392.746450</ele>
        <time>2026-04-26T18:02:46.430Z</time>
      </trkpt>
      <trkpt lat="49.289592" lon="10.193717">
        <ele>392.455175</ele>
        <time>2026-04-26T18:02:50.625Z</time>
      </trkpt>
      <trkpt lat="49.289683" lon="10.195135">
        <ele>391.737090</ele>
        <time>2026-04-26T18:03:09.694Z</time>
      </trkpt>
      <trkpt lat="49.289808" lon="10.196432">
        <ele>391.111673</ele>
        <time>2026-04-26T18:03:27.727Z</time>
      </trkpt>
      <trkpt lat="49.289748" lon="10.196494">
        <ele>391.059894</ele>
        <time>2026-04-26T18:03:29.745Z</time>
      </trkpt>
      <trkpt lat="49.289664" lon="10.196502">
        <ele>391.032635</ele>
        <time>2026-04-26T18:03:32.050Z</time>
      </trkpt>
      <trkpt lat="49.288666" lon="10.196458">
        <ele>390.709250</ele>
        <time>2026-04-26T18:04:00.032Z</time>
      </trkpt>
      <trkpt lat="49.288398" lon="10.196435">
        <ele>390.622310</ele>
        <time>2026-04-26T18:04:07.585Z</time>
      </trkpt>
      <trkpt lat="49.288233" lon="10.196380">
        <ele>390.567618</ele>
        <time>2026-04-26T18:04:12.347Z</time>
      </trkpt>
      <trkpt lat="49.287920" lon="10.196138">
        <ele>390.482930</ele>
        <time>2026-04-26T18:04:22.309Z</time>
      </trkpt>
      <trkpt lat="49.287556" lon="10.195815">
        <ele>390.509485</ele>
        <time>2026-04-26T18:04:34.425Z</time>
      </trkpt>
      <trkpt lat="49.287920" lon="10.196138">
        <ele>390.536041</ele>
        <time>2026-04-26T18:04:46.892Z</time>
      </trkpt>
      <trkpt lat="49.288233" lon="10.196380">
        <ele>390.558175</ele>
        <time>2026-04-26T18:04:57.467Z</time>
      </trkpt>
      <trkpt lat="49.288398" lon="10.196435">
        <ele>390.568837</ele>
        <time>2026-04-26T18:05:02.613Z</time>
      </trkpt>
      <trkpt lat="49.288666" lon="10.196458">
        <ele>390.585785</ele>
        <time>2026-04-26T18:05:10.787Z</time>
      </trkpt>
      <trkpt lat="49.289664" lon="10.196502">
        <ele>390.636529</ele>
        <time>2026-04-26T18:05:40.147Z</time>
      </trkpt>
      <trkpt lat="49.289748" lon="10.196494">
        <ele>390.640697</ele>
        <time>2026-04-26T18:05:42.583Z</time>
      </trkpt>
      <trkpt lat="49.289808" lon="10.196432">
        <ele>390.644281</ele>
        <time>2026-04-26T18:05:44.637Z</time>
      </trkpt>
      <trkpt lat="49.289960" lon="10.197807">
        <ele>390.764476</ele>
        <time>2026-04-26T18:06:04.633Z</time>
      </trkpt>
      <trkpt lat="49.289979" lon="10.197976">
        <ele>390.819233</ele>
        <time>2026-04-26T18:06:07.335Z</time>
      </trkpt>
      <trkpt lat="49.290088" lon="10.198837">
        <ele>391.099280</ele>
        <time>2026-04-26T18:06:21.974Z</time>
      </trkpt>
      <trkpt lat="49.290200" lon="10.199420">
        <ele>391.293337</ele>
        <time>2026-04-26T18:06:31.973Z</time>
      </trkpt>
      <trkpt lat="49.290305" lon="10.200472">
        <ele>391.591669</ele>
        <time>2026-04-26T18:06:49.102Z</time>
      </trkpt>
      <trkpt lat="49.290322" lon="10.200604">
        <ele>391.609794</ele>
        <time>2026-04-26T18:06:51.215Z</time>
      </trkpt>
      <trkpt lat="49.290456" lon="10.201437">
        <ele>391.725371</ele>
        <time>2026-04-26T18:07:04.428Z</time>
      </trkpt>
      <trkpt lat="49.290445" lon="10.201671">
        <ele>391.756975</ele>
        <time>2026-04-26T18:07:07.932Z</time>
      </trkpt>
      <trkpt lat="49.290390" lon="10.201900">
        <ele>391.789849</ele>
        <time>2026-04-26T18:07:11.550Z</time>
      </trkpt>
      <trkpt lat="49.290289" lon="10.202153">
        <ele>391.829808</ele>
        <time>2026-04-26T18:07:15.846Z</time>
      </trkpt>
      <trkpt lat="49.290412" lon="10.202511">
        <ele>391.884316</ele>
        <time>2026-04-26T18:07:21.667Z</time>
      </trkpt>
      <trkpt lat="49.290467" lon="10.202673">
        <ele>391.908919</ele>
        <time>2026-04-26T18:07:24.300Z</time>
      </trkpt>
      <trkpt lat="49.290567" lon="10.203120">
        <ele>391.941846</ele>
        <time>2026-04-26T18:07:31.113Z</time>
      </trkpt>
      <trkpt lat="49.290629" lon="10.205174">
        <ele>392.004358</ele>
        <time>2026-04-26T18:08:01.069Z</time>
      </trkpt>
      <trkpt lat="49.290658" lon="10.206407">
        <ele>392.305481</ele>
        <time>2026-04-26T18:08:20.042Z</time>
      </trkpt>
      <trkpt lat="49.290730" lon="10.206805">
        <ele>392.449707</ele>
        <time>2026-04-26T18:08:26.707Z</time>
      </trkpt>
      <trkpt lat="49.290787" lon="10.207000">
        <ele>392.524326</ele>
        <time>2026-04-26T18:08:30.195Z</time>
      </trkpt>
      <trkpt lat="49.291610" lon="10.209736">
        <ele>393.947939</ele>
        <time>2026-04-26T18:09:22.859Z</time>
      </trkpt>
      <trkpt lat="49.291968" lon="10.210748">
        <ele>394.622974</ele>
        <time>2026-04-26T18:09:42.678Z</time>
      </trkpt>
      <trkpt lat="49.292377" lon="10.211965">
        <ele>395.702691</ele>
        <time>2026-04-26T18:10:05.218Z</time>
      </trkpt>
      <trkpt lat="49.292780" lon="10.213131">
        <ele>396.785601</ele>
        <time>2026-04-26T18:10:29.873Z</time>
      </trkpt>
      <trkpt lat="49.293152" lon="10.213733">
        <ele>398.492389</ele>
        <time>2026-04-26T18:10:47.589Z</time>
      </trkpt>
      <trkpt lat="49.293734" lon="10.214506">
        <ele>400.922214</ele>
        <time>2026-04-26T18:11:15.835Z</time>
      </trkpt>
      <trkpt lat="49.294497" lon="10.215958">
        <ele>405.093508</ele>
        <time>2026-04-26T18:12:04.592Z</time>
      </trkpt>
      <trkpt lat="49.294831" lon="10.216435">
        <ele>406.736927</ele>
        <time>2026-04-26T18:12:21.578Z</time>
      </trkpt>
      <trkpt lat="49.295370" lon="10.217076">
        <ele>409.093059</ele>
        <time>2026-04-26T18:12:46.204Z</time>
      </trkpt>
      <trkpt lat="49.296021" lon="10.217553">
        <ele>410.889367</ele>
        <time>2026-04-26T18:13:10.163Z</time>
      </trkpt>
      <trkpt lat="49.296552" lon="10.217855">
        <ele>412.299383</ele>
        <time>2026-04-26T18:13:28.459Z</time>
      </trkpt>
      <trkpt lat="49.296806" lon="10.217982">
        <ele>412.964526</ele>
        <time>2026-04-26T18:13:37.125Z</time>
      </trkpt>
      <trkpt lat="49.297331" lon="10.218411">
        <ele>413.858728</ele>
        <time>2026-04-26T18:13:56.443Z</time>
      </trkpt>
      <trkpt lat="49.297562" lon="10.218731">
        <ele>414.219637</ele>
        <time>2026-04-26T18:14:06.056Z</time>
      </trkpt>
      <trkpt lat="49.297777" lon="10.219166">
        <ele>414.632303</ele>
        <time>2026-04-26T18:14:16.472Z</time>
      </trkpt>
      <trkpt lat="49.297878" lon="10.219442">
        <ele>414.871580</ele>
        <time>2026-04-26T18:14:22.129Z</time>
      </trkpt>
      <trkpt lat="49.297942" lon="10.219967">
        <ele>415.275378</ele>
        <time>2026-04-26T18:14:30.952Z</time>
      </trkpt>
      <trkpt lat="49.297968" lon="10.220262">
        <ele>415.300046</ele>
        <time>2026-04-26T18:14:35.443Z</time>
      </trkpt>
      <trkpt lat="49.298119" lon="10.221811">
        <ele>412.989808</ele>
        <time>2026-04-26T18:14:54.402Z</time>
      </trkpt>
      <trkpt lat="49.298217" lon="10.222591">
        <ele>411.818114</ele>
        <time>2026-04-26T18:15:03.106Z</time>
      </trkpt>
      <trkpt lat="49.298315" lon="10.222940">
        <ele>411.199003</ele>
        <time>2026-04-26T18:15:07.260Z</time>
      </trkpt>
      <trkpt lat="49.298474" lon="10.223128">
        <ele>410.494943</ele>
        <time>2026-04-26T18:15:10.582Z</time>
      </trkpt>
      <trkpt lat="49.298635" lon="10.223185">
        <ele>409.915517</ele>
        <time>2026-04-26T18:15:13.312Z</time>
      </trkpt>
      <trkpt lat="49.298715" lon="10.223053">
        <ele>409.503432</ele>
        <time>2026-04-26T18:15:15.164Z</time>
      </trkpt>
      <trkpt lat="49.298805" lon="10.223014">
        <ele>409.175472</ele>
        <time>2026-04-26T18:15:16.622Z</time>
      </trkpt>
      <trkpt lat="49.299378" lon="10.222787">
        <ele>407.100178</ele>
        <time>2026-04-26T18:15:25.937Z</time>
      </trkpt>
      <trkpt lat="49.299840" lon="10.222686">
        <ele>405.463714</ele>
        <time>2026-04-26T18:15:33.535Z</time>
      </trkpt>
      <trkpt lat="49.300100" lon="10.222529">
        <ele>404.880148</ele>
        <time>2026-04-26T18:15:38.178Z</time>
      </trkpt>
      <trkpt lat="49.300164" lon="10.222465">
        <ele>404.797510</ele>
        <time>2026-04-26T18:15:39.474Z</time>
      </trkpt>
      <trkpt lat="49.300253" lon="10.222378">
        <ele>404.683357</ele>
        <time>2026-04-26T18:15:41.289Z</time>
      </trkpt>
      <trkpt lat="49.300343" lon="10.222271">
        <ele>404.560189</ele>
        <time>2026-04-26T18:15:43.278Z</time>
      </trkpt>
      <trkpt lat="49.300401" lon="10.222195">
        <ele>404.477676</ele>
        <time>2026-04-26T18:15:44.627Z</time>
      </trkpt>
      <trkpt lat="49.300584" lon="10.221875">
        <ele>404.177490</ele>
        <time>2026-04-26T18:15:49.702Z</time>
      </trkpt>
      <trkpt lat="49.300715" lon="10.221557">
        <ele>403.912205</ele>
        <time>2026-04-26T18:15:54.546Z</time>
      </trkpt>
      <trkpt lat="49.301128" lon="10.220509">
        <ele>403.117355</ele>
        <time>2026-04-26T18:16:12.817Z</time>
      </trkpt>
      <trkpt lat="49.301394" lon="10.219721">
        <ele>403.175200</ele>
        <time>2026-04-26T18:16:26.770Z</time>
      </trkpt>
      <trkpt lat="49.301669" lon="10.218924">
        <ele>403.233981</ele>
        <time>2026-04-26T18:16:40.552Z</time>
      </trkpt>
      <trkpt lat="49.302299" lon="10.217240">
        <ele>402.559708</ele>
        <time>2026-04-26T18:17:07.240Z</time>
      </trkpt>
      <trkpt lat="49.302497" lon="10.216887">
        <ele>402.238752</ele>
        <time>2026-04-26T18:17:13.028Z</time>
      </trkpt>
      <trkpt lat="49.302673" lon="10.216665">
        <ele>401.997858</ele>
        <time>2026-04-26T18:17:17.262Z</time>
      </trkpt>
      <trkpt lat="49.303346" lon="10.216067">
        <ele>401.131909</ele>
        <time>2026-04-26T18:17:31.121Z</time>
      </trkpt>
      <trkpt lat="49.303526" lon="10.215849">
        <ele>400.839981</ele>
        <time>2026-04-26T18:17:35.164Z</time>
      </trkpt>
      <trkpt lat="49.303747" lon="10.215517">
        <ele>400.446226</ele>
        <time>2026-04-26T18:17:40.713Z</time>
      </trkpt>
      <trkpt lat="49.303937" lon="10.215131">
        <ele>400.044845</ele>
        <time>2026-04-26T18:17:46.606Z</time>
      </trkpt>
      <trkpt lat="49.304134" lon="10.214678">
        <ele>399.592947</ele>
        <time>2026-04-26T18:17:53.602Z</time>
      </trkpt>
      <trkpt lat="49.304350" lon="10.214087">
        <ele>399.045692</ele>
        <time>2026-04-26T18:18:02.495Z</time>
      </trkpt>
      <trkpt lat="49.304556" lon="10.213333">
        <ele>398.512720</ele>
        <time>2026-04-26T18:18:13.418Z</time>
      </trkpt>
      <trkpt lat="49.304621" lon="10.213119">
        <ele>398.358810</ele>
        <time>2026-04-26T18:18:16.505Z</time>
      </trkpt>
      <trkpt lat="49.305080" lon="10.212181">
        <ele>397.594237</ele>
        <time>2026-04-26T18:18:30.918Z</time>
      </trkpt>
      <trkpt lat="49.305224" lon="10.211834">
        <ele>397.326084</ele>
        <time>2026-04-26T18:18:35.735Z</time>
      </trkpt>
      <trkpt lat="49.305383" lon="10.211279">
        <ele>397.141348</ele>
        <time>2026-04-26T18:18:43.072Z</time>
      </trkpt>
      <trkpt lat="49.305512" lon="10.210433">
        <ele>396.895863</ele>
        <time>2026-04-26T18:18:54.304Z</time>
      </trkpt>
      <trkpt lat="49.306010" lon="10.208234">
        <ele>396.204407</ele>
        <time>2026-04-26T18:19:29.875Z</time>
      </trkpt>
      <trkpt lat="49.306053" lon="10.207826">
        <ele>396.073803</ele>
        <time>2026-04-26T18:19:35.732Z</time>
      </trkpt>
      <trkpt lat="49.306063" lon="10.207477">
        <ele>395.963411</ele>
        <time>2026-04-26T18:19:40.414Z</time>
      </trkpt>
      <trkpt lat="49.306031" lon="10.206972">
        <ele>395.803076</ele>
        <time>2026-04-26T18:19:46.826Z</time>
      </trkpt>
      <trkpt lat="49.306015" lon="10.205965">
        <ele>395.084954</ele>
        <time>2026-04-26T18:19:58.721Z</time>
      </trkpt>
      <trkpt lat="49.306065" lon="10.205264">
        <ele>394.326790</ele>
        <time>2026-04-26T18:20:06.738Z</time>
      </trkpt>
      <trkpt lat="49.306201" lon="10.204285">
        <ele>393.250614</ele>
        <time>2026-04-26T18:20:18.332Z</time>
      </trkpt>
      <trkpt lat="49.306490" lon="10.201821">
        <ele>391.418247</ele>
        <time>2026-04-26T18:20:49.495Z</time>
      </trkpt>
      <trkpt lat="49.306660" lon="10.200017">
        <ele>390.436474</ele>
        <time>2026-04-26T18:21:13.523Z</time>
      </trkpt>
      <trkpt lat="49.306754" lon="10.199513">
        <ele>390.194206</ele>
        <time>2026-04-26T18:21:20.343Z</time>
      </trkpt>
      <trkpt lat="49.306916" lon="10.198969">
        <ele>389.917814</ele>
        <time>2026-04-26T18:21:28.051Z</time>
      </trkpt>
      <trkpt lat="49.307237" lon="10.197893">
        <ele>389.555768</ele>
        <time>2026-04-26T18:21:43.299Z</time>
      </trkpt>
      <trkpt lat="49.308029" lon="10.195523">
        <ele>389.988037</ele>
        <time>2026-04-26T18:22:20.858Z</time>
      </trkpt>
      <trkpt lat="49.308104" lon="10.195282">
        <ele>390.396181</ele>
        <time>2026-04-26T18:22:25.711Z</time>
      </trkpt>
      <trkpt lat="49.308220" lon="10.194883">
        <ele>391.063877</ele>
        <time>2026-04-26T18:22:34.038Z</time>
      </trkpt>
      <trkpt lat="49.308388" lon="10.195042">
        <ele>391.526636</ele>
        <time>2026-04-26T18:22:40.287Z</time>
      </trkpt>
      <trkpt lat="49.308428" lon="10.195236">
        <ele>391.837610</ele>
        <time>2026-04-26T18:22:44.627Z</time>
      </trkpt>
      <trkpt lat="49.308404" lon="10.195760">
        <ele>392.640442</ele>
        <time>2026-04-26T18:22:56.571Z</time>
      </trkpt>
      <trkpt lat="49.308424" lon="10.196250">
        <ele>393.390803</ele>
        <time>2026-04-26T18:23:08.724Z</time>
      </trkpt>
      <trkpt lat="49.308829" lon="10.200024">
        <ele>408.424848</ele>
        <time>2026-04-26T18:24:58.656Z</time>
      </trkpt>
      <trkpt lat="49.308931" lon="10.200517">
        <ele>411.201249</ele>
        <time>2026-04-26T18:25:19.497Z</time>
      </trkpt>
      <trkpt lat="49.309084" lon="10.201009">
        <ele>414.127256</ele>
        <time>2026-04-26T18:25:42.335Z</time>
      </trkpt>
      <trkpt lat="49.309477" lon="10.201682">
        <ele>418.815668</ele>
        <time>2026-04-26T18:26:19.534Z</time>
      </trkpt>
      <trkpt lat="49.309573" lon="10.201941">
        <ele>420.209736</ele>
        <time>2026-04-26T18:26:31.279Z</time>
      </trkpt>
      <trkpt lat="49.309578" lon="10.202188">
        <ele>421.366049</ele>
        <time>2026-04-26T18:26:40.587Z</time>
      </trkpt>
      <trkpt lat="49.309491" lon="10.203121">
        <ele>425.776149</ele>
        <time>2026-04-26T18:27:12.498Z</time>
      </trkpt>
      <trkpt lat="49.309495" lon="10.203758">
        <ele>428.756926</ele>
        <time>2026-04-26T18:27:30.482Z</time>
      </trkpt>
      <trkpt lat="49.309690" lon="10.205030">
        <ele>433.615187</ele>
        <time>2026-04-26T18:28:05.327Z</time>
      </trkpt>
      <trkpt lat="49.309709" lon="10.205421">
        <ele>434.906712</ele>
        <time>2026-04-26T18:28:15.997Z</time>
      </trkpt>
      <trkpt lat="49.309706" lon="10.206221">
        <ele>437.541951</ele>
        <time>2026-04-26T18:28:38.427Z</time>
      </trkpt>
      <trkpt lat="49.309705" lon="10.206530">
        <ele>438.559808</ele>
        <time>2026-04-26T18:28:47.127Z</time>
      </trkpt>
      <trkpt lat="49.309686" lon="10.207567">
        <ele>442.378001</ele>
        <time>2026-04-26T18:29:16.522Z</time>
      </trkpt>
      <trkpt lat="49.309682" lon="10.207806">
        <ele>443.305175</ele>
        <time>2026-04-26T18:29:23.466Z</time>
      </trkpt>
      <trkpt lat="49.309646" lon="10.209354">
        <ele>449.312313</ele>
        <time>2026-04-26T18:30:11.944Z</time>
      </trkpt>
      <trkpt lat="49.309627" lon="10.210210">
        <ele>452.402041</ele>
        <time>2026-04-26T18:30:38.059Z</time>
      </trkpt>
      <trkpt lat="49.309639" lon="10.210969">
        <ele>455.038769</ele>
        <time>2026-04-26T18:30:59.553Z</time>
      </trkpt>
      <trkpt lat="49.309732" lon="10.211671">
        <ele>457.526586</ele>
        <time>2026-04-26T18:31:19.105Z</time>
      </trkpt>
      <trkpt lat="49.309921" lon="10.212492">
        <ele>460.618647</ele>
        <time>2026-04-26T18:31:42.288Z</time>
      </trkpt>
      <trkpt lat="49.310188" lon="10.213480">
        <ele>464.790191</ele>
        <time>2026-04-26T18:32:12.661Z</time>
      </trkpt>
      <trkpt lat="49.310338" lon="10.214223">
        <ele>467.823944</ele>
        <time>2026-04-26T18:32:37.297Z</time>
      </trkpt>
      <trkpt lat="49.310379" lon="10.214566">
        <ele>469.184077</ele>
        <time>2026-04-26T18:32:48.782Z</time>
      </trkpt>
      <trkpt lat="49.310416" lon="10.215192">
        <ele>471.568008</ele>
        <time>2026-04-26T18:33:09.594Z</time>
      </trkpt>
      <trkpt lat="49.310335" lon="10.216490">
        <ele>476.262241</ele>
        <time>2026-04-26T18:33:49.940Z</time>
      </trkpt>
      <trkpt lat="49.310025" lon="10.217704">
        <ele>480.901778</ele>
        <time>2026-04-26T18:34:24.391Z</time>
      </trkpt>
      <trkpt lat="49.309950" lon="10.218217">
        <ele>482.411378</ele>
        <time>2026-04-26T18:34:36.974Z</time>
      </trkpt>
      <trkpt lat="49.310033" lon="10.219412">
        <ele>485.862097</ele>
        <time>2026-04-26T18:35:05.273Z</time>
      </trkpt>
      <trkpt lat="49.310262" lon="10.221029">
        <ele>491.871379</ele>
        <time>2026-04-26T18:35:52.332Z</time>
      </trkpt>
      <trkpt lat="49.310241" lon="10.222931">
        <ele>500.762818</ele>
        <time>2026-04-26T18:37:01.811Z</time>
      </trkpt>
      <trkpt lat="49.310239" lon="10.223062">
        <ele>501.375295</ele>
        <time>2026-04-26T18:37:06.378Z</time>
      </trkpt>
      <trkpt lat="49.310234" lon="10.223377">
        <ele>502.127712</ele>
        <time>2026-04-26T18:37:16.586Z</time>
      </trkpt>
      <trkpt lat="49.310232" lon="10.223522">
        <ele>502.442101</ele>
        <time>2026-04-26T18:37:21.140Z</time>
      </trkpt>
      <trkpt lat="49.310247" lon="10.224428">
        <ele>504.406683</ele>
        <time>2026-04-26T18:37:45.815Z</time>
      </trkpt>
      <trkpt lat="49.310682" lon="10.228310">
        <ele>508.436158</ele>
        <time>2026-04-26T18:38:50.600Z</time>
      </trkpt>
      <trkpt lat="49.310820" lon="10.229206">
        <ele>508.415342</ele>
        <time>2026-04-26T18:39:03.534Z</time>
      </trkpt>
      <trkpt lat="49.311205" lon="10.231115">
        <ele>508.088193</ele>
        <time>2026-04-26T18:39:31.106Z</time>
      </trkpt>
      <trkpt lat="49.311478" lon="10.232310">
        <ele>507.006829</ele>
        <time>2026-04-26T18:39:47.432Z</time>
      </trkpt>
      <trkpt lat="49.311557" lon="10.232818">
        <ele>506.536543</ele>
        <time>2026-04-26T18:39:53.698Z</time>
      </trkpt>
      <trkpt lat="49.311729" lon="10.235536">
        <ele>503.623444</ele>
        <time>2026-04-26T18:40:24.574Z</time>
      </trkpt>
      <trkpt lat="49.311709" lon="10.237652">
        <ele>501.988827</ele>
        <time>2026-04-26T18:40:50.519Z</time>
      </trkpt>
      <trkpt lat="49.312362" lon="10.237310">
        <ele>501.609326</ele>
        <time>2026-04-26T18:41:06.032Z</time>
      </trkpt>
      <trkpt lat="49.312455" lon="10.237234">
        <ele>501.551371</ele>
        <time>2026-04-26T18:41:08.522Z</time>
      </trkpt>
      <trkpt lat="49.314195" lon="10.236118">
        <ele>500.035188</ele>
        <time>2026-04-26T18:41:47.569Z</time>
      </trkpt>
      <trkpt lat="49.315032" lon="10.235643">
        <ele>498.807852</ele>
        <time>2026-04-26T18:42:03.361Z</time>
      </trkpt>
      <trkpt lat="49.315500" lon="10.235493">
        <ele>498.059557</ele>
        <time>2026-04-26T18:42:11.853Z</time>
      </trkpt>
      <trkpt lat="49.316169" lon="10.235391">
        <ele>497.023232</ele>
        <time>2026-04-26T18:42:25.400Z</time>
      </trkpt>
      <trkpt lat="49.316711" lon="10.235468">
        <ele>497.949009</ele>
        <time>2026-04-26T18:42:39.852Z</time>
      </trkpt>
      <trkpt lat="49.318050" lon="10.236040">
        <ele>500.407329</ele>
        <time>2026-04-26T18:43:25.751Z</time>
      </trkpt>
      <trkpt lat="49.318375" lon="10.236116">
        <ele>501.187140</ele>
        <time>2026-04-26T18:43:36.863Z</time>
      </trkpt>
      <trkpt lat="49.318697" lon="10.236083">
        <ele>501.952632</ele>
        <time>2026-04-26T18:43:47.476Z</time>
      </trkpt>
      <trkpt lat="49.319047" lon="10.236013">
        <ele>502.789864</ele>
        <time>2026-04-26T18:43:58.786Z</time>
      </trkpt>
      <trkpt lat="49.319286" lon="10.235924">
        <ele>503.373239</ele>
        <time>2026-04-26T18:44:06.571Z</time>
      </trkpt>
      <trkpt lat="49.319597" lon="10.235743">
        <ele>504.162238</ele>
        <time>2026-04-26T18:44:17.348Z</time>
      </trkpt>
      <trkpt lat="49.319930" lon="10.235446">
        <ele>505.258045</ele>
        <time>2026-04-26T18:44:29.990Z</time>
      </trkpt>
      <trkpt lat="49.320150" lon="10.235213">
        <ele>506.049215</ele>
        <time>2026-04-26T18:44:39.062Z</time>
      </trkpt>
      <trkpt lat="49.320344" lon="10.234955">
        <ele>506.809050</ele>
        <time>2026-04-26T18:44:48.137Z</time>
      </trkpt>
      <trkpt lat="49.320506" lon="10.234672">
        <ele>507.535618</ele>
        <time>2026-04-26T18:44:57.095Z</time>
      </trkpt>
      <trkpt lat="49.321063" lon="10.233282">
        <ele>509.577131</ele>
        <time>2026-04-26T18:45:36.205Z</time>
      </trkpt>
      <trkpt lat="49.321207" lon="10.233025">
        <ele>509.521707</ele>
        <time>2026-04-26T18:45:43.141Z</time>
      </trkpt>
      <trkpt lat="49.321540" lon="10.232678">
        <ele>509.420709</ele>
        <time>2026-04-26T18:45:53.667Z</time>
      </trkpt>
      <trkpt lat="49.321802" lon="10.232493">
        <ele>509.348346</ele>
        <time>2026-04-26T18:45:59.513Z</time>
      </trkpt>
      <trkpt lat="49.322223" lon="10.232075">
        <ele>509.222529</ele>
        <time>2026-04-26T18:46:08.183Z</time>
      </trkpt>
      <trkpt lat="49.322364" lon="10.231740">
        <ele>507.937389</ele>
        <time>2026-04-26T18:46:12.374Z</time>
      </trkpt>
      <trkpt lat="49.322446" lon="10.231427">
        <ele>506.658244</ele>
        <time>2026-04-26T18:46:15.808Z</time>
      </trkpt>
      <trkpt lat="49.322545" lon="10.230547">
        <ele>503.272043</ele>
        <time>2026-04-26T18:46:24.686Z</time>
      </trkpt>
      <trkpt lat="49.323381" lon="10.227443">
        <ele>489.338718</ele>
        <time>2026-04-26T18:46:57.818Z</time>
      </trkpt>
      <trkpt lat="49.323676" lon="10.226786">
        <ele>485.717937</ele>
        <time>2026-04-26T18:47:05.684Z</time>
      </trkpt>
      <trkpt lat="49.324014" lon="10.226479">
        <ele>482.643551</ele>
        <time>2026-04-26T18:47:11.563Z</time>
      </trkpt>
      <trkpt lat="49.324383" lon="10.226278">
        <ele>479.578735</ele>
        <time>2026-04-26T18:47:17.363Z</time>
      </trkpt>
      <trkpt lat="49.324737" lon="10.226235">
        <ele>476.799280</ele>
        <time>2026-04-26T18:47:22.526Z</time>
      </trkpt>
      <trkpt lat="49.325028" lon="10.226266">
        <ele>474.516118</ele>
        <time>2026-04-26T18:47:26.775Z</time>
      </trkpt>
      <trkpt lat="49.325361" lon="10.226379">
        <ele>471.942804</ele>
        <time>2026-04-26T18:47:31.733Z</time>
      </trkpt>
      <trkpt lat="49.325641" lon="10.226526">
        <ele>469.893576</ele>
        <time>2026-04-26T18:47:36.030Z</time>
      </trkpt>
      <trkpt lat="49.325940" lon="10.226658">
        <ele>467.739146</ele>
        <time>2026-04-26T18:47:40.602Z</time>
      </trkpt>
      <trkpt lat="49.326230" lon="10.226681">
        <ele>465.728356</ele>
        <time>2026-04-26T18:47:44.917Z</time>
      </trkpt>
      <trkpt lat="49.326629" lon="10.226540">
        <ele>462.893142</ele>
        <time>2026-04-26T18:47:51.106Z</time>
      </trkpt>
      <trkpt lat="49.327599" lon="10.225927">
        <ele>458.459315</ele>
        <time>2026-04-26T18:48:07.974Z</time>
      </trkpt>
      <trkpt lat="49.328068" lon="10.225647">
        <ele>457.120428</ele>
        <time>2026-04-26T18:48:17.130Z</time>
      </trkpt>
      <trkpt lat="49.328426" lon="10.225484">
        <ele>456.126930</ele>
        <time>2026-04-26T18:48:24.650Z</time>
      </trkpt>
      <trkpt lat="49.328785" lon="10.225429">
        <ele>455.332999</ele>
        <time>2026-04-26T18:48:32.385Z</time>
      </trkpt>
      <trkpt lat="49.329230" lon="10.225473">
        <ele>454.867821</ele>
        <time>2026-04-26T18:48:41.956Z</time>
      </trkpt>
      <trkpt lat="49.329544" lon="10.225563">
        <ele>454.534598</ele>
        <time>2026-04-26T18:48:48.641Z</time>
      </trkpt>
      <trkpt lat="49.330141" lon="10.225843">
        <ele>453.883378</ele>
        <time>2026-04-26T18:49:01.229Z</time>
      </trkpt>
      <trkpt lat="49.330487" lon="10.225869">
        <ele>453.513769</ele>
        <time>2026-04-26T18:49:07.689Z</time>
      </trkpt>
      <trkpt lat="49.330989" lon="10.225823">
        <ele>452.885579</ele>
        <time>2026-04-26T18:49:17.050Z</time>
      </trkpt>
      <trkpt lat="49.331505" lon="10.225768">
        <ele>452.239464</ele>
        <time>2026-04-26T18:49:27.120Z</time>
      </trkpt>
      <trkpt lat="49.332294" lon="10.225606">
        <ele>451.282098</ele>
        <time>2026-04-26T18:49:43.389Z</time>
      </trkpt>
      <trkpt lat="49.332393" lon="10.225587">
        <ele>451.221650</ele>
        <time>2026-04-26T18:49:45.454Z</time>
      </trkpt>
      <trkpt lat="49.333077" lon="10.225402">
        <ele>450.800857</ele>
        <time>2026-04-26T18:50:00.453Z</time>
      </trkpt>
      <trkpt lat="49.333231" lon="10.225361">
        <ele>450.706161</ele>
        <time>2026-04-26T18:50:03.822Z</time>
      </trkpt>
      <trkpt lat="49.333707" lon="10.225018">
        <ele>450.387560</ele>
        <time>2026-04-26T18:50:14.852Z</time>
      </trkpt>
      <trkpt lat="49.333907" lon="10.224737">
        <ele>450.223503</ele>
        <time>2026-04-26T18:50:20.527Z</time>
      </trkpt>
      <trkpt lat="49.334045" lon="10.224458">
        <ele>450.093288</ele>
        <time>2026-04-26T18:50:25.329Z</time>
      </trkpt>
      <trkpt lat="49.334213" lon="10.223833">
        <ele>449.841947</ele>
        <time>2026-04-26T18:50:34.713Z</time>
      </trkpt>
      <trkpt lat="49.334390" lon="10.222616">
        <ele>449.378386</ele>
        <time>2026-04-26T18:50:52.447Z</time>
      </trkpt>
      <trkpt lat="49.334409" lon="10.222493">
        <ele>449.331393</ele>
        <time>2026-04-26T18:50:54.235Z</time>
      </trkpt>
      <trkpt lat="49.334524" lon="10.221877">
        <ele>448.706720</ele>
        <time>2026-04-26T18:51:03.100Z</time>
      </trkpt>
      <trkpt lat="49.334737" lon="10.221164">
        <ele>447.371077</ele>
        <time>2026-04-26T18:51:13.153Z</time>
      </trkpt>
      <trkpt lat="49.334864" lon="10.220506">
        <ele>446.202485</ele>
        <time>2026-04-26T18:51:21.018Z</time>
      </trkpt>
      <trkpt lat="49.334971" lon="10.219725">
        <ele>444.843485</ele>
        <time>2026-04-26T18:51:29.582Z</time>
      </trkpt>
      <trkpt lat="49.335068" lon="10.219307">
        <ele>443.752151</ele>
        <time>2026-04-26T18:51:34.210Z</time>
      </trkpt>
      <trkpt lat="49.335093" lon="10.219187">
        <ele>443.363218</ele>
        <time>2026-04-26T18:51:35.500Z</time>
      </trkpt>
      <trkpt lat="49.335211" lon="10.218764">
        <ele>441.942716</ele>
        <time>2026-04-26T18:51:40.265Z</time>
      </trkpt>
      <trkpt lat="49.335582" lon="10.217407">
        <ele>437.399667</ele>
        <time>2026-04-26T18:51:55.576Z</time>
      </trkpt>
      <trkpt lat="49.335638" lon="10.217213">
        <ele>436.744629</ele>
        <time>2026-04-26T18:51:57.798Z</time>
      </trkpt>
      <trkpt lat="49.335924" lon="10.216209">
        <ele>433.167234</ele>
        <time>2026-04-26T18:52:09.127Z</time>
      </trkpt>
      <trkpt lat="49.336013" lon="10.215744">
        <ele>431.559805</ele>
        <time>2026-04-26T18:52:14.073Z</time>
      </trkpt>
      <trkpt lat="49.336055" lon="10.215305">
        <ele>430.088156</ele>
        <time>2026-04-26T18:52:18.531Z</time>
      </trkpt>
      <trkpt lat="49.336008" lon="10.214370">
        <ele>426.977811</ele>
        <time>2026-04-26T18:52:28.103Z</time>
      </trkpt>
      <trkpt lat="49.336025" lon="10.213731">
        <ele>425.663913</ele>
        <time>2026-04-26T18:52:34.971Z</time>
      </trkpt>
      <trkpt lat="49.336099" lon="10.213374">
        <ele>424.931046</ele>
        <time>2026-04-26T18:52:39.058Z</time>
      </trkpt>
      <trkpt lat="49.336521" lon="10.212522">
        <ele>422.837484</ele>
        <time>2026-04-26T18:52:51.022Z</time>
      </trkpt>
      <trkpt lat="49.337003" lon="10.211560">
        <ele>420.557360</ele>
        <time>2026-04-26T18:53:06.791Z</time>
      </trkpt>
      <trkpt lat="49.337111" lon="10.211346">
        <ele>420.079507</ele>
        <time>2026-04-26T18:53:10.191Z</time>
      </trkpt>
      <trkpt lat="49.337290" lon="10.211158">
        <ele>419.491851</ele>
        <time>2026-04-26T18:53:14.278Z</time>
      </trkpt>
      <trkpt lat="49.337393" lon="10.211092">
        <ele>419.189448</ele>
        <time>2026-04-26T18:53:16.333Z</time>
      </trkpt>
      <trkpt lat="49.337696" lon="10.210920">
        <ele>418.314179</ele>
        <time>2026-04-26T18:53:22.215Z</time>
      </trkpt>
      <trkpt lat="49.337973" lon="10.210881">
        <ele>417.560558</ele>
        <time>2026-04-26T18:53:27.126Z</time>
      </trkpt>
      <trkpt lat="49.338392" lon="10.210897">
        <ele>416.162211</ele>
        <time>2026-04-26T18:53:34.102Z</time>
      </trkpt>
      <trkpt lat="49.338687" lon="10.210836">
        <ele>413.685207</ele>
        <time>2026-04-26T18:53:38.639Z</time>
      </trkpt>
      <trkpt lat="49.338960" lon="10.210713">
        <ele>411.317586</ele>
        <time>2026-04-26T18:53:42.845Z</time>
      </trkpt>
      <trkpt lat="49.339210" lon="10.210562">
        <ele>409.081918</ele>
        <time>2026-04-26T18:53:46.719Z</time>
      </trkpt>
      <trkpt lat="49.339526" lon="10.210290">
        <ele>406.067008</ele>
        <time>2026-04-26T18:53:51.872Z</time>
      </trkpt>
      <trkpt lat="49.339944" lon="10.209785">
        <ele>401.640242</ele>
        <time>2026-04-26T18:53:59.373Z</time>
      </trkpt>
      <trkpt lat="49.340340" lon="10.209335">
        <ele>398.468041</ele>
        <time>2026-04-26T18:54:06.490Z</time>
      </trkpt>
      <trkpt lat="49.340409" lon="10.209256">
        <ele>397.916062</ele>
        <time>2026-04-26T18:54:07.748Z</time>
      </trkpt>
      <trkpt lat="49.340654" lon="10.209010">
        <ele>396.038780</ele>
        <time>2026-04-26T18:54:11.934Z</time>
      </trkpt>
      <trkpt lat="49.341314" lon="10.208525">
        <ele>391.346742</ele>
        <time>2026-04-26T18:54:22.916Z</time>
      </trkpt>
      <trkpt lat="49.342119" lon="10.208142">
        <ele>389.031561</ele>
        <time>2026-04-26T18:54:37.180Z</time>
      </trkpt>
      <trkpt lat="49.342966" lon="10.207720">
        <ele>387.614066</ele>
        <time>2026-04-26T18:54:54.369Z</time>
      </trkpt>
      <trkpt lat="49.343329" lon="10.207490">
        <ele>387.038585</ele>
        <time>2026-04-26T18:55:02.960Z</time>
      </trkpt>
      <trkpt lat="49.343698" lon="10.207106">
        <ele>386.505422</ele>
        <time>2026-04-26T18:55:13.016Z</time>
      </trkpt>
      <trkpt lat="49.344474" lon="10.206112">
        <ele>385.296674</ele>
        <time>2026-04-26T18:55:32.821Z</time>
      </trkpt>
      <trkpt lat="49.345588" lon="10.205028">
        <ele>380.586154</ele>
        <time>2026-04-26T18:55:53.569Z</time>
      </trkpt>
      <trkpt lat="49.346093" lon="10.204441">
        <ele>378.028042</ele>
        <time>2026-04-26T18:56:03.184Z</time>
      </trkpt>
      <trkpt lat="49.346667" lon="10.203557">
        <ele>375.031483</ele>
        <time>2026-04-26T18:56:15.685Z</time>
      </trkpt>
      <trkpt lat="49.346905" lon="10.203188">
        <ele>373.794828</ele>
        <time>2026-04-26T18:56:21.033Z</time>
      </trkpt>
      <trkpt lat="49.346941" lon="10.203026">
        <ele>373.387180</ele>
        <time>2026-04-26T18:56:22.821Z</time>
      </trkpt>
      <trkpt lat="49.347541" lon="10.203150">
        <ele>371.194648</ele>
        <time>2026-04-26T18:56:32.834Z</time>
      </trkpt>
      <trkpt lat="49.348241" lon="10.203221">
        <ele>370.771649</ele>
        <time>2026-04-26T18:56:45.594Z</time>
      </trkpt>
      <trkpt lat="49.348276" lon="10.203221">
        <ele>370.750545</ele>
        <time>2026-04-26T18:56:46.295Z</time>
      </trkpt>
      <trkpt lat="49.348517" lon="10.203222">
        <ele>370.605229</ele>
        <time>2026-04-26T18:56:51.176Z</time>
      </trkpt>
      <trkpt lat="49.348620" lon="10.203216">
        <ele>370.543078</ele>
        <time>2026-04-26T18:56:53.415Z</time>
      </trkpt>
      <trkpt lat="49.349309" lon="10.203134">
        <ele>370.126386</ele>
        <time>2026-04-26T18:57:10.231Z</time>
      </trkpt>
      <trkpt lat="49.349788" lon="10.203034">
        <ele>370.837613</ele>
        <time>2026-04-26T18:57:23.437Z</time>
      </trkpt>
      <trkpt lat="49.350273" lon="10.203006">
        <ele>371.595587</ele>
        <time>2026-04-26T18:57:36.973Z</time>
      </trkpt>
      <trkpt lat="49.350260" lon="10.202878">
        <ele>371.727382</ele>
        <time>2026-04-26T18:57:39.366Z</time>
      </trkpt>
      <trkpt lat="49.350273" lon="10.203006">
        <ele>371.859178</ele>
        <time>2026-04-26T18:57:41.907Z</time>
      </trkpt>
      <trkpt lat="49.350324" lon="10.203007">
        <ele>371.938832</ele>
        <time>2026-04-26T18:57:43.405Z</time>
      </trkpt>
      <trkpt lat="49.350443" lon="10.203008">
        <ele>372.124681</ele>
        <time>2026-04-26T18:57:46.987Z</time>
      </trkpt>
      <trkpt lat="49.350883" lon="10.202893">
        <ele>372.821730</ele>
        <time>2026-04-26T18:58:00.575Z</time>
      </trkpt>
      <trkpt lat="49.351132" lon="10.202782">
        <ele>373.393164</ele>
        <time>2026-04-26T18:58:08.425Z</time>
      </trkpt>
      <trkpt lat="49.351487" lon="10.202639">
        <ele>374.280827</ele>
        <time>2026-04-26T18:58:19.886Z</time>
      </trkpt>
      <trkpt lat="49.351601" lon="10.202602">
        <ele>374.562640</ele>
        <time>2026-04-26T18:58:23.570Z</time>
      </trkpt>
      <trkpt lat="49.351670" lon="10.202579">
        <ele>374.733411</ele>
        <time>2026-04-26T18:58:25.843Z</time>
      </trkpt>
      <trkpt lat="49.351985" lon="10.202477">
        <ele>375.512027</ele>
        <time>2026-04-26T18:58:36.310Z</time>
      </trkpt>
      <trkpt lat="49.352144" lon="10.202395">
        <ele>375.917702</ele>
        <time>2026-04-26T18:58:41.856Z</time>
      </trkpt>
      <trkpt lat="49.352493" lon="10.202176">
        <ele>376.829581</ele>
        <time>2026-04-26T18:58:54.254Z</time>
      </trkpt>
      <trkpt lat="49.352739" lon="10.202028">
        <ele>377.465312</ele>
        <time>2026-04-26T18:59:02.764Z</time>
      </trkpt>
      <trkpt lat="49.353256" lon="10.201761">
        <ele>378.762293</ele>
        <time>2026-04-26T18:59:20.357Z</time>
      </trkpt>
      <trkpt lat="49.353603" lon="10.201586">
        <ele>379.630745</ele>
        <time>2026-04-26T18:59:32.109Z</time>
      </trkpt>
      <trkpt lat="49.353645" lon="10.201665">
        <ele>379.788683</ele>
        <time>2026-04-26T18:59:34.244Z</time>
      </trkpt>
      <trkpt lat="49.353795" lon="10.202069">
        <ele>380.508916</ele>
        <time>2026-04-26T18:59:43.860Z</time>
      </trkpt>
      <trkpt lat="49.353964" lon="10.202401">
        <ele>381.161512</ele>
        <time>2026-04-26T18:59:52.458Z</time>
      </trkpt>
      <trkpt lat="49.354136" lon="10.202619">
        <ele>381.653077</ele>
        <time>2026-04-26T18:59:59.405Z</time>
      </trkpt>
      <trkpt lat="49.354699" lon="10.203445">
        <ele>382.998456</ele>
        <time>2026-04-26T19:00:22.655Z</time>
      </trkpt>
      <trkpt lat="49.355179" lon="10.204305">
        <ele>384.272913</ele>
        <time>2026-04-26T19:00:43.280Z</time>
      </trkpt>
      <trkpt lat="49.355343" lon="10.204616">
        <ele>384.702944</ele>
        <time>2026-04-26T19:00:51.208Z</time>
      </trkpt>
      <trkpt lat="49.355579" lon="10.205064">
        <ele>385.151752</ele>
        <time>2026-04-26T19:01:01.743Z</time>
      </trkpt>
      <trkpt lat="49.355853" lon="10.205554">
        <ele>385.654789</ele>
        <time>2026-04-26T19:01:12.371Z</time>
      </trkpt>
      <trkpt lat="49.356018" lon="10.205848">
        <ele>385.957079</ele>
        <time>2026-04-26T19:01:18.645Z</time>
      </trkpt>
      <trkpt lat="49.356483" lon="10.206654">
        <ele>386.795756</ele>
        <time>2026-04-26T19:01:37.554Z</time>
      </trkpt>
      <trkpt lat="49.356702" lon="10.207080">
        <ele>387.422588</ele>
        <time>2026-04-26T19:01:47.473Z</time>
      </trkpt>
      <trkpt lat="49.357271" lon="10.208052">
        <ele>388.947124</ele>
        <time>2026-04-26T19:02:12.393Z</time>
      </trkpt>
      <trkpt lat="49.357543" lon="10.208456">
        <ele>389.624931</ele>
        <time>2026-04-26T19:02:24.763Z</time>
      </trkpt>
      <trkpt lat="49.357655" lon="10.208623">
        <ele>389.904553</ele>
        <time>2026-04-26T19:02:29.738Z</time>
      </trkpt>
      <trkpt lat="49.357867" lon="10.208857">
        <ele>390.179343</ele>
        <time>2026-04-26T19:02:37.666Z</time>
      </trkpt>
      <trkpt lat="49.358040" lon="10.209043">
        <ele>390.344625</ele>
        <time>2026-04-26T19:02:43.780Z</time>
      </trkpt>
      <trkpt lat="49.358439" lon="10.209386">
        <ele>390.702491</ele>
        <time>2026-04-26T19:02:55.976Z</time>
      </trkpt>
      <trkpt lat="49.358685" lon="10.209530">
        <ele>390.908524</ele>
        <time>2026-04-26T19:03:02.522Z</time>
      </trkpt>
      <trkpt lat="49.358937" lon="10.209626">
        <ele>391.111716</ele>
        <time>2026-04-26T19:03:08.717Z</time>
      </trkpt>
      <trkpt lat="49.359898" lon="10.209806">
        <ele>390.879487</ele>
        <time>2026-04-26T19:03:28.680Z</time>
      </trkpt>
      <trkpt lat="49.360179" lon="10.209846">
        <ele>390.594380</ele>
        <time>2026-04-26T19:03:33.937Z</time>
      </trkpt>
      <trkpt lat="49.360504" lon="10.209837">
        <ele>390.265984</ele>
        <time>2026-04-26T19:03:39.861Z</time>
      </trkpt>
      <trkpt lat="49.361450" lon="10.209659">
        <ele>389.872121</ele>
        <time>2026-04-26T19:03:57.501Z</time>
      </trkpt>
      <trkpt lat="49.361997" lon="10.209635">
        <ele>390.311537</ele>
        <time>2026-04-26T19:04:09.845Z</time>
      </trkpt>
      <trkpt lat="49.362371" lon="10.209726">
        <ele>390.615604</ele>
        <time>2026-04-26T19:04:20.397Z</time>
      </trkpt>
      <trkpt lat="49.362633" lon="10.209864">
        <ele>390.838023</ele>
        <time>2026-04-26T19:04:29.037Z</time>
      </trkpt>
      <trkpt lat="49.363325" lon="10.210468">
        <ele>391.726846</ele>
        <time>2026-04-26T19:04:55.906Z</time>
      </trkpt>
      <trkpt lat="49.363916" lon="10.211037">
        <ele>392.625775</ele>
        <time>2026-04-26T19:05:15.640Z</time>
      </trkpt>
      <trkpt lat="49.363938" lon="10.210995">
        <ele>392.671010</ele>
        <time>2026-04-26T19:05:16.490Z</time>
      </trkpt>
      <trkpt lat="49.364025" lon="10.210982">
        <ele>392.783654</ele>
        <time>2026-04-26T19:05:18.627Z</time>
      </trkpt>
      <trkpt lat="49.364064" lon="10.210938">
        <ele>392.846019</ele>
        <time>2026-04-26T19:05:19.756Z</time>
      </trkpt>
      <trkpt lat="49.364275" lon="10.210541">
        <ele>393.276068</ele>
        <time>2026-04-26T19:05:27.025Z</time>
      </trkpt>
      <trkpt lat="49.365439" lon="10.208004">
        <ele>392.565442</ele>
        <time>2026-04-26T19:06:07.554Z</time>
      </trkpt>
      <trkpt lat="49.365717" lon="10.207399">
        <ele>392.670797</ele>
        <time>2026-04-26T19:06:19.668Z</time>
      </trkpt>
      <trkpt lat="49.366571" lon="10.205557">
        <ele>392.005310</ele>
        <time>2026-04-26T19:06:55.646Z</time>
      </trkpt>
      <trkpt lat="49.367025" lon="10.204718">
        <ele>389.791573</ele>
        <time>2026-04-26T19:07:07.634Z</time>
      </trkpt>
      <trkpt lat="49.367321" lon="10.204240">
        <ele>388.452983</ele>
        <time>2026-04-26T19:07:14.046Z</time>
      </trkpt>
      <trkpt lat="49.367361" lon="10.204096">
        <ele>388.135282</ele>
        <time>2026-04-26T19:07:15.567Z</time>
      </trkpt>
      <trkpt lat="49.367413" lon="10.204019">
        <ele>387.910168</ele>
        <time>2026-04-26T19:07:16.632Z</time>
      </trkpt>
      <trkpt lat="49.367724" lon="10.203546">
        <ele>386.816791</ele>
        <time>2026-04-26T19:07:23.147Z</time>
      </trkpt>
      <trkpt lat="49.367853" lon="10.203284">
        <ele>386.382550</ele>
        <time>2026-04-26T19:07:26.364Z</time>
      </trkpt>
      <trkpt lat="49.367899" lon="10.203176">
        <ele>386.211939</ele>
        <time>2026-04-26T19:07:28.687Z</time>
      </trkpt>
      <trkpt lat="49.367932" lon="10.203107">
        <ele>386.098759</ele>
        <time>2026-04-26T19:07:29.540Z</time>
      </trkpt>
      <trkpt lat="49.368030" lon="10.203040">
        <ele>385.880974</ele>
        <time>2026-04-26T19:07:31.190Z</time>
      </trkpt>
      <trkpt lat="49.368304" lon="10.202379">
        <ele>384.845076</ele>
        <time>2026-04-26T19:07:39.671Z</time>
      </trkpt>
      <trkpt lat="49.368273" lon="10.202128">
        <ele>384.507328</ele>
        <time>2026-04-26T19:07:43.607Z</time>
      </trkpt>
      <trkpt lat="49.368296" lon="10.202017">
        <ele>384.353331</ele>
        <time>2026-04-26T19:07:45.680Z</time>
      </trkpt>
      <trkpt lat="49.368319" lon="10.201962">
        <ele>384.266917</ele>
        <time>2026-04-26T19:07:46.922Z</time>
      </trkpt>
      <trkpt lat="49.368397" lon="10.201852">
        <ele>384.051919</ele>
        <time>2026-04-26T19:07:50.118Z</time>
      </trkpt>
      <trkpt lat="49.368521" lon="10.201802">
        <ele>383.791643</ele>
        <time>2026-04-26T19:07:54.301Z</time>
      </trkpt>
      <trkpt lat="49.368561" lon="10.201808">
        <ele>383.710050</ele>
        <time>2026-04-26T19:07:55.679Z</time>
      </trkpt>
      <trkpt lat="49.368634" lon="10.201845">
        <ele>383.930823</ele>
        <time>2026-04-26T19:07:58.312Z</time>
      </trkpt>
      <trkpt lat="49.368662" lon="10.201547">
        <ele>384.812638</ele>
        <time>2026-04-26T19:08:05.297Z</time>
      </trkpt>
      <trkpt lat="49.368733" lon="10.201256">
        <ele>385.722770</ele>
        <time>2026-04-26T19:08:12.916Z</time>
      </trkpt>
      <trkpt lat="49.368819" lon="10.200970">
        <ele>386.645391</ele>
        <time>2026-04-26T19:08:20.963Z</time>
      </trkpt>
      <trkpt lat="49.369019" lon="10.200507">
        <ele>388.272632</ele>
        <time>2026-04-26T19:08:36.195Z</time>
      </trkpt>
      <trkpt lat="49.369188" lon="10.200065">
        <ele>389.773795</ele>
        <time>2026-04-26T19:08:51.121Z</time>
      </trkpt>
      <trkpt lat="49.369269" lon="10.199484">
        <ele>391.513956</ele>
        <time>2026-04-26T19:09:08.528Z</time>
      </trkpt>
      <trkpt lat="49.369301" lon="10.199234">
        <ele>392.282618</ele>
        <time>2026-04-26T19:09:15.942Z</time>
      </trkpt>
      <trkpt lat="49.369358" lon="10.198866">
        <ele>393.440299</ele>
        <time>2026-04-26T19:09:27.005Z</time>
      </trkpt>
      <trkpt lat="49.369417" lon="10.198569">
        <ele>394.390617</ele>
        <time>2026-04-26T19:09:36.003Z</time>
      </trkpt>
      <trkpt lat="49.369667" lon="10.197543">
        <ele>397.743291</ele>
        <time>2026-04-26T19:10:06.317Z</time>
      </trkpt>
      <trkpt lat="49.369848" lon="10.196821">
        <ele>400.111034</ele>
        <time>2026-04-26T19:10:25.425Z</time>
      </trkpt>
      <trkpt lat="49.370084" lon="10.195897">
        <ele>401.893125</ele>
        <time>2026-04-26T19:10:46.751Z</time>
      </trkpt>
      <trkpt lat="49.370142" lon="10.195665">
        <ele>402.328274</ele>
        <time>2026-04-26T19:10:51.633Z</time>
      </trkpt>
      <trkpt lat="49.370227" lon="10.195340">
        <ele>402.941544</ele>
        <time>2026-04-26T19:10:58.500Z</time>
      </trkpt>
      <trkpt lat="49.370263" lon="10.195192">
        <ele>403.218186</ele>
        <time>2026-04-26T19:11:01.676Z</time>
      </trkpt>
      <trkpt lat="49.370493" lon="10.194305">
        <ele>404.889954</ele>
        <time>2026-04-26T19:11:21.924Z</time>
      </trkpt>
      <trkpt lat="49.370535" lon="10.194142">
        <ele>405.229865</ele>
        <time>2026-04-26T19:11:25.608Z</time>
      </trkpt>
      <trkpt lat="49.370644" lon="10.193718">
        <ele>406.208150</ele>
        <time>2026-04-26T19:11:35.509Z</time>
      </trkpt>
      <trkpt lat="49.370678" lon="10.193555">
        <ele>406.575471</ele>
        <time>2026-04-26T19:11:39.350Z</time>
      </trkpt>
      <trkpt lat="49.370748" lon="10.193198">
        <ele>407.375602</ele>
        <time>2026-04-26T19:11:47.897Z</time>
      </trkpt>
      <trkpt lat="49.370867" lon="10.192451">
        <ele>409.025997</ele>
        <time>2026-04-26T19:12:06.303Z</time>
      </trkpt>
      <trkpt lat="49.371017" lon="10.191440">
        <ele>411.237732</ele>
        <time>2026-04-26T19:12:31.111Z</time>
      </trkpt>
      <trkpt lat="49.371040" lon="10.191250">
        <ele>411.631855</ele>
        <time>2026-04-26T19:12:35.578Z</time>
      </trkpt>
      <trkpt lat="49.371096" lon="10.190900">
        <ele>412.366873</ele>
        <time>2026-04-26T19:12:44.052Z</time>
      </trkpt>
      <trkpt lat="49.371200" lon="10.190570">
        <ele>413.114549</ele>
        <time>2026-04-26T19:12:52.710Z</time>
      </trkpt>
      <trkpt lat="49.371460" lon="10.190019">
        <ele>414.502275</ele>
        <time>2026-04-26T19:13:08.219Z</time>
      </trkpt>
      <trkpt lat="49.371706" lon="10.189647">
        <ele>415.583546</ele>
        <time>2026-04-26T19:13:19.984Z</time>
      </trkpt>
      <trkpt lat="49.372210" lon="10.189030">
        <ele>417.095361</ele>
        <time>2026-04-26T19:13:41.476Z</time>
      </trkpt>
      <trkpt lat="49.372502" lon="10.188717">
        <ele>417.639794</ele>
        <time>2026-04-26T19:13:52.008Z</time>
      </trkpt>
      <trkpt lat="49.372749" lon="10.188460">
        <ele>418.095945</ele>
        <time>2026-04-26T19:14:00.169Z</time>
      </trkpt>
      <trkpt lat="49.372774" lon="10.188436">
        <ele>418.141022</ele>
        <time>2026-04-26T19:14:00.960Z</time>
      </trkpt>
      <trkpt lat="49.372898" lon="10.188320">
        <ele>418.363009</ele>
        <time>2026-04-26T19:14:04.859Z</time>
      </trkpt>
      <trkpt lat="49.372955" lon="10.188266">
        <ele>418.465405</ele>
        <time>2026-04-26T19:14:06.669Z</time>
      </trkpt>
      <trkpt lat="49.373106" lon="10.188112">
        <ele>418.742539</ele>
        <time>2026-04-26T19:14:11.503Z</time>
      </trkpt>
      <trkpt lat="49.373199" lon="10.188014">
        <ele>418.914980</ele>
        <time>2026-04-26T19:14:14.486Z</time>
      </trkpt>
      <trkpt lat="49.373295" lon="10.187912">
        <ele>419.093457</ele>
        <time>2026-04-26T19:14:17.503Z</time>
      </trkpt>
      <trkpt lat="49.373515" lon="10.187703">
        <ele>419.420738</ele>
        <time>2026-04-26T19:14:24.041Z</time>
      </trkpt>
      <trkpt lat="49.373572" lon="10.187652">
        <ele>419.467425</ele>
        <time>2026-04-26T19:14:25.654Z</time>
      </trkpt>
      <trkpt lat="49.374055" lon="10.187148">
        <ele>419.880692</ele>
        <time>2026-04-26T19:14:39.462Z</time>
      </trkpt>
      <trkpt lat="49.374256" lon="10.186918">
        <ele>420.058087</ele>
        <time>2026-04-26T19:14:45.860Z</time>
      </trkpt>
      <trkpt lat="49.374277" lon="10.186960">
        <ele>420.082489</ele>
        <time>2026-04-26T19:14:46.948Z</time>
      </trkpt>
      <trkpt lat="49.374326" lon="10.187062">
        <ele>420.140900</ele>
        <time>2026-04-26T19:14:49.648Z</time>
      </trkpt>
      <trkpt lat="49.374370" lon="10.187070">
        <ele>420.172257</ele>
        <time>2026-04-26T19:14:52.767Z</time>
      </trkpt>
      <trkpt lat="49.374387" lon="10.187073">
        <ele>420.184368</ele>
        <time>2026-04-26T19:14:53.908Z</time>
      </trkpt>
      <trkpt lat="49.374409" lon="10.187300">
        <ele>420.290124</ele>
        <time>2026-04-26T19:14:57.620Z</time>
      </trkpt>
      <trkpt lat="49.374521" lon="10.187525">
        <ele>420.420634</ele>
        <time>2026-04-26T19:15:02.066Z</time>
      </trkpt>
      <trkpt lat="49.374955" lon="10.188059">
        <ele>420.962972</ele>
        <time>2026-04-26T19:15:16.500Z</time>
      </trkpt>
      <trkpt lat="49.375117" lon="10.188351">
        <ele>421.286413</ele>
        <time>2026-04-26T19:15:23.110Z</time>
      </trkpt>
      <trkpt lat="49.375236" lon="10.188512">
        <ele>421.491767</ele>
        <time>2026-04-26T19:15:27.343Z</time>
      </trkpt>
      <trkpt lat="49.375344" lon="10.188609">
        <ele>421.653773</ele>
        <time>2026-04-26T19:15:30.646Z</time>
      </trkpt>
      <trkpt lat="49.375446" lon="10.188631">
        <ele>421.787148</ele>
        <time>2026-04-26T19:15:33.425Z</time>
      </trkpt>
      <trkpt lat="49.375589" lon="10.188559">
        <ele>421.982015</ele>
        <time>2026-04-26T19:15:37.358Z</time>
      </trkpt>
      <trkpt lat="49.375746" lon="10.188555">
        <ele>422.185341</ele>
        <time>2026-04-26T19:15:41.593Z</time>
      </trkpt>
      <trkpt lat="49.375799" lon="10.188567">
        <ele>422.254713</ele>
        <time>2026-04-26T19:15:42.996Z</time>
      </trkpt>
      <trkpt lat="49.375872" lon="10.188582">
        <ele>422.350082</ele>
        <time>2026-04-26T19:15:45.096Z</time>
      </trkpt>
      <trkpt lat="49.375856" lon="10.188722">
        <ele>422.469921</ele>
        <time>2026-04-26T19:15:47.628Z</time>
      </trkpt>
      <trkpt lat="49.375898" lon="10.188820">
        <ele>422.568837</ele>
        <time>2026-04-26T19:15:49.871Z</time>
      </trkpt>
      <trkpt lat="49.375995" lon="10.188998">
        <ele>422.764536</ele>
        <time>2026-04-26T19:15:54.398Z</time>
      </trkpt>
      <trkpt lat="49.376325" lon="10.189424">
        <ele>423.612334</ele>
        <time>2026-04-26T19:16:07.871Z</time>
      </trkpt>
      <trkpt lat="49.376783" lon="10.190024">
        <ele>425.020962</ele>
        <time>2026-04-26T19:16:27.105Z</time>
      </trkpt>
      <trkpt lat="49.376859" lon="10.190128">
        <ele>425.259149</ele>
        <time>2026-04-26T19:16:30.436Z</time>
      </trkpt>
      <trkpt lat="49.376935" lon="10.190232">
        <ele>425.497336</ele>
        <time>2026-04-26T19:16:33.850Z</time>
      </trkpt>
      <trkpt lat="49.376977" lon="10.190249">
        <ele>425.598972</ele>
        <time>2026-04-26T19:16:35.559Z</time>
      </trkpt>
      <trkpt lat="49.377033" lon="10.190204">
        <ele>425.746864</ele>
        <time>2026-04-26T19:16:38.120Z</time>
      </trkpt>
      <trkpt lat="49.377141" lon="10.190047">
        <ele>426.094833</ele>
        <time>2026-04-26T19:16:44.134Z</time>
      </trkpt>
      <trkpt lat="49.377688" lon="10.189175">
        <ele>428.031130</ele>
        <time>2026-04-26T19:17:15.150Z</time>
      </trkpt>
      <trkpt lat="49.377911" lon="10.188820">
        <ele>428.872335</ele>
        <time>2026-04-26T19:17:28.619Z</time>
      </trkpt>
      <trkpt lat="49.377964" lon="10.188736">
        <ele>429.071806</ele>
        <time>2026-04-26T19:17:31.731Z</time>
      </trkpt>
      <trkpt lat="49.378110" lon="10.188510">
        <ele>429.614722</ele>
        <time>2026-04-26T19:17:40.087Z</time>
      </trkpt>
      <trkpt lat="49.378273" lon="10.188253">
        <ele>430.226550</ele>
        <time>2026-04-26T19:17:49.302Z</time>
      </trkpt>
      <trkpt lat="49.378393" lon="10.188070">
        <ele>430.669460</ele>
        <time>2026-04-26T19:17:55.893Z</time>
      </trkpt>
      <trkpt lat="49.378593" lon="10.187783">
        <ele>431.386346</ele>
        <time>2026-04-26T19:18:06.441Z</time>
      </trkpt>
      <trkpt lat="49.378674" lon="10.187687">
        <ele>431.654317</ele>
        <time>2026-04-26T19:18:10.366Z</time>
      </trkpt>
      <trkpt lat="49.378936" lon="10.187402">
        <ele>431.883787</ele>
        <time>2026-04-26T19:18:22.683Z</time>
      </trkpt>
      <trkpt lat="49.379016" lon="10.187320">
        <ele>431.883787</ele>
        <time>2026-04-26T19:18:26.476Z</time>
      </trkpt>
      <trkpt lat="49.379111" lon="10.187206">
        <ele>431.883787</ele>
        <time>2026-04-26T19:18:31.326Z</time>
      </trkpt>
      <trkpt lat="49.379117" lon="10.187116">
        <ele>431.883787</ele>
        <time>2026-04-26T19:18:33.726Z</time>
      </trkpt>
      <trkpt lat="49.379191" lon="10.187061">
        <ele>431.883787</ele>
        <time>2026-04-26T19:18:36.493Z</time>
      </trkpt>
      <trkpt lat="49.379264" lon="10.187003">
        <ele>431.883787</ele>
        <time>2026-04-26T19:18:39.284Z</time>
      </trkpt>
      <trkpt lat="49.379299" lon="10.187050">
        <ele>431.883787</ele>
        <time>2026-04-26T19:18:41.177Z</time>
      </trkpt>
      <trkpt lat="49.379356" lon="10.187062">
        <ele>431.883787</ele>
        <time>2026-04-26T19:18:43.488Z</time>
      </trkpt>
      <trkpt lat="49.379408" lon="10.187022">
        <ele>431.883787</ele>
        <time>2026-04-26T19:18:45.871Z</time>
      </trkpt>
      <trkpt lat="49.379414" lon="10.186978">
        <ele>431.883787</ele>
        <time>2026-04-26T19:18:47.075Z</time>
      </trkpt>
      <trkpt lat="49.379407" lon="10.186935">
        <ele>431.883787</ele>
        <time>2026-04-26T19:18:48.227Z</time>
      </trkpt>
      <trkpt lat="49.379435" lon="10.186916">
        <ele>431.883787</ele>
        <time>2026-04-26T19:18:49.233Z</time>
      </trkpt>
      <trkpt lat="49.379363" lon="10.186676">
        <ele>431.883787</ele>
        <time>2026-04-26T19:18:55.037Z</time>
      </trkpt>
      <trkpt lat="49.379248" lon="10.186324">
        <ele>431.883787</ele>
        <time>2026-04-26T19:19:03.568Z</time>
      </trkpt>
      <trkpt lat="49.379269" lon="10.186195">
        <ele>431.883787</ele>
        <time>2026-04-26T19:19:06.414Z</time>
      </trkpt>
      <trkpt lat="49.379506" lon="10.186040">
        <ele>431.883787</ele>
        <time>2026-04-26T19:19:14.745Z</time>
      </trkpt>
      <trkpt lat="49.379526" lon="10.186028">
        <ele>431.883787</ele>
        <time>2026-04-26T19:19:15.439Z</time>
      </trkpt>
      <trkpt lat="49.379593" lon="10.185988">
        <ele>431.883787</ele>
        <time>2026-04-26T19:19:17.718Z</time>
      </trkpt>
      <trkpt lat="49.379640" lon="10.185962">
        <ele>431.883787</ele>
        <time>2026-04-26T19:19:19.283Z</time>
      </trkpt>
      <trkpt lat="49.379941" lon="10.185771">
        <ele>431.883787</ele>
        <time>2026-04-26T19:19:41.919Z</time>
      </trkpt>
    </trkseg>
  </trk>
</gpx>